<?xml version="1.0" encoding="UTF-8" standalone="no" ?>
<gpx xmlns="http://www.topografix.com/GPX/1/1" xmlns:xsi="http://www.w3.org/2001/XMLSchema-instance" xsi:schemaLocation="http://www.topografix.com/GPX/1/1 http://www.topografix.com/GPX/1/1/gpx.xsd" version="1.1" creator="VisuGPX - https://www.visugpx.com">
  <metadata>
    <name>TOUR QUEYRAS_JOUR 6 : LES FONDS-SOULIERS par variante du lac des Cordes</name>
    <desc><![CDATA[

]]></desc>
  </metadata>
  <trk>
    <name><![CDATA[TOUR QUEYRAS_JOUR 6 : LES FONDS-SOULIERS par variante du lac des Cordes]]></name>
    <extensions>
      <line xmlns="http://www.topografix.com/GPX/gpx_style/0/2">
        <color>000088</color>
        <width>4</width>
      </line>
    </extensions>
    <trkseg>
      <trkpt lat="44.84505" lon="6.8153">
        <ele>2053.99</ele>
        <time>2018-09-14T05:11:19Z</time>
      </trkpt>
      <trkpt lat="44.84508" lon="6.81515">
        <ele>2053.51</ele>
        <time>2018-09-14T05:11:27Z</time>
      </trkpt>
      <trkpt lat="44.84515" lon="6.81506">
        <ele>2053.51</ele>
        <time>2018-09-14T05:11:35Z</time>
      </trkpt>
      <trkpt lat="44.84525" lon="6.81499">
        <ele>2052.07</ele>
        <time>2018-09-14T05:11:43Z</time>
      </trkpt>
      <trkpt lat="44.84533" lon="6.81493">
        <ele>2054.47</ele>
        <time>2018-09-14T05:11:51Z</time>
      </trkpt>
      <trkpt lat="44.84543" lon="6.81487">
        <ele>2053.99</ele>
        <time>2018-09-14T05:12:00Z</time>
      </trkpt>
      <trkpt lat="44.8455" lon="6.81478">
        <ele>2052.55</ele>
        <time>2018-09-14T05:12:08Z</time>
      </trkpt>
      <trkpt lat="44.84555" lon="6.81466">
        <ele>2053.03</ele>
        <time>2018-09-14T05:12:16Z</time>
      </trkpt>
      <trkpt lat="44.84558" lon="6.81455">
        <ele>2052.07</ele>
        <time>2018-09-14T05:12:24Z</time>
      </trkpt>
      <trkpt lat="44.84557" lon="6.81443">
        <ele>2050.15</ele>
        <time>2018-09-14T05:12:32Z</time>
      </trkpt>
      <trkpt lat="44.84558" lon="6.8143">
        <ele>2049.67</ele>
        <time>2018-09-14T05:12:40Z</time>
      </trkpt>
      <trkpt lat="44.84561" lon="6.81418">
        <ele>2051.11</ele>
        <time>2018-09-14T05:12:50Z</time>
      </trkpt>
      <trkpt lat="44.84563" lon="6.81403">
        <ele>2048.71</ele>
        <time>2018-09-14T05:12:58Z</time>
      </trkpt>
      <trkpt lat="44.84567" lon="6.8139">
        <ele>2051.59</ele>
        <time>2018-09-14T05:13:07Z</time>
      </trkpt>
      <trkpt lat="44.8457" lon="6.81375">
        <ele>2050.63</ele>
        <time>2018-09-14T05:13:16Z</time>
      </trkpt>
      <trkpt lat="44.84573" lon="6.81361">
        <ele>2051.59</ele>
        <time>2018-09-14T05:13:25Z</time>
      </trkpt>
      <trkpt lat="44.84576" lon="6.81347">
        <ele>2051.59</ele>
        <time>2018-09-14T05:13:34Z</time>
      </trkpt>
      <trkpt lat="44.84581" lon="6.81333">
        <ele>2049.67</ele>
        <time>2018-09-14T05:13:43Z</time>
      </trkpt>
      <trkpt lat="44.84584" lon="6.81322">
        <ele>2050.15</ele>
        <time>2018-09-14T05:13:51Z</time>
      </trkpt>
      <trkpt lat="44.84589" lon="6.81309">
        <ele>2050.15</ele>
        <time>2018-09-14T05:14:00Z</time>
      </trkpt>
      <trkpt lat="44.84595" lon="6.81298">
        <ele>2049.19</ele>
        <time>2018-09-14T05:14:08Z</time>
      </trkpt>
      <trkpt lat="44.84602" lon="6.81287">
        <ele>2048.23</ele>
        <time>2018-09-14T05:14:16Z</time>
      </trkpt>
      <trkpt lat="44.84608" lon="6.81277">
        <ele>2047.26</ele>
        <time>2018-09-14T05:14:24Z</time>
      </trkpt>
      <trkpt lat="44.84615" lon="6.81266">
        <ele>2046.78</ele>
        <time>2018-09-14T05:14:32Z</time>
      </trkpt>
      <trkpt lat="44.84622" lon="6.81256">
        <ele>2047.26</ele>
        <time>2018-09-14T05:14:40Z</time>
      </trkpt>
      <trkpt lat="44.84629" lon="6.81248">
        <ele>2046.3</ele>
        <time>2018-09-14T05:14:47Z</time>
      </trkpt>
      <trkpt lat="44.84636" lon="6.81238">
        <ele>2046.3</ele>
        <time>2018-09-14T05:14:56Z</time>
      </trkpt>
      <trkpt lat="44.84647" lon="6.8123">
        <ele>2046.3</ele>
        <time>2018-09-14T05:15:04Z</time>
      </trkpt>
      <trkpt lat="44.84655" lon="6.81222">
        <ele>2045.82</ele>
        <time>2018-09-14T05:15:12Z</time>
      </trkpt>
      <trkpt lat="44.84663" lon="6.81214">
        <ele>2045.82</ele>
        <time>2018-09-14T05:15:20Z</time>
      </trkpt>
      <trkpt lat="44.84672" lon="6.81205">
        <ele>2045.34</ele>
        <time>2018-09-14T05:15:28Z</time>
      </trkpt>
      <trkpt lat="44.8468" lon="6.81196">
        <ele>2044.86</ele>
        <time>2018-09-14T05:15:35Z</time>
      </trkpt>
      <trkpt lat="44.84688" lon="6.81188">
        <ele>2044.86</ele>
        <time>2018-09-14T05:15:43Z</time>
      </trkpt>
      <trkpt lat="44.84695" lon="6.81175">
        <ele>2043.9</ele>
        <time>2018-09-14T05:15:51Z</time>
      </trkpt>
      <trkpt lat="44.84702" lon="6.81162">
        <ele>2044.38</ele>
        <time>2018-09-14T05:16:00Z</time>
      </trkpt>
      <trkpt lat="44.84707" lon="6.81151">
        <ele>2043.42</ele>
        <time>2018-09-14T05:16:08Z</time>
      </trkpt>
      <trkpt lat="44.84714" lon="6.8114">
        <ele>2043.9</ele>
        <time>2018-09-14T05:16:16Z</time>
      </trkpt>
      <trkpt lat="44.84718" lon="6.81126">
        <ele>2043.9</ele>
        <time>2018-09-14T05:16:25Z</time>
      </trkpt>
      <trkpt lat="44.84719" lon="6.81112">
        <ele>2044.86</ele>
        <time>2018-09-14T05:16:38Z</time>
      </trkpt>
      <trkpt lat="44.84719" lon="6.811">
        <ele>2044.38</ele>
        <time>2018-09-14T05:16:51Z</time>
      </trkpt>
      <trkpt lat="44.84739" lon="6.8108">
        <ele>2043.42</ele>
        <time>2018-09-14T05:17:11Z</time>
      </trkpt>
      <trkpt lat="44.84769" lon="6.81061">
        <ele>2043.42</ele>
        <time>2018-09-14T05:17:29Z</time>
      </trkpt>
      <trkpt lat="44.84787" lon="6.81043">
        <ele>2044.86</ele>
        <time>2018-09-14T05:17:45Z</time>
      </trkpt>
      <trkpt lat="44.84798" lon="6.81029">
        <ele>2045.34</ele>
        <time>2018-09-14T05:17:55Z</time>
      </trkpt>
      <trkpt lat="44.84805" lon="6.81014">
        <ele>2045.82</ele>
        <time>2018-09-14T05:18:05Z</time>
      </trkpt>
      <trkpt lat="44.84812" lon="6.81001">
        <ele>2044.86</ele>
        <time>2018-09-14T05:18:13Z</time>
      </trkpt>
      <trkpt lat="44.84817" lon="6.80988">
        <ele>2044.38</ele>
        <time>2018-09-14T05:18:24Z</time>
      </trkpt>
      <trkpt lat="44.84832" lon="6.80972">
        <ele>2043.42</ele>
        <time>2018-09-14T05:18:38Z</time>
      </trkpt>
      <trkpt lat="44.84843" lon="6.80972">
        <ele>2042.94</ele>
        <time>2018-09-14T05:18:50Z</time>
      </trkpt>
      <trkpt lat="44.84857" lon="6.8097">
        <ele>2042.46</ele>
        <time>2018-09-14T05:19:02Z</time>
      </trkpt>
      <trkpt lat="44.8487" lon="6.80964">
        <ele>2041.5</ele>
        <time>2018-09-14T05:19:14Z</time>
      </trkpt>
      <trkpt lat="44.84877" lon="6.80953">
        <ele>2039.57</ele>
        <time>2018-09-14T05:19:23Z</time>
      </trkpt>
      <trkpt lat="44.84882" lon="6.80941">
        <ele>2038.61</ele>
        <time>2018-09-14T05:19:31Z</time>
      </trkpt>
      <trkpt lat="44.84882" lon="6.80929">
        <ele>2037.65</ele>
        <time>2018-09-14T05:19:40Z</time>
      </trkpt>
      <trkpt lat="44.84886" lon="6.80917">
        <ele>2040.05</ele>
        <time>2018-09-14T05:19:49Z</time>
      </trkpt>
      <trkpt lat="44.84895" lon="6.80909">
        <ele>2038.61</ele>
        <time>2018-09-14T05:19:58Z</time>
      </trkpt>
      <trkpt lat="44.84904" lon="6.809">
        <ele>2037.65</ele>
        <time>2018-09-14T05:20:07Z</time>
      </trkpt>
      <trkpt lat="44.84908" lon="6.80889">
        <ele>2037.65</ele>
        <time>2018-09-14T05:20:16Z</time>
      </trkpt>
      <trkpt lat="44.84916" lon="6.80878">
        <ele>2036.69</ele>
        <time>2018-09-14T05:20:25Z</time>
      </trkpt>
      <trkpt lat="44.84924" lon="6.80868">
        <ele>2035.73</ele>
        <time>2018-09-14T05:20:34Z</time>
      </trkpt>
      <trkpt lat="44.84934" lon="6.80861">
        <ele>2033.81</ele>
        <time>2018-09-14T05:20:43Z</time>
      </trkpt>
      <trkpt lat="44.84942" lon="6.80853">
        <ele>2032.36</ele>
        <time>2018-09-14T05:20:50Z</time>
      </trkpt>
      <trkpt lat="44.84951" lon="6.80842">
        <ele>2030.92</ele>
        <time>2018-09-14T05:20:57Z</time>
      </trkpt>
      <trkpt lat="44.84958" lon="6.80828">
        <ele>2029.96</ele>
        <time>2018-09-14T05:21:06Z</time>
      </trkpt>
      <trkpt lat="44.84964" lon="6.80815">
        <ele>2028.52</ele>
        <time>2018-09-14T05:21:14Z</time>
      </trkpt>
      <trkpt lat="44.8497" lon="6.80803">
        <ele>2027.56</ele>
        <time>2018-09-14T05:21:24Z</time>
      </trkpt>
      <trkpt lat="44.84973" lon="6.80788">
        <ele>2026.6</ele>
        <time>2018-09-14T05:21:34Z</time>
      </trkpt>
      <trkpt lat="44.84974" lon="6.80771">
        <ele>2026.6</ele>
        <time>2018-09-14T05:21:44Z</time>
      </trkpt>
      <trkpt lat="44.8498" lon="6.80758">
        <ele>2024.67</ele>
        <time>2018-09-14T05:21:53Z</time>
      </trkpt>
      <trkpt lat="44.84988" lon="6.80748">
        <ele>2022.75</ele>
        <time>2018-09-14T05:22:02Z</time>
      </trkpt>
      <trkpt lat="44.84998" lon="6.8074">
        <ele>2022.75</ele>
        <time>2018-09-14T05:22:09Z</time>
      </trkpt>
      <trkpt lat="44.85007" lon="6.80735">
        <ele>2022.75</ele>
        <time>2018-09-14T05:22:17Z</time>
      </trkpt>
      <trkpt lat="44.85019" lon="6.80733">
        <ele>2022.75</ele>
        <time>2018-09-14T05:22:28Z</time>
      </trkpt>
      <trkpt lat="44.8503" lon="6.80734">
        <ele>2022.27</ele>
        <time>2018-09-14T05:22:39Z</time>
      </trkpt>
      <trkpt lat="44.85044" lon="6.8073">
        <ele>2021.31</ele>
        <time>2018-09-14T05:22:48Z</time>
      </trkpt>
      <trkpt lat="44.85055" lon="6.80729">
        <ele>2022.27</ele>
        <time>2018-09-14T05:22:56Z</time>
      </trkpt>
      <trkpt lat="44.85065" lon="6.80725">
        <ele>2022.27</ele>
        <time>2018-09-14T05:23:04Z</time>
      </trkpt>
      <trkpt lat="44.85075" lon="6.80717">
        <ele>2021.79</ele>
        <time>2018-09-14T05:23:13Z</time>
      </trkpt>
      <trkpt lat="44.85081" lon="6.80706">
        <ele>2020.83</ele>
        <time>2018-09-14T05:23:21Z</time>
      </trkpt>
      <trkpt lat="44.85088" lon="6.80695">
        <ele>2021.79</ele>
        <time>2018-09-14T05:23:29Z</time>
      </trkpt>
      <trkpt lat="44.85094" lon="6.80683">
        <ele>2021.79</ele>
        <time>2018-09-14T05:23:37Z</time>
      </trkpt>
      <trkpt lat="44.851" lon="6.80672">
        <ele>2020.83</ele>
        <time>2018-09-14T05:23:45Z</time>
      </trkpt>
      <trkpt lat="44.85104" lon="6.80657">
        <ele>2020.83</ele>
        <time>2018-09-14T05:23:53Z</time>
      </trkpt>
      <trkpt lat="44.85111" lon="6.80646">
        <ele>2020.35</ele>
        <time>2018-09-14T05:24:02Z</time>
      </trkpt>
      <trkpt lat="44.85114" lon="6.80633">
        <ele>2018.43</ele>
        <time>2018-09-14T05:24:12Z</time>
      </trkpt>
      <trkpt lat="44.85122" lon="6.80617">
        <ele>2017.94</ele>
        <time>2018-09-14T05:24:21Z</time>
      </trkpt>
      <trkpt lat="44.85126" lon="6.806">
        <ele>2016.98</ele>
        <time>2018-09-14T05:24:30Z</time>
      </trkpt>
      <trkpt lat="44.8513" lon="6.80587">
        <ele>2016.5</ele>
        <time>2018-09-14T05:24:39Z</time>
      </trkpt>
      <trkpt lat="44.85136" lon="6.8057">
        <ele>2014.58</ele>
        <time>2018-09-14T05:24:51Z</time>
      </trkpt>
      <trkpt lat="44.8514" lon="6.80554">
        <ele>2013.62</ele>
        <time>2018-09-14T05:25:01Z</time>
      </trkpt>
      <trkpt lat="44.85142" lon="6.80538">
        <ele>2013.14</ele>
        <time>2018-09-14T05:25:11Z</time>
      </trkpt>
      <trkpt lat="44.85146" lon="6.8052">
        <ele>2012.66</ele>
        <time>2018-09-14T05:25:21Z</time>
      </trkpt>
      <trkpt lat="44.85152" lon="6.80505">
        <ele>2011.22</ele>
        <time>2018-09-14T05:25:31Z</time>
      </trkpt>
      <trkpt lat="44.85157" lon="6.80488">
        <ele>2012.18</ele>
        <time>2018-09-14T05:25:44Z</time>
      </trkpt>
      <trkpt lat="44.8516" lon="6.80468">
        <ele>2013.62</ele>
        <time>2018-09-14T05:25:57Z</time>
      </trkpt>
      <trkpt lat="44.85163" lon="6.80448">
        <ele>2014.58</ele>
        <time>2018-09-14T05:26:10Z</time>
      </trkpt>
      <trkpt lat="44.85165" lon="6.80431">
        <ele>2015.54</ele>
        <time>2018-09-14T05:26:23Z</time>
      </trkpt>
      <trkpt lat="44.85171" lon="6.80417">
        <ele>2014.58</ele>
        <time>2018-09-14T05:26:34Z</time>
      </trkpt>
      <trkpt lat="44.85176" lon="6.80403">
        <ele>2013.62</ele>
        <time>2018-09-14T05:26:44Z</time>
      </trkpt>
      <trkpt lat="44.85183" lon="6.80394">
        <ele>2012.18</ele>
        <time>2018-09-14T05:26:55Z</time>
      </trkpt>
      <trkpt lat="44.85193" lon="6.80378">
        <ele>2010.73</ele>
        <time>2018-09-14T05:27:06Z</time>
      </trkpt>
      <trkpt lat="44.85201" lon="6.80363">
        <ele>2009.29</ele>
        <time>2018-09-14T05:27:15Z</time>
      </trkpt>
      <trkpt lat="44.85206" lon="6.80348">
        <ele>2010.25</ele>
        <time>2018-09-14T05:27:26Z</time>
      </trkpt>
      <trkpt lat="44.85212" lon="6.80333">
        <ele>2007.37</ele>
        <time>2018-09-14T05:27:41Z</time>
      </trkpt>
      <trkpt lat="44.85223" lon="6.80317">
        <ele>2005.93</ele>
        <time>2018-09-14T05:27:52Z</time>
      </trkpt>
      <trkpt lat="44.8523" lon="6.80303">
        <ele>2004.97</ele>
        <time>2018-09-14T05:28:01Z</time>
      </trkpt>
      <trkpt lat="44.85239" lon="6.80289">
        <ele>2003.52</ele>
        <time>2018-09-14T05:28:12Z</time>
      </trkpt>
      <trkpt lat="44.85246" lon="6.80275">
        <ele>2002.08</ele>
        <time>2018-09-14T05:28:21Z</time>
      </trkpt>
      <trkpt lat="44.85255" lon="6.80266">
        <ele>2000.64</ele>
        <time>2018-09-14T05:28:29Z</time>
      </trkpt>
      <trkpt lat="44.85262" lon="6.80253">
        <ele>2000.64</ele>
        <time>2018-09-14T05:28:38Z</time>
      </trkpt>
      <trkpt lat="44.85271" lon="6.80247">
        <ele>1998.24</ele>
        <time>2018-09-14T05:28:48Z</time>
      </trkpt>
      <trkpt lat="44.8528" lon="6.8024">
        <ele>1996.32</ele>
        <time>2018-09-14T05:28:56Z</time>
      </trkpt>
      <trkpt lat="44.85287" lon="6.80232">
        <ele>1993.91</ele>
        <time>2018-09-14T05:29:09Z</time>
      </trkpt>
      <trkpt lat="44.85299" lon="6.8022">
        <ele>1992.47</ele>
        <time>2018-09-14T05:29:17Z</time>
      </trkpt>
      <trkpt lat="44.8531" lon="6.8021">
        <ele>1991.03</ele>
        <time>2018-09-14T05:29:25Z</time>
      </trkpt>
      <trkpt lat="44.85316" lon="6.80199">
        <ele>1990.07</ele>
        <time>2018-09-14T05:29:33Z</time>
      </trkpt>
      <trkpt lat="44.85324" lon="6.80188">
        <ele>1988.14</ele>
        <time>2018-09-14T05:29:41Z</time>
      </trkpt>
      <trkpt lat="44.85332" lon="6.80178">
        <ele>1987.66</ele>
        <time>2018-09-14T05:29:49Z</time>
      </trkpt>
      <trkpt lat="44.85339" lon="6.8017">
        <ele>1986.22</ele>
        <time>2018-09-14T05:29:57Z</time>
      </trkpt>
      <trkpt lat="44.85347" lon="6.8016">
        <ele>1984.78</ele>
        <time>2018-09-14T05:30:05Z</time>
      </trkpt>
      <trkpt lat="44.85353" lon="6.8015">
        <ele>1983.82</ele>
        <time>2018-09-14T05:30:13Z</time>
      </trkpt>
      <trkpt lat="44.8536" lon="6.80141">
        <ele>1982.86</ele>
        <time>2018-09-14T05:30:21Z</time>
      </trkpt>
      <trkpt lat="44.85368" lon="6.80132">
        <ele>1981.9</ele>
        <time>2018-09-14T05:30:29Z</time>
      </trkpt>
      <trkpt lat="44.85375" lon="6.80124">
        <ele>1981.41</ele>
        <time>2018-09-14T05:30:38Z</time>
      </trkpt>
      <trkpt lat="44.85381" lon="6.80115">
        <ele>1979.49</ele>
        <time>2018-09-14T05:30:47Z</time>
      </trkpt>
      <trkpt lat="44.85389" lon="6.80106">
        <ele>1978.05</ele>
        <time>2018-09-14T05:30:56Z</time>
      </trkpt>
      <trkpt lat="44.85395" lon="6.80094">
        <ele>1979.01</ele>
        <time>2018-09-14T05:31:06Z</time>
      </trkpt>
      <trkpt lat="44.85403" lon="6.80083">
        <ele>1978.53</ele>
        <time>2018-09-14T05:31:16Z</time>
      </trkpt>
      <trkpt lat="44.85409" lon="6.80073">
        <ele>1977.57</ele>
        <time>2018-09-14T05:31:26Z</time>
      </trkpt>
      <trkpt lat="44.85416" lon="6.80063">
        <ele>1977.09</ele>
        <time>2018-09-14T05:31:36Z</time>
      </trkpt>
      <trkpt lat="44.8542" lon="6.80053">
        <ele>1976.13</ele>
        <time>2018-09-14T05:31:45Z</time>
      </trkpt>
      <trkpt lat="44.85425" lon="6.8004">
        <ele>1976.13</ele>
        <time>2018-09-14T05:31:55Z</time>
      </trkpt>
      <trkpt lat="44.85431" lon="6.80028">
        <ele>1975.17</ele>
        <time>2018-09-14T05:32:06Z</time>
      </trkpt>
      <trkpt lat="44.85435" lon="6.80018">
        <ele>1974.69</ele>
        <time>2018-09-14T05:32:16Z</time>
      </trkpt>
      <trkpt lat="44.85442" lon="6.80007">
        <ele>1974.2</ele>
        <time>2018-09-14T05:32:26Z</time>
      </trkpt>
      <trkpt lat="44.85449" lon="6.79996">
        <ele>1973.72</ele>
        <time>2018-09-14T05:32:37Z</time>
      </trkpt>
      <trkpt lat="44.85456" lon="6.79987">
        <ele>1974.69</ele>
        <time>2018-09-14T05:32:49Z</time>
      </trkpt>
      <trkpt lat="44.85465" lon="6.7998">
        <ele>1973.72</ele>
        <time>2018-09-14T05:33:00Z</time>
      </trkpt>
      <trkpt lat="44.85474" lon="6.79973">
        <ele>1973.24</ele>
        <time>2018-09-14T05:33:11Z</time>
      </trkpt>
      <trkpt lat="44.85484" lon="6.79968">
        <ele>1972.76</ele>
        <time>2018-09-14T05:33:22Z</time>
      </trkpt>
      <trkpt lat="44.8548" lon="6.79963">
        <ele>1972.76</ele>
        <time>2018-09-14T05:33:36Z</time>
      </trkpt>
      <trkpt lat="44.8547" lon="6.79961">
        <ele>1973.24</ele>
        <time>2018-09-14T05:33:50Z</time>
      </trkpt>
      <trkpt lat="44.85461" lon="6.79954">
        <ele>1976.13</ele>
        <time>2018-09-14T05:34:09Z</time>
      </trkpt>
      <trkpt lat="44.85453" lon="6.79947">
        <ele>1977.57</ele>
        <time>2018-09-14T05:34:24Z</time>
      </trkpt>
      <trkpt lat="44.85445" lon="6.79939">
        <ele>1980.93</ele>
        <time>2018-09-14T05:34:44Z</time>
      </trkpt>
      <trkpt lat="44.85438" lon="6.79932">
        <ele>1982.86</ele>
        <time>2018-09-14T05:35:01Z</time>
      </trkpt>
      <trkpt lat="44.85427" lon="6.79933">
        <ele>1986.22</ele>
        <time>2018-09-14T05:35:26Z</time>
      </trkpt>
      <trkpt lat="44.85426" lon="6.79917">
        <ele>1987.18</ele>
        <time>2018-09-14T05:36:37Z</time>
      </trkpt>
      <trkpt lat="44.85419" lon="6.79914">
        <ele>1989.59</ele>
        <time>2018-09-14T05:37:18Z</time>
      </trkpt>
      <trkpt lat="44.8541" lon="6.79908">
        <ele>1993.91</ele>
        <time>2018-09-14T05:37:50Z</time>
      </trkpt>
      <trkpt lat="44.85416" lon="6.79892">
        <ele>1998.72</ele>
        <time>2018-09-14T05:38:22Z</time>
      </trkpt>
      <trkpt lat="44.85405" lon="6.79893">
        <ele>2002.08</ele>
        <time>2018-09-14T05:38:47Z</time>
      </trkpt>
      <trkpt lat="44.85391" lon="6.79901">
        <ele>2005.45</ele>
        <time>2018-09-14T05:39:20Z</time>
      </trkpt>
      <trkpt lat="44.85384" lon="6.79912">
        <ele>2007.37</ele>
        <time>2018-09-14T05:39:37Z</time>
      </trkpt>
      <trkpt lat="44.85375" lon="6.79921">
        <ele>2008.81</ele>
        <time>2018-09-14T05:39:52Z</time>
      </trkpt>
      <trkpt lat="44.85363" lon="6.79927">
        <ele>2010.25</ele>
        <time>2018-09-14T05:40:09Z</time>
      </trkpt>
      <trkpt lat="44.85353" lon="6.79933">
        <ele>2012.66</ele>
        <time>2018-09-14T05:40:26Z</time>
      </trkpt>
      <trkpt lat="44.85344" lon="6.79946">
        <ele>2015.54</ele>
        <time>2018-09-14T05:40:46Z</time>
      </trkpt>
      <trkpt lat="44.85336" lon="6.79959">
        <ele>2017.46</ele>
        <time>2018-09-14T05:41:04Z</time>
      </trkpt>
      <trkpt lat="44.85324" lon="6.79968">
        <ele>2020.35</ele>
        <time>2018-09-14T05:41:34Z</time>
      </trkpt>
      <trkpt lat="44.85311" lon="6.79965">
        <ele>2024.19</ele>
        <time>2018-09-14T05:42:05Z</time>
      </trkpt>
      <trkpt lat="44.85299" lon="6.79971">
        <ele>2026.6</ele>
        <time>2018-09-14T05:42:22Z</time>
      </trkpt>
      <trkpt lat="44.85288" lon="6.79965">
        <ele>2027.56</ele>
        <time>2018-09-14T05:42:38Z</time>
      </trkpt>
      <trkpt lat="44.85275" lon="6.79966">
        <ele>2029</ele>
        <time>2018-09-14T05:42:55Z</time>
      </trkpt>
      <trkpt lat="44.85265" lon="6.79976">
        <ele>2032.84</ele>
        <time>2018-09-14T05:43:16Z</time>
      </trkpt>
      <trkpt lat="44.85258" lon="6.79969">
        <ele>2035.25</ele>
        <time>2018-09-14T05:43:38Z</time>
      </trkpt>
      <trkpt lat="44.85266" lon="6.79953">
        <ele>2036.69</ele>
        <time>2018-09-14T05:43:56Z</time>
      </trkpt>
      <trkpt lat="44.85272" lon="6.79937">
        <ele>2040.05</ele>
        <time>2018-09-14T05:44:17Z</time>
      </trkpt>
      <trkpt lat="44.85287" lon="6.79928">
        <ele>2041.98</ele>
        <time>2018-09-14T05:44:40Z</time>
      </trkpt>
      <trkpt lat="44.85298" lon="6.79914">
        <ele>2045.34</ele>
        <time>2018-09-14T05:45:08Z</time>
      </trkpt>
      <trkpt lat="44.85299" lon="6.79895">
        <ele>2048.71</ele>
        <time>2018-09-14T05:45:32Z</time>
      </trkpt>
      <trkpt lat="44.8531" lon="6.79892">
        <ele>2051.11</ele>
        <time>2018-09-14T05:45:57Z</time>
      </trkpt>
      <trkpt lat="44.85312" lon="6.79861">
        <ele>2055.44</ele>
        <time>2018-09-14T05:46:25Z</time>
      </trkpt>
      <trkpt lat="44.85318" lon="6.79842">
        <ele>2058.8</ele>
        <time>2018-09-14T05:46:51Z</time>
      </trkpt>
      <trkpt lat="44.85318" lon="6.79821">
        <ele>2061.2</ele>
        <time>2018-09-14T05:47:17Z</time>
      </trkpt>
      <trkpt lat="44.85317" lon="6.79825">
        <ele>2065.05</ele>
        <time>2018-09-14T05:47:47Z</time>
      </trkpt>
      <trkpt lat="44.85308" lon="6.79836">
        <ele>2067.45</ele>
        <time>2018-09-14T05:48:05Z</time>
      </trkpt>
      <trkpt lat="44.853" lon="6.79846">
        <ele>2069.38</ele>
        <time>2018-09-14T05:48:25Z</time>
      </trkpt>
      <trkpt lat="44.85288" lon="6.79853">
        <ele>2073.22</ele>
        <time>2018-09-14T05:48:46Z</time>
      </trkpt>
      <trkpt lat="44.85277" lon="6.79864">
        <ele>2075.62</ele>
        <time>2018-09-14T05:49:11Z</time>
      </trkpt>
      <trkpt lat="44.85263" lon="6.79867">
        <ele>2078.99</ele>
        <time>2018-09-14T05:49:33Z</time>
      </trkpt>
      <trkpt lat="44.85265" lon="6.7986">
        <ele>2081.87</ele>
        <time>2018-09-14T05:49:56Z</time>
      </trkpt>
      <trkpt lat="44.85267" lon="6.79843">
        <ele>2083.79</ele>
        <time>2018-09-14T05:50:16Z</time>
      </trkpt>
      <trkpt lat="44.85275" lon="6.79819">
        <ele>2086.68</ele>
        <time>2018-09-14T05:50:44Z</time>
      </trkpt>
      <trkpt lat="44.85279" lon="6.798">
        <ele>2090.52</ele>
        <time>2018-09-14T05:51:12Z</time>
      </trkpt>
      <trkpt lat="44.85282" lon="6.79785">
        <ele>2093.41</ele>
        <time>2018-09-14T05:51:33Z</time>
      </trkpt>
      <trkpt lat="44.85278" lon="6.7979">
        <ele>2095.81</ele>
        <time>2018-09-14T05:51:54Z</time>
      </trkpt>
      <trkpt lat="44.8527" lon="6.79802">
        <ele>2099.18</ele>
        <time>2018-09-14T05:52:13Z</time>
      </trkpt>
      <trkpt lat="44.85262" lon="6.79811">
        <ele>2101.58</ele>
        <time>2018-09-14T05:52:35Z</time>
      </trkpt>
      <trkpt lat="44.85254" lon="6.79822">
        <ele>2102.54</ele>
        <time>2018-09-14T05:52:51Z</time>
      </trkpt>
      <trkpt lat="44.85239" lon="6.79834">
        <ele>2105.42</ele>
        <time>2018-09-14T05:53:14Z</time>
      </trkpt>
      <trkpt lat="44.85229" lon="6.79837">
        <ele>2108.31</ele>
        <time>2018-09-14T05:53:33Z</time>
      </trkpt>
      <trkpt lat="44.85241" lon="6.79819">
        <ele>2110.71</ele>
        <time>2018-09-14T05:53:57Z</time>
      </trkpt>
      <trkpt lat="44.85241" lon="6.7981">
        <ele>2114.56</ele>
        <time>2018-09-14T05:54:26Z</time>
      </trkpt>
      <trkpt lat="44.85243" lon="6.79786">
        <ele>2118.4</ele>
        <time>2018-09-14T05:54:53Z</time>
      </trkpt>
      <trkpt lat="44.8525" lon="6.79771">
        <ele>2121.77</ele>
        <time>2018-09-14T05:55:15Z</time>
      </trkpt>
      <trkpt lat="44.85252" lon="6.79753">
        <ele>2124.17</ele>
        <time>2018-09-14T05:55:37Z</time>
      </trkpt>
      <trkpt lat="44.85252" lon="6.79734">
        <ele>2126.57</ele>
        <time>2018-09-14T05:55:59Z</time>
      </trkpt>
      <trkpt lat="44.85263" lon="6.79725">
        <ele>2129.46</ele>
        <time>2018-09-14T05:56:27Z</time>
      </trkpt>
      <trkpt lat="44.8526" lon="6.79722">
        <ele>2134.26</ele>
        <time>2018-09-14T05:56:52Z</time>
      </trkpt>
      <trkpt lat="44.85254" lon="6.79712">
        <ele>2138.11</ele>
        <time>2018-09-14T05:57:24Z</time>
      </trkpt>
      <trkpt lat="44.85257" lon="6.79698">
        <ele>2142.44</ele>
        <time>2018-09-14T05:58:09Z</time>
      </trkpt>
      <trkpt lat="44.85268" lon="6.79693">
        <ele>2145.8</ele>
        <time>2018-09-14T05:58:41Z</time>
      </trkpt>
      <trkpt lat="44.85274" lon="6.79684">
        <ele>2148.2</ele>
        <time>2018-09-14T05:59:00Z</time>
      </trkpt>
      <trkpt lat="44.85281" lon="6.79668">
        <ele>2149.65</ele>
        <time>2018-09-14T05:59:19Z</time>
      </trkpt>
      <trkpt lat="44.85279" lon="6.79644">
        <ele>2150.61</ele>
        <time>2018-09-14T05:59:36Z</time>
      </trkpt>
      <trkpt lat="44.85286" lon="6.79627">
        <ele>2151.57</ele>
        <time>2018-09-14T05:59:51Z</time>
      </trkpt>
      <trkpt lat="44.85296" lon="6.79612">
        <ele>2151.57</ele>
        <time>2018-09-14T06:00:04Z</time>
      </trkpt>
      <trkpt lat="44.85302" lon="6.79594">
        <ele>2152.53</ele>
        <time>2018-09-14T06:00:22Z</time>
      </trkpt>
      <trkpt lat="44.85311" lon="6.79582">
        <ele>2152.53</ele>
        <time>2018-09-14T06:00:35Z</time>
      </trkpt>
      <trkpt lat="44.85307" lon="6.7958">
        <ele>2155.89</ele>
        <time>2018-09-14T06:00:53Z</time>
      </trkpt>
      <trkpt lat="44.85314" lon="6.79564">
        <ele>2156.86</ele>
        <time>2018-09-14T06:01:10Z</time>
      </trkpt>
      <trkpt lat="44.85307" lon="6.79572">
        <ele>2160.7</ele>
        <time>2018-09-14T06:01:35Z</time>
      </trkpt>
      <trkpt lat="44.853" lon="6.79576">
        <ele>2162.62</ele>
        <time>2018-09-14T06:01:51Z</time>
      </trkpt>
      <trkpt lat="44.85307" lon="6.79548">
        <ele>2167.43</ele>
        <time>2018-09-14T06:02:22Z</time>
      </trkpt>
      <trkpt lat="44.85313" lon="6.79536">
        <ele>2172.24</ele>
        <time>2018-09-14T06:03:01Z</time>
      </trkpt>
      <trkpt lat="44.85314" lon="6.79526">
        <ele>2177.52</ele>
        <time>2018-09-14T06:03:47Z</time>
      </trkpt>
      <trkpt lat="44.85317" lon="6.7951">
        <ele>2185.21</ele>
        <time>2018-09-14T06:05:23Z</time>
      </trkpt>
      <trkpt lat="44.85307" lon="6.79502">
        <ele>2192.42</ele>
        <time>2018-09-14T06:06:37Z</time>
      </trkpt>
      <trkpt lat="44.85294" lon="6.79496">
        <ele>2192.42</ele>
        <time>2018-09-14T06:06:57Z</time>
      </trkpt>
      <trkpt lat="44.85282" lon="6.79489">
        <ele>2195.79</ele>
        <time>2018-09-14T06:07:17Z</time>
      </trkpt>
      <trkpt lat="44.8527" lon="6.79481">
        <ele>2195.31</ele>
        <time>2018-09-14T06:07:31Z</time>
      </trkpt>
      <trkpt lat="44.85261" lon="6.79483">
        <ele>2196.27</ele>
        <time>2018-09-14T06:07:42Z</time>
      </trkpt>
      <trkpt lat="44.8525" lon="6.79483">
        <ele>2195.79</ele>
        <time>2018-09-14T06:07:53Z</time>
      </trkpt>
      <trkpt lat="44.85237" lon="6.79483">
        <ele>2199.15</ele>
        <time>2018-09-14T06:08:11Z</time>
      </trkpt>
      <trkpt lat="44.85226" lon="6.79482">
        <ele>2199.63</ele>
        <time>2018-09-14T06:08:23Z</time>
      </trkpt>
      <trkpt lat="44.85217" lon="6.79478">
        <ele>2200.59</ele>
        <time>2018-09-14T06:08:34Z</time>
      </trkpt>
      <trkpt lat="44.85205" lon="6.79472">
        <ele>2201.56</ele>
        <time>2018-09-14T06:08:47Z</time>
      </trkpt>
      <trkpt lat="44.85197" lon="6.79463">
        <ele>2203.96</ele>
        <time>2018-09-14T06:09:04Z</time>
      </trkpt>
      <trkpt lat="44.85187" lon="6.79462">
        <ele>2206.84</ele>
        <time>2018-09-14T06:09:22Z</time>
      </trkpt>
      <trkpt lat="44.85177" lon="6.79458">
        <ele>2208.29</ele>
        <time>2018-09-14T06:09:37Z</time>
      </trkpt>
      <trkpt lat="44.85168" lon="6.79455">
        <ele>2208.29</ele>
        <time>2018-09-14T06:09:47Z</time>
      </trkpt>
      <trkpt lat="44.85158" lon="6.7945">
        <ele>2210.69</ele>
        <time>2018-09-14T06:10:01Z</time>
      </trkpt>
      <trkpt lat="44.85147" lon="6.7945">
        <ele>2213.09</ele>
        <time>2018-09-14T06:10:17Z</time>
      </trkpt>
      <trkpt lat="44.85138" lon="6.79452">
        <ele>2215.5</ele>
        <time>2018-09-14T06:10:33Z</time>
      </trkpt>
      <trkpt lat="44.85131" lon="6.79461">
        <ele>2216.94</ele>
        <time>2018-09-14T06:10:43Z</time>
      </trkpt>
      <trkpt lat="44.85122" lon="6.79465">
        <ele>2216.46</ele>
        <time>2018-09-14T06:10:55Z</time>
      </trkpt>
      <trkpt lat="44.85116" lon="6.79475">
        <ele>2217.42</ele>
        <time>2018-09-14T06:11:06Z</time>
      </trkpt>
      <trkpt lat="44.85106" lon="6.7947">
        <ele>2216.94</ele>
        <time>2018-09-14T06:11:18Z</time>
      </trkpt>
      <trkpt lat="44.85095" lon="6.79466">
        <ele>2218.86</ele>
        <time>2018-09-14T06:11:31Z</time>
      </trkpt>
      <trkpt lat="44.85088" lon="6.79471">
        <ele>2222.22</ele>
        <time>2018-09-14T06:11:54Z</time>
      </trkpt>
      <trkpt lat="44.85078" lon="6.79464">
        <ele>2225.11</ele>
        <time>2018-09-14T06:12:12Z</time>
      </trkpt>
      <trkpt lat="44.8507" lon="6.79453">
        <ele>2227.03</ele>
        <time>2018-09-14T06:12:27Z</time>
      </trkpt>
      <trkpt lat="44.85061" lon="6.79443">
        <ele>2229.43</ele>
        <time>2018-09-14T06:12:48Z</time>
      </trkpt>
      <trkpt lat="44.85049" lon="6.79429">
        <ele>2231.84</ele>
        <time>2018-09-14T06:13:08Z</time>
      </trkpt>
      <trkpt lat="44.85043" lon="6.79423">
        <ele>2234.72</ele>
        <time>2018-09-14T06:13:24Z</time>
      </trkpt>
      <trkpt lat="44.85034" lon="6.79419">
        <ele>2235.2</ele>
        <time>2018-09-14T06:13:35Z</time>
      </trkpt>
      <trkpt lat="44.8503" lon="6.79405">
        <ele>2236.16</ele>
        <time>2018-09-14T06:13:48Z</time>
      </trkpt>
      <trkpt lat="44.85031" lon="6.79389">
        <ele>2238.57</ele>
        <time>2018-09-14T06:14:06Z</time>
      </trkpt>
      <trkpt lat="44.85022" lon="6.79395">
        <ele>2240.49</ele>
        <time>2018-09-14T06:14:23Z</time>
      </trkpt>
      <trkpt lat="44.85013" lon="6.7939">
        <ele>2243.37</ele>
        <time>2018-09-14T06:14:41Z</time>
      </trkpt>
      <trkpt lat="44.85005" lon="6.79387">
        <ele>2245.78</ele>
        <time>2018-09-14T06:14:59Z</time>
      </trkpt>
      <trkpt lat="44.84998" lon="6.79378">
        <ele>2248.18</ele>
        <time>2018-09-14T06:15:20Z</time>
      </trkpt>
      <trkpt lat="44.84997" lon="6.79368">
        <ele>2250.58</ele>
        <time>2018-09-14T06:15:40Z</time>
      </trkpt>
      <trkpt lat="44.85009" lon="6.79364">
        <ele>2252.99</ele>
        <time>2018-09-14T06:15:57Z</time>
      </trkpt>
      <trkpt lat="44.85005" lon="6.79363">
        <ele>2254.91</ele>
        <time>2018-09-14T06:16:19Z</time>
      </trkpt>
      <trkpt lat="44.84995" lon="6.79358">
        <ele>2257.31</ele>
        <time>2018-09-14T06:16:36Z</time>
      </trkpt>
      <trkpt lat="44.84985" lon="6.79354">
        <ele>2259.72</ele>
        <time>2018-09-14T06:16:55Z</time>
      </trkpt>
      <trkpt lat="44.84975" lon="6.79349">
        <ele>2262.12</ele>
        <time>2018-09-14T06:17:14Z</time>
      </trkpt>
      <trkpt lat="44.84982" lon="6.7934">
        <ele>2264.04</ele>
        <time>2018-09-14T06:17:31Z</time>
      </trkpt>
      <trkpt lat="44.84977" lon="6.79338">
        <ele>2265.96</ele>
        <time>2018-09-14T06:17:47Z</time>
      </trkpt>
      <trkpt lat="44.84972" lon="6.79335">
        <ele>2267.89</ele>
        <time>2018-09-14T06:18:04Z</time>
      </trkpt>
      <trkpt lat="44.84975" lon="6.7932">
        <ele>2269.81</ele>
        <time>2018-09-14T06:18:19Z</time>
      </trkpt>
      <trkpt lat="44.84967" lon="6.79325">
        <ele>2270.77</ele>
        <time>2018-09-14T06:18:34Z</time>
      </trkpt>
      <trkpt lat="44.84958" lon="6.79315">
        <ele>2273.17</ele>
        <time>2018-09-14T06:18:50Z</time>
      </trkpt>
      <trkpt lat="44.84951" lon="6.79307">
        <ele>2275.58</ele>
        <time>2018-09-14T06:19:05Z</time>
      </trkpt>
      <trkpt lat="44.84944" lon="6.79301">
        <ele>2276.54</ele>
        <time>2018-09-14T06:19:18Z</time>
      </trkpt>
      <trkpt lat="44.84938" lon="6.79291">
        <ele>2278.94</ele>
        <time>2018-09-14T06:19:36Z</time>
      </trkpt>
      <trkpt lat="44.8493" lon="6.79283">
        <ele>2281.83</ele>
        <time>2018-09-14T06:19:58Z</time>
      </trkpt>
      <trkpt lat="44.84926" lon="6.79272">
        <ele>2284.23</ele>
        <time>2018-09-14T06:20:16Z</time>
      </trkpt>
      <trkpt lat="44.8492" lon="6.79262">
        <ele>2287.59</ele>
        <time>2018-09-14T06:20:38Z</time>
      </trkpt>
      <trkpt lat="44.84915" lon="6.7925">
        <ele>2290</ele>
        <time>2018-09-14T06:20:58Z</time>
      </trkpt>
      <trkpt lat="44.84907" lon="6.79245">
        <ele>2292.4</ele>
        <time>2018-09-14T06:21:16Z</time>
      </trkpt>
      <trkpt lat="44.849" lon="6.7924">
        <ele>2294.32</ele>
        <time>2018-09-14T06:21:32Z</time>
      </trkpt>
      <trkpt lat="44.84892" lon="6.79235">
        <ele>2296.25</ele>
        <time>2018-09-14T06:21:51Z</time>
      </trkpt>
      <trkpt lat="44.84883" lon="6.79227">
        <ele>2298.65</ele>
        <time>2018-09-14T06:22:10Z</time>
      </trkpt>
      <trkpt lat="44.84874" lon="6.79222">
        <ele>2302.49</ele>
        <time>2018-09-14T06:22:41Z</time>
      </trkpt>
      <trkpt lat="44.84865" lon="6.79221">
        <ele>2305.38</ele>
        <time>2018-09-14T06:23:05Z</time>
      </trkpt>
      <trkpt lat="44.84859" lon="6.79224">
        <ele>2308.74</ele>
        <time>2018-09-14T06:23:29Z</time>
      </trkpt>
      <trkpt lat="44.8486" lon="6.79231">
        <ele>2311.63</ele>
        <time>2018-09-14T06:23:51Z</time>
      </trkpt>
      <trkpt lat="44.84864" lon="6.79241">
        <ele>2312.59</ele>
        <time>2018-09-14T06:24:05Z</time>
      </trkpt>
      <trkpt lat="44.84867" lon="6.79255">
        <ele>2313.55</ele>
        <time>2018-09-14T06:24:19Z</time>
      </trkpt>
      <trkpt lat="44.84867" lon="6.79267">
        <ele>2314.99</ele>
        <time>2018-09-14T06:24:32Z</time>
      </trkpt>
      <trkpt lat="44.84863" lon="6.79281">
        <ele>2316.43</ele>
        <time>2018-09-14T06:24:48Z</time>
      </trkpt>
      <trkpt lat="44.84859" lon="6.79293">
        <ele>2319.32</ele>
        <time>2018-09-14T06:25:03Z</time>
      </trkpt>
      <trkpt lat="44.84853" lon="6.79303">
        <ele>2320.28</ele>
        <time>2018-09-14T06:25:19Z</time>
      </trkpt>
      <trkpt lat="44.84846" lon="6.79312">
        <ele>2322.2</ele>
        <time>2018-09-14T06:25:34Z</time>
      </trkpt>
      <trkpt lat="44.8484" lon="6.79322">
        <ele>2323.16</ele>
        <time>2018-09-14T06:25:48Z</time>
      </trkpt>
      <trkpt lat="44.84836" lon="6.79335">
        <ele>2324.12</ele>
        <time>2018-09-14T06:26:02Z</time>
      </trkpt>
      <trkpt lat="44.84828" lon="6.79343">
        <ele>2327.01</ele>
        <time>2018-09-14T06:26:15Z</time>
      </trkpt>
      <trkpt lat="44.8482" lon="6.79352">
        <ele>2328.93</ele>
        <time>2018-09-14T06:26:32Z</time>
      </trkpt>
      <trkpt lat="44.84812" lon="6.79358">
        <ele>2329.89</ele>
        <time>2018-09-14T06:26:47Z</time>
      </trkpt>
      <trkpt lat="44.84803" lon="6.79361">
        <ele>2331.81</ele>
        <time>2018-09-14T06:27:00Z</time>
      </trkpt>
      <trkpt lat="44.84797" lon="6.79357">
        <ele>2334.22</ele>
        <time>2018-09-14T06:27:17Z</time>
      </trkpt>
      <trkpt lat="44.84798" lon="6.79342">
        <ele>2335.66</ele>
        <time>2018-09-14T06:27:35Z</time>
      </trkpt>
      <trkpt lat="44.84795" lon="6.79329">
        <ele>2338.06</ele>
        <time>2018-09-14T06:27:49Z</time>
      </trkpt>
      <trkpt lat="44.84789" lon="6.7932">
        <ele>2340.47</ele>
        <time>2018-09-14T06:28:08Z</time>
      </trkpt>
      <trkpt lat="44.84784" lon="6.7931">
        <ele>2343.35</ele>
        <time>2018-09-14T06:28:28Z</time>
      </trkpt>
      <trkpt lat="44.8478" lon="6.79299">
        <ele>2345.75</ele>
        <time>2018-09-14T06:28:46Z</time>
      </trkpt>
      <trkpt lat="44.84776" lon="6.79286">
        <ele>2347.68</ele>
        <time>2018-09-14T06:29:03Z</time>
      </trkpt>
      <trkpt lat="44.84769" lon="6.79279">
        <ele>2350.08</ele>
        <time>2018-09-14T06:29:21Z</time>
      </trkpt>
      <trkpt lat="44.84768" lon="6.79278">
        <ele>2352.96</ele>
        <time>2018-09-14T06:29:43Z</time>
      </trkpt>
      <trkpt lat="44.84762" lon="6.79281">
        <ele>2354.89</ele>
        <time>2018-09-14T06:30:02Z</time>
      </trkpt>
      <trkpt lat="44.84752" lon="6.79279">
        <ele>2357.77</ele>
        <time>2018-09-14T06:30:19Z</time>
      </trkpt>
      <trkpt lat="44.84742" lon="6.79274">
        <ele>2359.69</ele>
        <time>2018-09-14T06:30:36Z</time>
      </trkpt>
      <trkpt lat="44.84734" lon="6.79268">
        <ele>2361.62</ele>
        <time>2018-09-14T06:30:54Z</time>
      </trkpt>
      <trkpt lat="44.84731" lon="6.79276">
        <ele>2364.5</ele>
        <time>2018-09-14T06:31:15Z</time>
      </trkpt>
      <trkpt lat="44.84735" lon="6.79287">
        <ele>2365.94</ele>
        <time>2018-09-14T06:31:29Z</time>
      </trkpt>
      <trkpt lat="44.84738" lon="6.79301">
        <ele>2367.86</ele>
        <time>2018-09-14T06:31:44Z</time>
      </trkpt>
      <trkpt lat="44.8474" lon="6.79314">
        <ele>2368.35</ele>
        <time>2018-09-14T06:31:58Z</time>
      </trkpt>
      <trkpt lat="44.84736" lon="6.79322">
        <ele>2370.27</ele>
        <time>2018-09-14T06:32:12Z</time>
      </trkpt>
      <trkpt lat="44.84729" lon="6.79312">
        <ele>2371.71</ele>
        <time>2018-09-14T06:32:28Z</time>
      </trkpt>
      <trkpt lat="44.8472" lon="6.79305">
        <ele>2374.11</ele>
        <time>2018-09-14T06:32:50Z</time>
      </trkpt>
      <trkpt lat="44.84712" lon="6.79302">
        <ele>2377.48</ele>
        <time>2018-09-14T06:33:11Z</time>
      </trkpt>
      <trkpt lat="44.84703" lon="6.79307">
        <ele>2380.84</ele>
        <time>2018-09-14T06:33:34Z</time>
      </trkpt>
      <trkpt lat="44.84694" lon="6.79308">
        <ele>2383.25</ele>
        <time>2018-09-14T06:33:55Z</time>
      </trkpt>
      <trkpt lat="44.84688" lon="6.79315">
        <ele>2386.61</ele>
        <time>2018-09-14T06:34:14Z</time>
      </trkpt>
      <trkpt lat="44.84681" lon="6.79318">
        <ele>2388.05</ele>
        <time>2018-09-14T06:34:30Z</time>
      </trkpt>
      <trkpt lat="44.84668" lon="6.79315">
        <ele>2390.94</ele>
        <time>2018-09-14T06:34:55Z</time>
      </trkpt>
      <trkpt lat="44.84657" lon="6.79312">
        <ele>2395.26</ele>
        <time>2018-09-14T06:35:24Z</time>
      </trkpt>
      <trkpt lat="44.84648" lon="6.79318">
        <ele>2399.59</ele>
        <time>2018-09-14T06:35:53Z</time>
      </trkpt>
      <trkpt lat="44.84645" lon="6.793">
        <ele>2402.47</ele>
        <time>2018-09-14T06:36:17Z</time>
      </trkpt>
      <trkpt lat="44.84645" lon="6.79288">
        <ele>2406.32</ele>
        <time>2018-09-14T06:36:46Z</time>
      </trkpt>
      <trkpt lat="44.84643" lon="6.79277">
        <ele>2408.24</ele>
        <time>2018-09-14T06:37:07Z</time>
      </trkpt>
      <trkpt lat="44.84635" lon="6.79272">
        <ele>2411.6</ele>
        <time>2018-09-14T06:37:31Z</time>
      </trkpt>
      <trkpt lat="44.84631" lon="6.79265">
        <ele>2414.49</ele>
        <time>2018-09-14T06:37:49Z</time>
      </trkpt>
      <trkpt lat="44.84629" lon="6.79251">
        <ele>2416.41</ele>
        <time>2018-09-14T06:38:05Z</time>
      </trkpt>
      <trkpt lat="44.84635" lon="6.7924">
        <ele>2418.33</ele>
        <time>2018-09-14T06:38:21Z</time>
      </trkpt>
      <trkpt lat="44.84642" lon="6.79233">
        <ele>2422.18</ele>
        <time>2018-09-14T06:38:44Z</time>
      </trkpt>
      <trkpt lat="44.84646" lon="6.79227">
        <ele>2423.62</ele>
        <time>2018-09-14T06:39:05Z</time>
      </trkpt>
      <trkpt lat="44.8464" lon="6.79213">
        <ele>2425.54</ele>
        <time>2018-09-14T06:39:22Z</time>
      </trkpt>
      <trkpt lat="44.84639" lon="6.79199">
        <ele>2428.43</ele>
        <time>2018-09-14T06:39:48Z</time>
      </trkpt>
      <trkpt lat="44.8463" lon="6.79196">
        <ele>2430.35</ele>
        <time>2018-09-14T06:40:06Z</time>
      </trkpt>
      <trkpt lat="44.84625" lon="6.79192">
        <ele>2432.75</ele>
        <time>2018-09-14T06:40:27Z</time>
      </trkpt>
      <trkpt lat="44.84633" lon="6.79186">
        <ele>2434.68</ele>
        <time>2018-09-14T06:40:42Z</time>
      </trkpt>
      <trkpt lat="44.84642" lon="6.79181">
        <ele>2437.56</ele>
        <time>2018-09-14T06:41:03Z</time>
      </trkpt>
      <trkpt lat="44.84642" lon="6.79168">
        <ele>2439.48</ele>
        <time>2018-09-14T06:43:29Z</time>
      </trkpt>
      <trkpt lat="44.84637" lon="6.79153">
        <ele>2441.89</ele>
        <time>2018-09-14T06:43:42Z</time>
      </trkpt>
      <trkpt lat="44.84633" lon="6.79145">
        <ele>2444.29</ele>
        <time>2018-09-14T06:43:56Z</time>
      </trkpt>
      <trkpt lat="44.84625" lon="6.7914">
        <ele>2446.21</ele>
        <time>2018-09-14T06:44:12Z</time>
      </trkpt>
      <trkpt lat="44.8462" lon="6.79127">
        <ele>2448.13</ele>
        <time>2018-09-14T06:44:27Z</time>
      </trkpt>
      <trkpt lat="44.84614" lon="6.79118">
        <ele>2449.58</ele>
        <time>2018-09-14T06:44:41Z</time>
      </trkpt>
      <trkpt lat="44.84608" lon="6.79109">
        <ele>2451.02</ele>
        <time>2018-09-14T06:44:56Z</time>
      </trkpt>
      <trkpt lat="44.846" lon="6.791">
        <ele>2452.46</ele>
        <time>2018-09-14T06:45:11Z</time>
      </trkpt>
      <trkpt lat="44.84598" lon="6.79089">
        <ele>2452.94</ele>
        <time>2018-09-14T06:45:42Z</time>
      </trkpt>
      <trkpt lat="44.8459" lon="6.79091">
        <ele>2451.98</ele>
        <time>2018-09-14T06:46:02Z</time>
      </trkpt>
      <trkpt lat="44.84578" lon="6.79084">
        <ele>2452.46</ele>
        <time>2018-09-14T06:46:14Z</time>
      </trkpt>
      <trkpt lat="44.84571" lon="6.79077">
        <ele>2451.5</ele>
        <time>2018-09-14T06:46:29Z</time>
      </trkpt>
      <trkpt lat="44.84563" lon="6.79066">
        <ele>2449.58</ele>
        <time>2018-09-14T06:46:44Z</time>
      </trkpt>
      <trkpt lat="44.84557" lon="6.79058">
        <ele>2449.1</ele>
        <time>2018-09-14T06:46:55Z</time>
      </trkpt>
      <trkpt lat="44.84548" lon="6.79052">
        <ele>2449.1</ele>
        <time>2018-09-14T06:47:07Z</time>
      </trkpt>
      <trkpt lat="44.84546" lon="6.79044">
        <ele>2449.1</ele>
        <time>2018-09-14T06:47:31Z</time>
      </trkpt>
      <trkpt lat="44.84536" lon="6.79041">
        <ele>2449.58</ele>
        <time>2018-09-14T06:47:50Z</time>
      </trkpt>
      <trkpt lat="44.84529" lon="6.79034">
        <ele>2449.1</ele>
        <time>2018-09-14T06:48:01Z</time>
      </trkpt>
      <trkpt lat="44.84521" lon="6.7903">
        <ele>2449.58</ele>
        <time>2018-09-14T06:48:10Z</time>
      </trkpt>
      <trkpt lat="44.84513" lon="6.79025">
        <ele>2448.13</ele>
        <time>2018-09-14T06:48:18Z</time>
      </trkpt>
      <trkpt lat="44.84502" lon="6.79016">
        <ele>2449.58</ele>
        <time>2018-09-14T06:48:27Z</time>
      </trkpt>
      <trkpt lat="44.84494" lon="6.79008">
        <ele>2450.06</ele>
        <time>2018-09-14T06:48:37Z</time>
      </trkpt>
      <trkpt lat="44.84485" lon="6.79002">
        <ele>2450.06</ele>
        <time>2018-09-14T06:48:57Z</time>
      </trkpt>
      <trkpt lat="44.84478" lon="6.78994">
        <ele>2450.06</ele>
        <time>2018-09-14T06:49:28Z</time>
      </trkpt>
      <trkpt lat="44.84475" lon="6.78989">
        <ele>2451.5</ele>
        <time>2018-09-14T06:49:47Z</time>
      </trkpt>
      <trkpt lat="44.84464" lon="6.78986">
        <ele>2450.54</ele>
        <time>2018-09-14T06:49:57Z</time>
      </trkpt>
      <trkpt lat="44.84455" lon="6.78983">
        <ele>2451.02</ele>
        <time>2018-09-14T06:50:07Z</time>
      </trkpt>
      <trkpt lat="44.84445" lon="6.78981">
        <ele>2451.5</ele>
        <time>2018-09-14T06:50:19Z</time>
      </trkpt>
      <trkpt lat="44.8445" lon="6.78986">
        <ele>2451.98</ele>
        <time>2018-09-14T06:51:17Z</time>
      </trkpt>
      <trkpt lat="44.84449" lon="6.78993">
        <ele>2451.5</ele>
        <time>2018-09-14T06:51:52Z</time>
      </trkpt>
      <trkpt lat="44.84456" lon="6.78991">
        <ele>2451.98</ele>
        <time>2018-09-14T06:52:27Z</time>
      </trkpt>
      <trkpt lat="44.84447" lon="6.78997">
        <ele>2451.98</ele>
        <time>2018-09-14T06:52:40Z</time>
      </trkpt>
      <trkpt lat="44.84441" lon="6.79008">
        <ele>2452.46</ele>
        <time>2018-09-14T06:52:51Z</time>
      </trkpt>
      <trkpt lat="44.84433" lon="6.79015">
        <ele>2452.94</ele>
        <time>2018-09-14T06:53:01Z</time>
      </trkpt>
      <trkpt lat="44.84426" lon="6.79024">
        <ele>2453.9</ele>
        <time>2018-09-14T06:53:13Z</time>
      </trkpt>
      <trkpt lat="44.84416" lon="6.79028">
        <ele>2454.38</ele>
        <time>2018-09-14T06:53:23Z</time>
      </trkpt>
      <trkpt lat="44.84405" lon="6.79028">
        <ele>2455.34</ele>
        <time>2018-09-14T06:53:35Z</time>
      </trkpt>
      <trkpt lat="44.84396" lon="6.7903">
        <ele>2455.82</ele>
        <time>2018-09-14T06:53:46Z</time>
      </trkpt>
      <trkpt lat="44.84386" lon="6.79029">
        <ele>2456.31</ele>
        <time>2018-09-14T06:53:57Z</time>
      </trkpt>
      <trkpt lat="44.84377" lon="6.7903">
        <ele>2457.27</ele>
        <time>2018-09-14T06:54:08Z</time>
      </trkpt>
      <trkpt lat="44.84366" lon="6.79032">
        <ele>2458.23</ele>
        <time>2018-09-14T06:54:18Z</time>
      </trkpt>
      <trkpt lat="44.84357" lon="6.79034">
        <ele>2459.67</ele>
        <time>2018-09-14T06:54:29Z</time>
      </trkpt>
      <trkpt lat="44.84347" lon="6.79036">
        <ele>2460.63</ele>
        <time>2018-09-14T06:54:40Z</time>
      </trkpt>
      <trkpt lat="44.84337" lon="6.79036">
        <ele>2461.59</ele>
        <time>2018-09-14T06:54:51Z</time>
      </trkpt>
      <trkpt lat="44.84326" lon="6.7904">
        <ele>2462.55</ele>
        <time>2018-09-14T06:55:07Z</time>
      </trkpt>
      <trkpt lat="44.84315" lon="6.79042">
        <ele>2464</ele>
        <time>2018-09-14T06:55:19Z</time>
      </trkpt>
      <trkpt lat="44.84304" lon="6.79044">
        <ele>2465.44</ele>
        <time>2018-09-14T06:55:33Z</time>
      </trkpt>
      <trkpt lat="44.84296" lon="6.79039">
        <ele>2465.44</ele>
        <time>2018-09-14T06:55:43Z</time>
      </trkpt>
      <trkpt lat="44.84292" lon="6.79044">
        <ele>2467.36</ele>
        <time>2018-09-14T06:55:56Z</time>
      </trkpt>
      <trkpt lat="44.84289" lon="6.79054">
        <ele>2469.28</ele>
        <time>2018-09-14T06:56:16Z</time>
      </trkpt>
      <trkpt lat="44.84286" lon="6.79068">
        <ele>2471.69</ele>
        <time>2018-09-14T06:56:35Z</time>
      </trkpt>
      <trkpt lat="44.84277" lon="6.79081">
        <ele>2474.09</ele>
        <time>2018-09-14T06:56:57Z</time>
      </trkpt>
      <trkpt lat="44.84269" lon="6.79094">
        <ele>2476.01</ele>
        <time>2018-09-14T06:57:12Z</time>
      </trkpt>
      <trkpt lat="44.8426" lon="6.79103">
        <ele>2477.45</ele>
        <time>2018-09-14T06:57:26Z</time>
      </trkpt>
      <trkpt lat="44.84253" lon="6.79115">
        <ele>2479.86</ele>
        <time>2018-09-14T06:57:45Z</time>
      </trkpt>
      <trkpt lat="44.8425" lon="6.79125">
        <ele>2481.78</ele>
        <time>2018-09-14T06:58:01Z</time>
      </trkpt>
      <trkpt lat="44.84241" lon="6.79135">
        <ele>2484.18</ele>
        <time>2018-09-14T06:58:19Z</time>
      </trkpt>
      <trkpt lat="44.84235" lon="6.79146">
        <ele>2487.55</ele>
        <time>2018-09-14T06:58:41Z</time>
      </trkpt>
      <trkpt lat="44.84225" lon="6.79158">
        <ele>2489.95</ele>
        <time>2018-09-14T06:58:57Z</time>
      </trkpt>
      <trkpt lat="44.84215" lon="6.79173">
        <ele>2491.87</ele>
        <time>2018-09-14T06:59:17Z</time>
      </trkpt>
      <trkpt lat="44.84207" lon="6.79185">
        <ele>2494.28</ele>
        <time>2018-09-14T06:59:33Z</time>
      </trkpt>
      <trkpt lat="44.84194" lon="6.79195">
        <ele>2496.68</ele>
        <time>2018-09-14T06:59:54Z</time>
      </trkpt>
      <trkpt lat="44.84189" lon="6.792">
        <ele>2498.6</ele>
        <time>2018-09-14T07:00:09Z</time>
      </trkpt>
      <trkpt lat="44.84182" lon="6.79208">
        <ele>2502.45</ele>
        <time>2018-09-14T07:00:34Z</time>
      </trkpt>
      <trkpt lat="44.84171" lon="6.79217">
        <ele>2505.81</ele>
        <time>2018-09-14T07:00:58Z</time>
      </trkpt>
      <trkpt lat="44.84166" lon="6.79224">
        <ele>2509.18</ele>
        <time>2018-09-14T07:01:25Z</time>
      </trkpt>
      <trkpt lat="44.84159" lon="6.79233">
        <ele>2514.47</ele>
        <time>2018-09-14T07:01:59Z</time>
      </trkpt>
      <trkpt lat="44.84152" lon="6.79243">
        <ele>2520.23</ele>
        <time>2018-09-14T07:02:34Z</time>
      </trkpt>
      <trkpt lat="44.84144" lon="6.79255">
        <ele>2523.6</ele>
        <time>2018-09-14T07:03:01Z</time>
      </trkpt>
      <trkpt lat="44.84142" lon="6.79266">
        <ele>2526</ele>
        <time>2018-09-14T07:03:21Z</time>
      </trkpt>
      <trkpt lat="44.84141" lon="6.79277">
        <ele>2527.92</ele>
        <time>2018-09-14T07:03:42Z</time>
      </trkpt>
      <trkpt lat="44.84141" lon="6.79291">
        <ele>2532.25</ele>
        <time>2018-09-14T07:04:13Z</time>
      </trkpt>
      <trkpt lat="44.84128" lon="6.79301">
        <ele>2535.13</ele>
        <time>2018-09-14T07:04:37Z</time>
      </trkpt>
      <trkpt lat="44.84114" lon="6.79301">
        <ele>2538.02</ele>
        <time>2018-09-14T07:05:00Z</time>
      </trkpt>
      <trkpt lat="44.84104" lon="6.79296">
        <ele>2540.42</ele>
        <time>2018-09-14T07:05:20Z</time>
      </trkpt>
      <trkpt lat="44.84096" lon="6.79293">
        <ele>2541.86</ele>
        <time>2018-09-14T07:05:34Z</time>
      </trkpt>
      <trkpt lat="44.8409" lon="6.79284">
        <ele>2544.75</ele>
        <time>2018-09-14T07:05:59Z</time>
      </trkpt>
      <trkpt lat="44.8409" lon="6.79272">
        <ele>2547.63</ele>
        <time>2018-09-14T07:06:44Z</time>
      </trkpt>
      <trkpt lat="44.84083" lon="6.79267">
        <ele>2550.51</ele>
        <time>2018-09-14T07:07:04Z</time>
      </trkpt>
      <trkpt lat="44.84074" lon="6.79262">
        <ele>2552.92</ele>
        <time>2018-09-14T07:07:24Z</time>
      </trkpt>
      <trkpt lat="44.84064" lon="6.79265">
        <ele>2554.36</ele>
        <time>2018-09-14T07:07:47Z</time>
      </trkpt>
      <trkpt lat="44.84056" lon="6.79265">
        <ele>2556.76</ele>
        <time>2018-09-14T07:08:02Z</time>
      </trkpt>
      <trkpt lat="44.84047" lon="6.79268">
        <ele>2559.17</ele>
        <time>2018-09-14T07:08:22Z</time>
      </trkpt>
      <trkpt lat="44.8404" lon="6.79277">
        <ele>2561.57</ele>
        <time>2018-09-14T07:08:50Z</time>
      </trkpt>
      <trkpt lat="44.84035" lon="6.79286">
        <ele>2563.49</ele>
        <time>2018-09-14T07:09:06Z</time>
      </trkpt>
      <trkpt lat="44.84045" lon="6.79284">
        <ele>2564.45</ele>
        <time>2018-09-14T07:09:20Z</time>
      </trkpt>
      <trkpt lat="44.84039" lon="6.79294">
        <ele>2564.93</ele>
        <time>2018-09-14T07:09:58Z</time>
      </trkpt>
      <trkpt lat="44.84033" lon="6.79303">
        <ele>2564.93</ele>
        <time>2018-09-14T07:10:09Z</time>
      </trkpt>
      <trkpt lat="44.84026" lon="6.79312">
        <ele>2565.9</ele>
        <time>2018-09-14T07:10:21Z</time>
      </trkpt>
      <trkpt lat="44.84018" lon="6.79318">
        <ele>2565.42</ele>
        <time>2018-09-14T07:10:31Z</time>
      </trkpt>
      <trkpt lat="44.8401" lon="6.79323">
        <ele>2565.9</ele>
        <time>2018-09-14T07:10:43Z</time>
      </trkpt>
      <trkpt lat="44.83999" lon="6.79324">
        <ele>2566.86</ele>
        <time>2018-09-14T07:10:53Z</time>
      </trkpt>
      <trkpt lat="44.8399" lon="6.79324">
        <ele>2566.38</ele>
        <time>2018-09-14T07:11:02Z</time>
      </trkpt>
      <trkpt lat="44.83981" lon="6.79321">
        <ele>2566.86</ele>
        <time>2018-09-14T07:11:11Z</time>
      </trkpt>
      <trkpt lat="44.83972" lon="6.79315">
        <ele>2566.86</ele>
        <time>2018-09-14T07:11:21Z</time>
      </trkpt>
      <trkpt lat="44.83963" lon="6.79311">
        <ele>2568.3</ele>
        <time>2018-09-14T07:11:32Z</time>
      </trkpt>
      <trkpt lat="44.83954" lon="6.7931">
        <ele>2570.22</ele>
        <time>2018-09-14T07:11:43Z</time>
      </trkpt>
      <trkpt lat="44.83944" lon="6.79313">
        <ele>2571.18</ele>
        <time>2018-09-14T07:11:54Z</time>
      </trkpt>
      <trkpt lat="44.83935" lon="6.79315">
        <ele>2572.14</ele>
        <time>2018-09-14T07:12:06Z</time>
      </trkpt>
      <trkpt lat="44.83926" lon="6.79309">
        <ele>2574.07</ele>
        <time>2018-09-14T07:12:19Z</time>
      </trkpt>
      <trkpt lat="44.83917" lon="6.79313">
        <ele>2575.51</ele>
        <time>2018-09-14T07:12:31Z</time>
      </trkpt>
      <trkpt lat="44.83908" lon="6.79309">
        <ele>2576.95</ele>
        <time>2018-09-14T07:12:44Z</time>
      </trkpt>
      <trkpt lat="44.83899" lon="6.79305">
        <ele>2578.87</ele>
        <time>2018-09-14T07:12:58Z</time>
      </trkpt>
      <trkpt lat="44.8389" lon="6.79302">
        <ele>2579.84</ele>
        <time>2018-09-14T07:13:13Z</time>
      </trkpt>
      <trkpt lat="44.83882" lon="6.79299">
        <ele>2582.72</ele>
        <time>2018-09-14T07:13:30Z</time>
      </trkpt>
      <trkpt lat="44.83874" lon="6.79295">
        <ele>2585.12</ele>
        <time>2018-09-14T07:13:47Z</time>
      </trkpt>
      <trkpt lat="44.83867" lon="6.79288">
        <ele>2587.53</ele>
        <time>2018-09-14T07:14:06Z</time>
      </trkpt>
      <trkpt lat="44.83858" lon="6.79285">
        <ele>2590.41</ele>
        <time>2018-09-14T07:14:28Z</time>
      </trkpt>
      <trkpt lat="44.8385" lon="6.79288">
        <ele>2592.33</ele>
        <time>2018-09-14T07:14:47Z</time>
      </trkpt>
      <trkpt lat="44.83842" lon="6.79295">
        <ele>2595.22</ele>
        <time>2018-09-14T07:15:07Z</time>
      </trkpt>
      <trkpt lat="44.83834" lon="6.79298">
        <ele>2598.1</ele>
        <time>2018-09-14T07:15:27Z</time>
      </trkpt>
      <trkpt lat="44.83826" lon="6.79303">
        <ele>2600.98</ele>
        <time>2018-09-14T07:15:49Z</time>
      </trkpt>
      <trkpt lat="44.8382" lon="6.79301">
        <ele>2600.98</ele>
        <time>2018-09-14T07:16:27Z</time>
      </trkpt>
      <trkpt lat="44.8382" lon="6.79301">
        <ele>2606.27</ele>
        <time>2018-09-14T07:35:50Z</time>
      </trkpt>
      <trkpt lat="44.83819" lon="6.79305">
        <ele>2606.75</ele>
        <time>2018-09-14T07:36:40Z</time>
      </trkpt>
      <trkpt lat="44.83813" lon="6.79299">
        <ele>2606.75</ele>
        <time>2018-09-14T07:37:39Z</time>
      </trkpt>
      <trkpt lat="44.83808" lon="6.79287">
        <ele>2606.27</ele>
        <time>2018-09-14T07:37:49Z</time>
      </trkpt>
      <trkpt lat="44.83798" lon="6.79283">
        <ele>2606.75</ele>
        <time>2018-09-14T07:38:00Z</time>
      </trkpt>
      <trkpt lat="44.83791" lon="6.79277">
        <ele>2607.71</ele>
        <time>2018-09-14T07:38:11Z</time>
      </trkpt>
      <trkpt lat="44.83781" lon="6.79274">
        <ele>2605.31</ele>
        <time>2018-09-14T07:38:21Z</time>
      </trkpt>
      <trkpt lat="44.83772" lon="6.7927">
        <ele>2604.35</ele>
        <time>2018-09-14T07:38:32Z</time>
      </trkpt>
      <trkpt lat="44.83764" lon="6.79263">
        <ele>2601.95</ele>
        <time>2018-09-14T07:38:42Z</time>
      </trkpt>
      <trkpt lat="44.83755" lon="6.79257">
        <ele>2599.06</ele>
        <time>2018-09-14T07:38:51Z</time>
      </trkpt>
      <trkpt lat="44.83746" lon="6.79254">
        <ele>2596.18</ele>
        <time>2018-09-14T07:39:00Z</time>
      </trkpt>
      <trkpt lat="44.83738" lon="6.79251">
        <ele>2594.25</ele>
        <time>2018-09-14T07:39:08Z</time>
      </trkpt>
      <trkpt lat="44.83729" lon="6.79253">
        <ele>2592.33</ele>
        <time>2018-09-14T07:39:17Z</time>
      </trkpt>
      <trkpt lat="44.83721" lon="6.7926">
        <ele>2591.37</ele>
        <time>2018-09-14T07:39:27Z</time>
      </trkpt>
      <trkpt lat="44.83713" lon="6.79266">
        <ele>2588.97</ele>
        <time>2018-09-14T07:39:36Z</time>
      </trkpt>
      <trkpt lat="44.83703" lon="6.79271">
        <ele>2588.01</ele>
        <time>2018-09-14T07:39:45Z</time>
      </trkpt>
      <trkpt lat="44.83695" lon="6.79277">
        <ele>2586.56</ele>
        <time>2018-09-14T07:39:53Z</time>
      </trkpt>
      <trkpt lat="44.83687" lon="6.79276">
        <ele>2586.08</ele>
        <time>2018-09-14T07:40:02Z</time>
      </trkpt>
      <trkpt lat="44.83677" lon="6.79279">
        <ele>2584.64</ele>
        <time>2018-09-14T07:40:14Z</time>
      </trkpt>
      <trkpt lat="44.83669" lon="6.79282">
        <ele>2582.24</ele>
        <time>2018-09-14T07:40:26Z</time>
      </trkpt>
      <trkpt lat="44.8366" lon="6.7928">
        <ele>2579.84</ele>
        <time>2018-09-14T07:40:40Z</time>
      </trkpt>
      <trkpt lat="44.83651" lon="6.79284">
        <ele>2577.43</ele>
        <time>2018-09-14T07:40:50Z</time>
      </trkpt>
      <trkpt lat="44.83642" lon="6.79286">
        <ele>2575.51</ele>
        <time>2018-09-14T07:41:00Z</time>
      </trkpt>
      <trkpt lat="44.83633" lon="6.79289">
        <ele>2573.11</ele>
        <time>2018-09-14T07:41:11Z</time>
      </trkpt>
      <trkpt lat="44.83624" lon="6.79296">
        <ele>2570.22</ele>
        <time>2018-09-14T07:41:22Z</time>
      </trkpt>
      <trkpt lat="44.83616" lon="6.79297">
        <ele>2567.82</ele>
        <time>2018-09-14T07:41:34Z</time>
      </trkpt>
      <trkpt lat="44.83607" lon="6.79301">
        <ele>2563.97</ele>
        <time>2018-09-14T07:41:45Z</time>
      </trkpt>
      <trkpt lat="44.83598" lon="6.79301">
        <ele>2562.53</ele>
        <time>2018-09-14T07:41:55Z</time>
      </trkpt>
      <trkpt lat="44.83588" lon="6.79303">
        <ele>2561.09</ele>
        <time>2018-09-14T07:42:05Z</time>
      </trkpt>
      <trkpt lat="44.83578" lon="6.79306">
        <ele>2560.13</ele>
        <time>2018-09-14T07:42:15Z</time>
      </trkpt>
      <trkpt lat="44.8357" lon="6.79311">
        <ele>2558.69</ele>
        <time>2018-09-14T07:42:25Z</time>
      </trkpt>
      <trkpt lat="44.83562" lon="6.79318">
        <ele>2556.76</ele>
        <time>2018-09-14T07:42:40Z</time>
      </trkpt>
      <trkpt lat="44.83552" lon="6.79322">
        <ele>2554.84</ele>
        <time>2018-09-14T07:42:49Z</time>
      </trkpt>
      <trkpt lat="44.83543" lon="6.79327">
        <ele>2552.44</ele>
        <time>2018-09-14T07:42:58Z</time>
      </trkpt>
      <trkpt lat="44.83534" lon="6.79334">
        <ele>2550.51</ele>
        <time>2018-09-14T07:43:07Z</time>
      </trkpt>
      <trkpt lat="44.83527" lon="6.79343">
        <ele>2548.11</ele>
        <time>2018-09-14T07:43:15Z</time>
      </trkpt>
      <trkpt lat="44.83521" lon="6.79352">
        <ele>2545.71</ele>
        <time>2018-09-14T07:43:24Z</time>
      </trkpt>
      <trkpt lat="44.83513" lon="6.79354">
        <ele>2543.31</ele>
        <time>2018-09-14T07:43:36Z</time>
      </trkpt>
      <trkpt lat="44.83508" lon="6.79363">
        <ele>2540.42</ele>
        <time>2018-09-14T07:43:49Z</time>
      </trkpt>
      <trkpt lat="44.83501" lon="6.79375">
        <ele>2538.5</ele>
        <time>2018-09-14T07:44:01Z</time>
      </trkpt>
      <trkpt lat="44.83495" lon="6.79386">
        <ele>2535.13</ele>
        <time>2018-09-14T07:44:14Z</time>
      </trkpt>
      <trkpt lat="44.8349" lon="6.794">
        <ele>2533.21</ele>
        <time>2018-09-14T07:44:25Z</time>
      </trkpt>
      <trkpt lat="44.83485" lon="6.7941">
        <ele>2530.33</ele>
        <time>2018-09-14T07:44:35Z</time>
      </trkpt>
      <trkpt lat="44.8348" lon="6.79421">
        <ele>2527.44</ele>
        <time>2018-09-14T07:44:46Z</time>
      </trkpt>
      <trkpt lat="44.83477" lon="6.79436">
        <ele>2526</ele>
        <time>2018-09-14T07:44:57Z</time>
      </trkpt>
      <trkpt lat="44.83472" lon="6.79446">
        <ele>2525.04</ele>
        <time>2018-09-14T07:45:15Z</time>
      </trkpt>
      <trkpt lat="44.83469" lon="6.79461">
        <ele>2523.6</ele>
        <time>2018-09-14T07:45:26Z</time>
      </trkpt>
      <trkpt lat="44.83465" lon="6.79475">
        <ele>2523.6</ele>
        <time>2018-09-14T07:45:36Z</time>
      </trkpt>
      <trkpt lat="44.83458" lon="6.79487">
        <ele>2523.12</ele>
        <time>2018-09-14T07:45:46Z</time>
      </trkpt>
      <trkpt lat="44.83451" lon="6.79494">
        <ele>2522.64</ele>
        <time>2018-09-14T07:45:56Z</time>
      </trkpt>
      <trkpt lat="44.83439" lon="6.795">
        <ele>2521.68</ele>
        <time>2018-09-14T07:46:07Z</time>
      </trkpt>
      <trkpt lat="44.8343" lon="6.79503">
        <ele>2520.71</ele>
        <time>2018-09-14T07:46:16Z</time>
      </trkpt>
      <trkpt lat="44.83421" lon="6.79507">
        <ele>2517.83</ele>
        <time>2018-09-14T07:46:25Z</time>
      </trkpt>
      <trkpt lat="44.83414" lon="6.79514">
        <ele>2516.39</ele>
        <time>2018-09-14T07:46:35Z</time>
      </trkpt>
      <trkpt lat="44.83404" lon="6.7952">
        <ele>2514.47</ele>
        <time>2018-09-14T07:46:44Z</time>
      </trkpt>
      <trkpt lat="44.83395" lon="6.79526">
        <ele>2513.98</ele>
        <time>2018-09-14T07:46:53Z</time>
      </trkpt>
      <trkpt lat="44.8339" lon="6.79535">
        <ele>2513.5</ele>
        <time>2018-09-14T07:47:34Z</time>
      </trkpt>
      <trkpt lat="44.83383" lon="6.79545">
        <ele>2513.02</ele>
        <time>2018-09-14T07:47:45Z</time>
      </trkpt>
      <trkpt lat="44.83379" lon="6.79558">
        <ele>2511.58</ele>
        <time>2018-09-14T07:47:57Z</time>
      </trkpt>
      <trkpt lat="44.83381" lon="6.79572">
        <ele>2511.1</ele>
        <time>2018-09-14T07:48:06Z</time>
      </trkpt>
      <trkpt lat="44.83374" lon="6.79579">
        <ele>2509.66</ele>
        <time>2018-09-14T07:48:16Z</time>
      </trkpt>
      <trkpt lat="44.83371" lon="6.79586">
        <ele>2506.77</ele>
        <time>2018-09-14T07:48:26Z</time>
      </trkpt>
      <trkpt lat="44.83372" lon="6.796">
        <ele>2506.29</ele>
        <time>2018-09-14T07:48:37Z</time>
      </trkpt>
      <trkpt lat="44.83378" lon="6.79612">
        <ele>2505.33</ele>
        <time>2018-09-14T07:48:48Z</time>
      </trkpt>
      <trkpt lat="44.83384" lon="6.79624">
        <ele>2503.41</ele>
        <time>2018-09-14T07:48:59Z</time>
      </trkpt>
      <trkpt lat="44.83389" lon="6.79638">
        <ele>2500.53</ele>
        <time>2018-09-14T07:49:09Z</time>
      </trkpt>
      <trkpt lat="44.83392" lon="6.79651">
        <ele>2499.08</ele>
        <time>2018-09-14T07:49:19Z</time>
      </trkpt>
      <trkpt lat="44.83396" lon="6.79665">
        <ele>2497.64</ele>
        <time>2018-09-14T07:49:29Z</time>
      </trkpt>
      <trkpt lat="44.834" lon="6.79677">
        <ele>2495.24</ele>
        <time>2018-09-14T07:49:40Z</time>
      </trkpt>
      <trkpt lat="44.83401" lon="6.79688">
        <ele>2494.28</ele>
        <time>2018-09-14T07:49:50Z</time>
      </trkpt>
      <trkpt lat="44.83409" lon="6.79699">
        <ele>2491.87</ele>
        <time>2018-09-14T07:50:02Z</time>
      </trkpt>
      <trkpt lat="44.8341" lon="6.79711">
        <ele>2487.55</ele>
        <time>2018-09-14T07:50:16Z</time>
      </trkpt>
      <trkpt lat="44.8341" lon="6.79722">
        <ele>2484.18</ele>
        <time>2018-09-14T07:50:31Z</time>
      </trkpt>
      <trkpt lat="44.83411" lon="6.79737">
        <ele>2481.3</ele>
        <time>2018-09-14T07:50:45Z</time>
      </trkpt>
      <trkpt lat="44.83411" lon="6.79751">
        <ele>2478.42</ele>
        <time>2018-09-14T07:51:00Z</time>
      </trkpt>
      <trkpt lat="44.83412" lon="6.79764">
        <ele>2476.97</ele>
        <time>2018-09-14T07:51:11Z</time>
      </trkpt>
      <trkpt lat="44.83409" lon="6.79777">
        <ele>2474.09</ele>
        <time>2018-09-14T07:51:24Z</time>
      </trkpt>
      <trkpt lat="44.83402" lon="6.79786">
        <ele>2470.24</ele>
        <time>2018-09-14T07:51:37Z</time>
      </trkpt>
      <trkpt lat="44.83395" lon="6.79797">
        <ele>2467.84</ele>
        <time>2018-09-14T07:51:51Z</time>
      </trkpt>
      <trkpt lat="44.83388" lon="6.79805">
        <ele>2464.96</ele>
        <time>2018-09-14T07:52:04Z</time>
      </trkpt>
      <trkpt lat="44.83386" lon="6.79815">
        <ele>2462.55</ele>
        <time>2018-09-14T07:52:16Z</time>
      </trkpt>
      <trkpt lat="44.8339" lon="6.79828">
        <ele>2461.11</ele>
        <time>2018-09-14T07:52:27Z</time>
      </trkpt>
      <trkpt lat="44.83389" lon="6.79839">
        <ele>2457.75</ele>
        <time>2018-09-14T07:52:38Z</time>
      </trkpt>
      <trkpt lat="44.83392" lon="6.79852">
        <ele>2456.31</ele>
        <time>2018-09-14T07:52:46Z</time>
      </trkpt>
      <trkpt lat="44.83392" lon="6.79865">
        <ele>2455.34</ele>
        <time>2018-09-14T07:52:54Z</time>
      </trkpt>
      <trkpt lat="44.8339" lon="6.79877">
        <ele>2452.94</ele>
        <time>2018-09-14T07:53:02Z</time>
      </trkpt>
      <trkpt lat="44.83392" lon="6.7989">
        <ele>2451.98</ele>
        <time>2018-09-14T07:53:10Z</time>
      </trkpt>
      <trkpt lat="44.83394" lon="6.79902">
        <ele>2450.54</ele>
        <time>2018-09-14T07:53:18Z</time>
      </trkpt>
      <trkpt lat="44.83396" lon="6.79916">
        <ele>2449.58</ele>
        <time>2018-09-14T07:53:26Z</time>
      </trkpt>
      <trkpt lat="44.83401" lon="6.79928">
        <ele>2448.13</ele>
        <time>2018-09-14T07:53:34Z</time>
      </trkpt>
      <trkpt lat="44.83405" lon="6.79943">
        <ele>2446.69</ele>
        <time>2018-09-14T07:53:42Z</time>
      </trkpt>
      <trkpt lat="44.83409" lon="6.79955">
        <ele>2446.21</ele>
        <time>2018-09-14T07:53:49Z</time>
      </trkpt>
      <trkpt lat="44.83412" lon="6.79967">
        <ele>2445.25</ele>
        <time>2018-09-14T07:53:56Z</time>
      </trkpt>
      <trkpt lat="44.83414" lon="6.7998">
        <ele>2444.77</ele>
        <time>2018-09-14T07:54:03Z</time>
      </trkpt>
      <trkpt lat="44.8342" lon="6.79994">
        <ele>2444.77</ele>
        <time>2018-09-14T07:54:11Z</time>
      </trkpt>
      <trkpt lat="44.83422" lon="6.80007">
        <ele>2443.81</ele>
        <time>2018-09-14T07:54:18Z</time>
      </trkpt>
      <trkpt lat="44.8342" lon="6.80021">
        <ele>2442.85</ele>
        <time>2018-09-14T07:54:26Z</time>
      </trkpt>
      <trkpt lat="44.83419" lon="6.80035">
        <ele>2441.89</ele>
        <time>2018-09-14T07:54:33Z</time>
      </trkpt>
      <trkpt lat="44.83423" lon="6.80048">
        <ele>2441.41</ele>
        <time>2018-09-14T07:54:41Z</time>
      </trkpt>
      <trkpt lat="44.83426" lon="6.80061">
        <ele>2441.41</ele>
        <time>2018-09-14T07:54:49Z</time>
      </trkpt>
      <trkpt lat="44.83429" lon="6.80075">
        <ele>2440.92</ele>
        <time>2018-09-14T07:54:57Z</time>
      </trkpt>
      <trkpt lat="44.83433" lon="6.80089">
        <ele>2440.44</ele>
        <time>2018-09-14T07:55:05Z</time>
      </trkpt>
      <trkpt lat="44.83435" lon="6.80102">
        <ele>2439.48</ele>
        <time>2018-09-14T07:55:13Z</time>
      </trkpt>
      <trkpt lat="44.83437" lon="6.80116">
        <ele>2439.48</ele>
        <time>2018-09-14T07:55:21Z</time>
      </trkpt>
      <trkpt lat="44.83435" lon="6.80131">
        <ele>2438.04</ele>
        <time>2018-09-14T07:55:29Z</time>
      </trkpt>
      <trkpt lat="44.83432" lon="6.80145">
        <ele>2438.04</ele>
        <time>2018-09-14T07:55:39Z</time>
      </trkpt>
      <trkpt lat="44.83431" lon="6.80158">
        <ele>2438.04</ele>
        <time>2018-09-14T07:55:49Z</time>
      </trkpt>
      <trkpt lat="44.83433" lon="6.80171">
        <ele>2436.12</ele>
        <time>2018-09-14T07:56:00Z</time>
      </trkpt>
      <trkpt lat="44.83437" lon="6.80184">
        <ele>2434.68</ele>
        <time>2018-09-14T07:56:11Z</time>
      </trkpt>
      <trkpt lat="44.83439" lon="6.80198">
        <ele>2432.75</ele>
        <time>2018-09-14T07:56:21Z</time>
      </trkpt>
      <trkpt lat="44.83443" lon="6.80211">
        <ele>2432.27</ele>
        <time>2018-09-14T07:56:32Z</time>
      </trkpt>
      <trkpt lat="44.83452" lon="6.80223">
        <ele>2431.31</ele>
        <time>2018-09-14T07:56:43Z</time>
      </trkpt>
      <trkpt lat="44.8346" lon="6.80227">
        <ele>2430.83</ele>
        <time>2018-09-14T07:56:53Z</time>
      </trkpt>
      <trkpt lat="44.83465" lon="6.80236">
        <ele>2427.95</ele>
        <time>2018-09-14T07:57:05Z</time>
      </trkpt>
      <trkpt lat="44.83468" lon="6.8025">
        <ele>2425.06</ele>
        <time>2018-09-14T07:57:17Z</time>
      </trkpt>
      <trkpt lat="44.83475" lon="6.8026">
        <ele>2422.66</ele>
        <time>2018-09-14T07:57:27Z</time>
      </trkpt>
      <trkpt lat="44.83481" lon="6.80271">
        <ele>2418.81</ele>
        <time>2018-09-14T07:57:38Z</time>
      </trkpt>
      <trkpt lat="44.83481" lon="6.80284">
        <ele>2417.37</ele>
        <time>2018-09-14T07:57:46Z</time>
      </trkpt>
      <trkpt lat="44.83475" lon="6.80296">
        <ele>2415.93</ele>
        <time>2018-09-14T07:57:55Z</time>
      </trkpt>
      <trkpt lat="44.83471" lon="6.80308">
        <ele>2414.49</ele>
        <time>2018-09-14T07:58:06Z</time>
      </trkpt>
      <trkpt lat="44.83472" lon="6.80321">
        <ele>2412.57</ele>
        <time>2018-09-14T07:58:16Z</time>
      </trkpt>
      <trkpt lat="44.83472" lon="6.80333">
        <ele>2408.72</ele>
        <time>2018-09-14T07:58:27Z</time>
      </trkpt>
      <trkpt lat="44.83467" lon="6.80346">
        <ele>2405.84</ele>
        <time>2018-09-14T07:58:41Z</time>
      </trkpt>
      <trkpt lat="44.83467" lon="6.80361">
        <ele>2401.99</ele>
        <time>2018-09-14T07:58:54Z</time>
      </trkpt>
      <trkpt lat="44.83469" lon="6.80375">
        <ele>2398.15</ele>
        <time>2018-09-14T07:59:04Z</time>
      </trkpt>
      <trkpt lat="44.83478" lon="6.8038">
        <ele>2395.26</ele>
        <time>2018-09-14T07:59:17Z</time>
      </trkpt>
      <trkpt lat="44.83484" lon="6.8039">
        <ele>2392.38</ele>
        <time>2018-09-14T07:59:28Z</time>
      </trkpt>
      <trkpt lat="44.83479" lon="6.80402">
        <ele>2390.46</ele>
        <time>2018-09-14T07:59:37Z</time>
      </trkpt>
      <trkpt lat="44.83476" lon="6.80416">
        <ele>2388.53</ele>
        <time>2018-09-14T07:59:46Z</time>
      </trkpt>
      <trkpt lat="44.83474" lon="6.80428">
        <ele>2388.05</ele>
        <time>2018-09-14T07:59:54Z</time>
      </trkpt>
      <trkpt lat="44.83472" lon="6.80442">
        <ele>2387.09</ele>
        <time>2018-09-14T08:00:02Z</time>
      </trkpt>
      <trkpt lat="44.83471" lon="6.80455">
        <ele>2385.17</ele>
        <time>2018-09-14T08:00:10Z</time>
      </trkpt>
      <trkpt lat="44.83471" lon="6.80469">
        <ele>2383.73</ele>
        <time>2018-09-14T08:00:19Z</time>
      </trkpt>
      <trkpt lat="44.83471" lon="6.80481">
        <ele>2381.8</ele>
        <time>2018-09-14T08:00:28Z</time>
      </trkpt>
      <trkpt lat="44.83468" lon="6.80493">
        <ele>2377.96</ele>
        <time>2018-09-14T08:00:38Z</time>
      </trkpt>
      <trkpt lat="44.83467" lon="6.80507">
        <ele>2375.07</ele>
        <time>2018-09-14T08:00:49Z</time>
      </trkpt>
      <trkpt lat="44.83468" lon="6.8052">
        <ele>2372.67</ele>
        <time>2018-09-14T08:01:00Z</time>
      </trkpt>
      <trkpt lat="44.83465" lon="6.80534">
        <ele>2367.86</ele>
        <time>2018-09-14T08:01:15Z</time>
      </trkpt>
      <trkpt lat="44.83463" lon="6.80544">
        <ele>2364.02</ele>
        <time>2018-09-14T08:01:28Z</time>
      </trkpt>
      <trkpt lat="44.83464" lon="6.80558">
        <ele>2360.65</ele>
        <time>2018-09-14T08:01:38Z</time>
      </trkpt>
      <trkpt lat="44.83463" lon="6.80572">
        <ele>2358.25</ele>
        <time>2018-09-14T08:01:48Z</time>
      </trkpt>
      <trkpt lat="44.83455" lon="6.80572">
        <ele>2355.37</ele>
        <time>2018-09-14T08:02:06Z</time>
      </trkpt>
      <trkpt lat="44.83454" lon="6.80584">
        <ele>2352.48</ele>
        <time>2018-09-14T08:02:18Z</time>
      </trkpt>
      <trkpt lat="44.83452" lon="6.80597">
        <ele>2350.56</ele>
        <time>2018-09-14T08:02:31Z</time>
      </trkpt>
      <trkpt lat="44.83448" lon="6.80611">
        <ele>2347.2</ele>
        <time>2018-09-14T08:02:44Z</time>
      </trkpt>
      <trkpt lat="44.83446" lon="6.80624">
        <ele>2344.79</ele>
        <time>2018-09-14T08:02:54Z</time>
      </trkpt>
      <trkpt lat="44.83448" lon="6.80637">
        <ele>2341.91</ele>
        <time>2018-09-14T08:03:04Z</time>
      </trkpt>
      <trkpt lat="44.83447" lon="6.80651">
        <ele>2338.54</ele>
        <time>2018-09-14T08:03:12Z</time>
      </trkpt>
      <trkpt lat="44.83448" lon="6.80663">
        <ele>2336.62</ele>
        <time>2018-09-14T08:03:20Z</time>
      </trkpt>
      <trkpt lat="44.83452" lon="6.80678">
        <ele>2335.66</ele>
        <time>2018-09-14T08:03:29Z</time>
      </trkpt>
      <trkpt lat="44.83455" lon="6.80692">
        <ele>2335.18</ele>
        <time>2018-09-14T08:03:38Z</time>
      </trkpt>
      <trkpt lat="44.83453" lon="6.80705">
        <ele>2333.74</ele>
        <time>2018-09-14T08:03:46Z</time>
      </trkpt>
      <trkpt lat="44.8345" lon="6.80717">
        <ele>2334.22</ele>
        <time>2018-09-14T08:03:55Z</time>
      </trkpt>
      <trkpt lat="44.83447" lon="6.8073">
        <ele>2332.78</ele>
        <time>2018-09-14T08:04:03Z</time>
      </trkpt>
      <trkpt lat="44.83444" lon="6.80742">
        <ele>2332.3</ele>
        <time>2018-09-14T08:04:10Z</time>
      </trkpt>
      <trkpt lat="44.83439" lon="6.80754">
        <ele>2331.81</ele>
        <time>2018-09-14T08:04:18Z</time>
      </trkpt>
      <trkpt lat="44.83438" lon="6.80767">
        <ele>2331.33</ele>
        <time>2018-09-14T08:04:26Z</time>
      </trkpt>
      <trkpt lat="44.83439" lon="6.8078">
        <ele>2330.85</ele>
        <time>2018-09-14T08:04:34Z</time>
      </trkpt>
      <trkpt lat="44.83438" lon="6.80791">
        <ele>2328.45</ele>
        <time>2018-09-14T08:04:44Z</time>
      </trkpt>
      <trkpt lat="44.83437" lon="6.80803">
        <ele>2325.09</ele>
        <time>2018-09-14T08:04:54Z</time>
      </trkpt>
      <trkpt lat="44.83438" lon="6.80816">
        <ele>2321.72</ele>
        <time>2018-09-14T08:05:02Z</time>
      </trkpt>
      <trkpt lat="44.83437" lon="6.8083">
        <ele>2319.8</ele>
        <time>2018-09-14T08:05:10Z</time>
      </trkpt>
      <trkpt lat="44.83433" lon="6.80841">
        <ele>2316.91</ele>
        <time>2018-09-14T08:05:20Z</time>
      </trkpt>
      <trkpt lat="44.83427" lon="6.80849">
        <ele>2313.55</ele>
        <time>2018-09-14T08:05:31Z</time>
      </trkpt>
      <trkpt lat="44.83417" lon="6.80857">
        <ele>2309.7</ele>
        <time>2018-09-14T08:05:40Z</time>
      </trkpt>
      <trkpt lat="44.83411" lon="6.80865">
        <ele>2305.86</ele>
        <time>2018-09-14T08:05:49Z</time>
      </trkpt>
      <trkpt lat="44.83406" lon="6.80875">
        <ele>2302.01</ele>
        <time>2018-09-14T08:05:59Z</time>
      </trkpt>
      <trkpt lat="44.83399" lon="6.80887">
        <ele>2299.13</ele>
        <time>2018-09-14T08:06:09Z</time>
      </trkpt>
      <trkpt lat="44.83394" lon="6.80898">
        <ele>2296.73</ele>
        <time>2018-09-14T08:06:18Z</time>
      </trkpt>
      <trkpt lat="44.83387" lon="6.80902">
        <ele>2293.84</ele>
        <time>2018-09-14T08:06:31Z</time>
      </trkpt>
      <trkpt lat="44.8338" lon="6.80892">
        <ele>2290.96</ele>
        <time>2018-09-14T08:06:42Z</time>
      </trkpt>
      <trkpt lat="44.83375" lon="6.80881">
        <ele>2287.59</ele>
        <time>2018-09-14T08:06:54Z</time>
      </trkpt>
      <trkpt lat="44.83371" lon="6.8087">
        <ele>2284.23</ele>
        <time>2018-09-14T08:07:03Z</time>
      </trkpt>
      <trkpt lat="44.83362" lon="6.80867">
        <ele>2282.31</ele>
        <time>2018-09-14T08:07:16Z</time>
      </trkpt>
      <trkpt lat="44.83354" lon="6.80873">
        <ele>2282.31</ele>
        <time>2018-09-14T08:07:25Z</time>
      </trkpt>
      <trkpt lat="44.83345" lon="6.80871">
        <ele>2280.38</ele>
        <time>2018-09-14T08:07:34Z</time>
      </trkpt>
      <trkpt lat="44.83336" lon="6.80869">
        <ele>2278.94</ele>
        <time>2018-09-14T08:07:42Z</time>
      </trkpt>
      <trkpt lat="44.83326" lon="6.80865">
        <ele>2276.54</ele>
        <time>2018-09-14T08:07:50Z</time>
      </trkpt>
      <trkpt lat="44.83317" lon="6.80861">
        <ele>2274.62</ele>
        <time>2018-09-14T08:07:59Z</time>
      </trkpt>
      <trkpt lat="44.83307" lon="6.80857">
        <ele>2274.14</ele>
        <time>2018-09-14T08:08:08Z</time>
      </trkpt>
      <trkpt lat="44.83297" lon="6.80859">
        <ele>2271.73</ele>
        <time>2018-09-14T08:08:18Z</time>
      </trkpt>
      <trkpt lat="44.83287" lon="6.80861">
        <ele>2270.77</ele>
        <time>2018-09-14T08:08:27Z</time>
      </trkpt>
      <trkpt lat="44.8328" lon="6.80869">
        <ele>2270.77</ele>
        <time>2018-09-14T08:08:37Z</time>
      </trkpt>
      <trkpt lat="44.83272" lon="6.8087">
        <ele>2270.29</ele>
        <time>2018-09-14T08:08:45Z</time>
      </trkpt>
      <trkpt lat="44.83263" lon="6.80868">
        <ele>2269.33</ele>
        <time>2018-09-14T08:08:53Z</time>
      </trkpt>
      <trkpt lat="44.83252" lon="6.80866">
        <ele>2267.89</ele>
        <time>2018-09-14T08:09:02Z</time>
      </trkpt>
      <trkpt lat="44.83242" lon="6.80864">
        <ele>2266.93</ele>
        <time>2018-09-14T08:09:10Z</time>
      </trkpt>
      <trkpt lat="44.83235" lon="6.80861">
        <ele>2265.96</ele>
        <time>2018-09-14T08:09:18Z</time>
      </trkpt>
      <trkpt lat="44.83227" lon="6.8086">
        <ele>2263.56</ele>
        <time>2018-09-14T08:09:26Z</time>
      </trkpt>
      <trkpt lat="44.83219" lon="6.80854">
        <ele>2260.68</ele>
        <time>2018-09-14T08:09:35Z</time>
      </trkpt>
      <trkpt lat="44.83211" lon="6.80853">
        <ele>2260.68</ele>
        <time>2018-09-14T08:09:44Z</time>
      </trkpt>
      <trkpt lat="44.83199" lon="6.80852">
        <ele>2258.75</ele>
        <time>2018-09-14T08:09:55Z</time>
      </trkpt>
      <trkpt lat="44.8319" lon="6.80851">
        <ele>2256.35</ele>
        <time>2018-09-14T08:10:06Z</time>
      </trkpt>
      <trkpt lat="44.83179" lon="6.80851">
        <ele>2254.91</ele>
        <time>2018-09-14T08:10:15Z</time>
      </trkpt>
      <trkpt lat="44.8317" lon="6.80854">
        <ele>2253.47</ele>
        <time>2018-09-14T08:10:25Z</time>
      </trkpt>
      <trkpt lat="44.83162" lon="6.8085">
        <ele>2252.03</ele>
        <time>2018-09-14T08:10:34Z</time>
      </trkpt>
      <trkpt lat="44.83154" lon="6.8085">
        <ele>2249.14</ele>
        <time>2018-09-14T08:10:45Z</time>
      </trkpt>
      <trkpt lat="44.83145" lon="6.80852">
        <ele>2247.7</ele>
        <time>2018-09-14T08:10:54Z</time>
      </trkpt>
      <trkpt lat="44.83135" lon="6.80853">
        <ele>2245.78</ele>
        <time>2018-09-14T08:11:04Z</time>
      </trkpt>
      <trkpt lat="44.83128" lon="6.80857">
        <ele>2244.82</ele>
        <time>2018-09-14T08:11:17Z</time>
      </trkpt>
      <trkpt lat="44.8312" lon="6.80867">
        <ele>2245.3</ele>
        <time>2018-09-14T08:11:28Z</time>
      </trkpt>
      <trkpt lat="44.83112" lon="6.80877">
        <ele>2247.22</ele>
        <time>2018-09-14T08:11:40Z</time>
      </trkpt>
      <trkpt lat="44.83106" lon="6.80887">
        <ele>2248.66</ele>
        <time>2018-09-14T08:11:51Z</time>
      </trkpt>
      <trkpt lat="44.83098" lon="6.80897">
        <ele>2249.14</ele>
        <time>2018-09-14T08:12:01Z</time>
      </trkpt>
      <trkpt lat="44.8309" lon="6.80901">
        <ele>2249.62</ele>
        <time>2018-09-14T08:12:10Z</time>
      </trkpt>
      <trkpt lat="44.83081" lon="6.80903">
        <ele>2249.14</ele>
        <time>2018-09-14T08:12:19Z</time>
      </trkpt>
      <trkpt lat="44.83074" lon="6.8091">
        <ele>2249.14</ele>
        <time>2018-09-14T08:12:31Z</time>
      </trkpt>
      <trkpt lat="44.83065" lon="6.80917">
        <ele>2250.1</ele>
        <time>2018-09-14T08:12:41Z</time>
      </trkpt>
      <trkpt lat="44.83054" lon="6.80924">
        <ele>2251.06</ele>
        <time>2018-09-14T08:12:52Z</time>
      </trkpt>
      <trkpt lat="44.83044" lon="6.8093">
        <ele>2252.03</ele>
        <time>2018-09-14T08:13:02Z</time>
      </trkpt>
      <trkpt lat="44.83038" lon="6.80936">
        <ele>2251.06</ele>
        <time>2018-09-14T08:13:11Z</time>
      </trkpt>
      <trkpt lat="44.83029" lon="6.80941">
        <ele>2251.06</ele>
        <time>2018-09-14T08:13:21Z</time>
      </trkpt>
      <trkpt lat="44.8302" lon="6.80939">
        <ele>2250.58</ele>
        <time>2018-09-14T08:13:30Z</time>
      </trkpt>
      <trkpt lat="44.8301" lon="6.80945">
        <ele>2250.58</ele>
        <time>2018-09-14T08:13:39Z</time>
      </trkpt>
      <trkpt lat="44.83001" lon="6.80951">
        <ele>2251.06</ele>
        <time>2018-09-14T08:13:49Z</time>
      </trkpt>
      <trkpt lat="44.82991" lon="6.8095">
        <ele>2251.54</ele>
        <time>2018-09-14T08:14:01Z</time>
      </trkpt>
      <trkpt lat="44.82982" lon="6.80947">
        <ele>2253.95</ele>
        <time>2018-09-14T08:14:14Z</time>
      </trkpt>
      <trkpt lat="44.82976" lon="6.80957">
        <ele>2254.91</ele>
        <time>2018-09-14T08:14:26Z</time>
      </trkpt>
      <trkpt lat="44.82967" lon="6.80965">
        <ele>2255.39</ele>
        <time>2018-09-14T08:14:39Z</time>
      </trkpt>
      <trkpt lat="44.82958" lon="6.8097">
        <ele>2256.83</ele>
        <time>2018-09-14T08:14:52Z</time>
      </trkpt>
      <trkpt lat="44.82951" lon="6.80979">
        <ele>2258.27</ele>
        <time>2018-09-14T08:15:04Z</time>
      </trkpt>
      <trkpt lat="44.82943" lon="6.80986">
        <ele>2259.24</ele>
        <time>2018-09-14T08:15:16Z</time>
      </trkpt>
      <trkpt lat="44.82936" lon="6.80996">
        <ele>2259.24</ele>
        <time>2018-09-14T08:15:29Z</time>
      </trkpt>
      <trkpt lat="44.82927" lon="6.81003">
        <ele>2259.24</ele>
        <time>2018-09-14T08:15:39Z</time>
      </trkpt>
      <trkpt lat="44.82917" lon="6.81011">
        <ele>2260.68</ele>
        <time>2018-09-14T08:15:51Z</time>
      </trkpt>
      <trkpt lat="44.82909" lon="6.81014">
        <ele>2261.16</ele>
        <time>2018-09-14T08:16:03Z</time>
      </trkpt>
      <trkpt lat="44.82899" lon="6.81019">
        <ele>2261.64</ele>
        <time>2018-09-14T08:16:14Z</time>
      </trkpt>
      <trkpt lat="44.82889" lon="6.81016">
        <ele>2262.6</ele>
        <time>2018-09-14T08:16:25Z</time>
      </trkpt>
      <trkpt lat="44.82881" lon="6.81019">
        <ele>2265.48</ele>
        <time>2018-09-14T08:16:39Z</time>
      </trkpt>
      <trkpt lat="44.82874" lon="6.8101">
        <ele>2267.41</ele>
        <time>2018-09-14T08:16:52Z</time>
      </trkpt>
      <trkpt lat="44.82866" lon="6.81006">
        <ele>2268.37</ele>
        <time>2018-09-14T08:17:04Z</time>
      </trkpt>
      <trkpt lat="44.8286" lon="6.80997">
        <ele>2270.29</ele>
        <time>2018-09-14T08:17:17Z</time>
      </trkpt>
      <trkpt lat="44.82854" lon="6.80989">
        <ele>2271.73</ele>
        <time>2018-09-14T08:17:30Z</time>
      </trkpt>
      <trkpt lat="44.82848" lon="6.80981">
        <ele>2273.17</ele>
        <time>2018-09-14T08:17:43Z</time>
      </trkpt>
      <trkpt lat="44.82843" lon="6.8097">
        <ele>2275.58</ele>
        <time>2018-09-14T08:17:56Z</time>
      </trkpt>
      <trkpt lat="44.82838" lon="6.80962">
        <ele>2276.06</ele>
        <time>2018-09-14T08:18:10Z</time>
      </trkpt>
      <trkpt lat="44.82833" lon="6.80952">
        <ele>2278.94</ele>
        <time>2018-09-14T08:18:27Z</time>
      </trkpt>
      <trkpt lat="44.82824" lon="6.80944">
        <ele>2280.87</ele>
        <time>2018-09-14T08:18:41Z</time>
      </trkpt>
      <trkpt lat="44.8282" lon="6.80933">
        <ele>2282.31</ele>
        <time>2018-09-14T08:18:55Z</time>
      </trkpt>
      <trkpt lat="44.82817" lon="6.80923">
        <ele>2283.75</ele>
        <time>2018-09-14T08:19:07Z</time>
      </trkpt>
      <trkpt lat="44.82812" lon="6.80914">
        <ele>2285.19</ele>
        <time>2018-09-14T08:19:23Z</time>
      </trkpt>
      <trkpt lat="44.82807" lon="6.80905">
        <ele>2289.04</ele>
        <time>2018-09-14T08:19:42Z</time>
      </trkpt>
      <trkpt lat="44.82811" lon="6.80893">
        <ele>2290</ele>
        <time>2018-09-14T08:20:17Z</time>
      </trkpt>
      <trkpt lat="44.82803" lon="6.80882">
        <ele>2293.84</ele>
        <time>2018-09-14T08:20:38Z</time>
      </trkpt>
      <trkpt lat="44.82797" lon="6.80875">
        <ele>2294.8</ele>
        <time>2018-09-14T08:20:51Z</time>
      </trkpt>
      <trkpt lat="44.82791" lon="6.80866">
        <ele>2297.69</ele>
        <time>2018-09-14T08:21:07Z</time>
      </trkpt>
      <trkpt lat="44.82786" lon="6.80856">
        <ele>2300.09</ele>
        <time>2018-09-14T08:21:21Z</time>
      </trkpt>
      <trkpt lat="44.82788" lon="6.80843">
        <ele>2301.05</ele>
        <time>2018-09-14T08:21:38Z</time>
      </trkpt>
      <trkpt lat="44.82778" lon="6.80832">
        <ele>2303.94</ele>
        <time>2018-09-14T08:21:57Z</time>
      </trkpt>
      <trkpt lat="44.82773" lon="6.80822">
        <ele>2309.22</ele>
        <time>2018-09-14T08:22:24Z</time>
      </trkpt>
      <trkpt lat="44.82769" lon="6.80816">
        <ele>2310.19</ele>
        <time>2018-09-14T08:22:44Z</time>
      </trkpt>
      <trkpt lat="44.82763" lon="6.80815">
        <ele>2312.59</ele>
        <time>2018-09-14T08:23:01Z</time>
      </trkpt>
      <trkpt lat="44.82757" lon="6.808">
        <ele>2315.47</ele>
        <time>2018-09-14T08:23:18Z</time>
      </trkpt>
      <trkpt lat="44.82751" lon="6.80797">
        <ele>2318.36</ele>
        <time>2018-09-14T08:23:41Z</time>
      </trkpt>
      <trkpt lat="44.82745" lon="6.80793">
        <ele>2320.76</ele>
        <time>2018-09-14T08:24:00Z</time>
      </trkpt>
      <trkpt lat="44.82738" lon="6.80787">
        <ele>2324.12</ele>
        <time>2018-09-14T08:24:19Z</time>
      </trkpt>
      <trkpt lat="44.82732" lon="6.80795">
        <ele>2325.57</ele>
        <time>2018-09-14T08:24:35Z</time>
      </trkpt>
      <trkpt lat="44.82725" lon="6.80804">
        <ele>2328.45</ele>
        <time>2018-09-14T08:24:59Z</time>
      </trkpt>
      <trkpt lat="44.82716" lon="6.80805">
        <ele>2330.85</ele>
        <time>2018-09-14T08:25:14Z</time>
      </trkpt>
      <trkpt lat="44.82717" lon="6.8079">
        <ele>2332.3</ele>
        <time>2018-09-14T08:25:28Z</time>
      </trkpt>
      <trkpt lat="44.82712" lon="6.80782">
        <ele>2334.22</ele>
        <time>2018-09-14T08:25:50Z</time>
      </trkpt>
      <trkpt lat="44.82706" lon="6.80787">
        <ele>2337.1</ele>
        <time>2018-09-14T08:26:06Z</time>
      </trkpt>
      <trkpt lat="44.82699" lon="6.80787">
        <ele>2339.02</ele>
        <time>2018-09-14T08:26:24Z</time>
      </trkpt>
      <trkpt lat="44.82695" lon="6.80779">
        <ele>2341.91</ele>
        <time>2018-09-14T08:26:43Z</time>
      </trkpt>
      <trkpt lat="44.82693" lon="6.80775">
        <ele>2343.83</ele>
        <time>2018-09-14T08:27:00Z</time>
      </trkpt>
      <trkpt lat="44.82693" lon="6.80759">
        <ele>2346.72</ele>
        <time>2018-09-14T08:27:20Z</time>
      </trkpt>
      <trkpt lat="44.82686" lon="6.80764">
        <ele>2349.12</ele>
        <time>2018-09-14T08:27:44Z</time>
      </trkpt>
      <trkpt lat="44.8268" lon="6.80758">
        <ele>2352.96</ele>
        <time>2018-09-14T08:28:14Z</time>
      </trkpt>
      <trkpt lat="44.82682" lon="6.80743">
        <ele>2357.29</ele>
        <time>2018-09-14T08:28:46Z</time>
      </trkpt>
      <trkpt lat="44.82678" lon="6.80738">
        <ele>2361.62</ele>
        <time>2018-09-14T08:29:15Z</time>
      </trkpt>
      <trkpt lat="44.82669" lon="6.8074">
        <ele>2365.46</ele>
        <time>2018-09-14T08:29:49Z</time>
      </trkpt>
      <trkpt lat="44.82672" lon="6.80719">
        <ele>2370.27</ele>
        <time>2018-09-14T08:30:25Z</time>
      </trkpt>
      <trkpt lat="44.82661" lon="6.80724">
        <ele>2376.04</ele>
        <time>2018-09-14T08:31:02Z</time>
      </trkpt>
      <trkpt lat="44.82654" lon="6.80719">
        <ele>2380.36</ele>
        <time>2018-09-14T08:31:28Z</time>
      </trkpt>
      <trkpt lat="44.82647" lon="6.80721">
        <ele>2382.28</ele>
        <time>2018-09-14T08:31:44Z</time>
      </trkpt>
      <trkpt lat="44.8264" lon="6.80722">
        <ele>2384.21</ele>
        <time>2018-09-14T08:32:04Z</time>
      </trkpt>
      <trkpt lat="44.82632" lon="6.80726">
        <ele>2388.05</ele>
        <time>2018-09-14T08:32:32Z</time>
      </trkpt>
      <trkpt lat="44.82627" lon="6.80723">
        <ele>2392.86</ele>
        <time>2018-09-14T08:32:59Z</time>
      </trkpt>
      <trkpt lat="44.82617" lon="6.80718">
        <ele>2396.22</ele>
        <time>2018-09-14T08:33:28Z</time>
      </trkpt>
      <trkpt lat="44.82621" lon="6.80707">
        <ele>2398.63</ele>
        <time>2018-09-14T08:33:48Z</time>
      </trkpt>
      <trkpt lat="44.82613" lon="6.8071">
        <ele>2402.47</ele>
        <time>2018-09-14T08:34:14Z</time>
      </trkpt>
      <trkpt lat="44.82607" lon="6.80706">
        <ele>2406.32</ele>
        <time>2018-09-14T08:34:44Z</time>
      </trkpt>
      <trkpt lat="44.82596" lon="6.80699">
        <ele>2409.68</ele>
        <time>2018-09-14T08:35:12Z</time>
      </trkpt>
      <trkpt lat="44.82585" lon="6.80699">
        <ele>2413.53</ele>
        <time>2018-09-14T08:35:40Z</time>
      </trkpt>
      <trkpt lat="44.82579" lon="6.80689">
        <ele>2416.89</ele>
        <time>2018-09-14T08:36:02Z</time>
      </trkpt>
      <trkpt lat="44.82574" lon="6.80681">
        <ele>2420.26</ele>
        <time>2018-09-14T08:36:23Z</time>
      </trkpt>
      <trkpt lat="44.82569" lon="6.80672">
        <ele>2423.14</ele>
        <time>2018-09-14T08:36:44Z</time>
      </trkpt>
      <trkpt lat="44.82564" lon="6.80667">
        <ele>2426.02</ele>
        <time>2018-09-14T08:37:15Z</time>
      </trkpt>
      <trkpt lat="44.82553" lon="6.80668">
        <ele>2428.43</ele>
        <time>2018-09-14T08:37:34Z</time>
      </trkpt>
      <trkpt lat="44.82545" lon="6.80661">
        <ele>2431.31</ele>
        <time>2018-09-14T08:37:49Z</time>
      </trkpt>
      <trkpt lat="44.82537" lon="6.80656">
        <ele>2433.23</ele>
        <time>2018-09-14T08:38:06Z</time>
      </trkpt>
      <trkpt lat="44.82529" lon="6.80655">
        <ele>2435.16</ele>
        <time>2018-09-14T08:38:22Z</time>
      </trkpt>
      <trkpt lat="44.82518" lon="6.80652">
        <ele>2437.08</ele>
        <time>2018-09-14T08:38:38Z</time>
      </trkpt>
      <trkpt lat="44.82512" lon="6.80648">
        <ele>2438.04</ele>
        <time>2018-09-14T08:38:55Z</time>
      </trkpt>
      <trkpt lat="44.82502" lon="6.80654">
        <ele>2440.92</ele>
        <time>2018-09-14T08:39:10Z</time>
      </trkpt>
      <trkpt lat="44.82494" lon="6.80657">
        <ele>2442.85</ele>
        <time>2018-09-14T08:39:25Z</time>
      </trkpt>
      <trkpt lat="44.82484" lon="6.80661">
        <ele>2444.29</ele>
        <time>2018-09-14T08:39:39Z</time>
      </trkpt>
      <trkpt lat="44.82473" lon="6.80664">
        <ele>2446.21</ele>
        <time>2018-09-14T08:39:53Z</time>
      </trkpt>
      <trkpt lat="44.82464" lon="6.80663">
        <ele>2447.17</ele>
        <time>2018-09-14T08:40:06Z</time>
      </trkpt>
      <trkpt lat="44.82455" lon="6.80665">
        <ele>2448.62</ele>
        <time>2018-09-14T08:40:20Z</time>
      </trkpt>
      <trkpt lat="44.82445" lon="6.80665">
        <ele>2450.06</ele>
        <time>2018-09-14T08:40:35Z</time>
      </trkpt>
      <trkpt lat="44.82434" lon="6.80666">
        <ele>2451.98</ele>
        <time>2018-09-14T08:40:49Z</time>
      </trkpt>
      <trkpt lat="44.82426" lon="6.80663">
        <ele>2452.94</ele>
        <time>2018-09-14T08:41:02Z</time>
      </trkpt>
      <trkpt lat="44.82415" lon="6.80663">
        <ele>2453.42</ele>
        <time>2018-09-14T08:41:13Z</time>
      </trkpt>
      <trkpt lat="44.82405" lon="6.80662">
        <ele>2455.34</ele>
        <time>2018-09-14T08:41:24Z</time>
      </trkpt>
      <trkpt lat="44.82396" lon="6.80662">
        <ele>2456.31</ele>
        <time>2018-09-14T08:41:34Z</time>
      </trkpt>
      <trkpt lat="44.82388" lon="6.80665">
        <ele>2458.23</ele>
        <time>2018-09-14T08:41:48Z</time>
      </trkpt>
      <trkpt lat="44.82381" lon="6.80676">
        <ele>2460.15</ele>
        <time>2018-09-14T08:42:04Z</time>
      </trkpt>
      <trkpt lat="44.82374" lon="6.8068">
        <ele>2463.04</ele>
        <time>2018-09-14T08:42:21Z</time>
      </trkpt>
      <trkpt lat="44.82363" lon="6.80686">
        <ele>2464.48</ele>
        <time>2018-09-14T08:42:35Z</time>
      </trkpt>
      <trkpt lat="44.82355" lon="6.80685">
        <ele>2464.96</ele>
        <time>2018-09-14T08:42:47Z</time>
      </trkpt>
      <trkpt lat="44.82345" lon="6.80678">
        <ele>2465.92</ele>
        <time>2018-09-14T08:42:59Z</time>
      </trkpt>
      <trkpt lat="44.82336" lon="6.80677">
        <ele>2467.84</ele>
        <time>2018-09-14T08:43:12Z</time>
      </trkpt>
      <trkpt lat="44.82327" lon="6.80671">
        <ele>2469.28</ele>
        <time>2018-09-14T08:43:59Z</time>
      </trkpt>
      <trkpt lat="44.8232" lon="6.80669">
        <ele>2470.73</ele>
        <time>2018-09-14T08:44:15Z</time>
      </trkpt>
      <trkpt lat="44.82313" lon="6.80666">
        <ele>2472.65</ele>
        <time>2018-09-14T08:44:43Z</time>
      </trkpt>
      <trkpt lat="44.82308" lon="6.80655">
        <ele>2474.09</ele>
        <time>2018-09-14T08:44:56Z</time>
      </trkpt>
      <trkpt lat="44.823" lon="6.80647">
        <ele>2475.05</ele>
        <time>2018-09-14T08:45:09Z</time>
      </trkpt>
      <trkpt lat="44.82294" lon="6.80645">
        <ele>2477.94</ele>
        <time>2018-09-14T08:45:24Z</time>
      </trkpt>
      <trkpt lat="44.82285" lon="6.80639">
        <ele>2478.9</ele>
        <time>2018-09-14T08:45:40Z</time>
      </trkpt>
      <trkpt lat="44.82277" lon="6.80637">
        <ele>2480.82</ele>
        <time>2018-09-14T08:45:56Z</time>
      </trkpt>
      <trkpt lat="44.82265" lon="6.80628">
        <ele>2483.7</ele>
        <time>2018-09-14T08:46:15Z</time>
      </trkpt>
      <trkpt lat="44.82259" lon="6.80626">
        <ele>2486.11</ele>
        <time>2018-09-14T08:46:30Z</time>
      </trkpt>
      <trkpt lat="44.82252" lon="6.80621">
        <ele>2487.07</ele>
        <time>2018-09-14T08:46:43Z</time>
      </trkpt>
      <trkpt lat="44.82242" lon="6.80622">
        <ele>2488.99</ele>
        <time>2018-09-14T08:46:58Z</time>
      </trkpt>
      <trkpt lat="44.82236" lon="6.80614">
        <ele>2490.91</ele>
        <time>2018-09-14T08:47:14Z</time>
      </trkpt>
      <trkpt lat="44.82229" lon="6.80618">
        <ele>2491.39</ele>
        <time>2018-09-14T08:47:27Z</time>
      </trkpt>
      <trkpt lat="44.8222" lon="6.80615">
        <ele>2492.84</ele>
        <time>2018-09-14T08:47:39Z</time>
      </trkpt>
      <trkpt lat="44.82211" lon="6.80612">
        <ele>2494.28</ele>
        <time>2018-09-14T08:47:51Z</time>
      </trkpt>
      <trkpt lat="44.82204" lon="6.80606">
        <ele>2496.2</ele>
        <time>2018-09-14T08:48:03Z</time>
      </trkpt>
      <trkpt lat="44.82193" lon="6.80604">
        <ele>2497.16</ele>
        <time>2018-09-14T08:48:16Z</time>
      </trkpt>
      <trkpt lat="44.82185" lon="6.80604">
        <ele>2498.6</ele>
        <time>2018-09-14T08:48:29Z</time>
      </trkpt>
      <trkpt lat="44.82176" lon="6.80606">
        <ele>2501.01</ele>
        <time>2018-09-14T08:48:42Z</time>
      </trkpt>
      <trkpt lat="44.82166" lon="6.80601">
        <ele>2501.01</ele>
        <time>2018-09-14T08:48:54Z</time>
      </trkpt>
      <trkpt lat="44.82157" lon="6.80596">
        <ele>2501.49</ele>
        <time>2018-09-14T08:49:05Z</time>
      </trkpt>
      <trkpt lat="44.82149" lon="6.80593">
        <ele>2502.93</ele>
        <time>2018-09-14T08:49:16Z</time>
      </trkpt>
      <trkpt lat="44.82141" lon="6.80588">
        <ele>2503.41</ele>
        <time>2018-09-14T08:49:27Z</time>
      </trkpt>
      <trkpt lat="44.8213" lon="6.80589">
        <ele>2504.37</ele>
        <time>2018-09-14T08:49:38Z</time>
      </trkpt>
      <trkpt lat="44.82123" lon="6.80583">
        <ele>2505.81</ele>
        <time>2018-09-14T08:49:48Z</time>
      </trkpt>
      <trkpt lat="44.82114" lon="6.80581">
        <ele>2506.77</ele>
        <time>2018-09-14T08:49:59Z</time>
      </trkpt>
      <trkpt lat="44.82103" lon="6.80575">
        <ele>2507.26</ele>
        <time>2018-09-14T08:50:10Z</time>
      </trkpt>
      <trkpt lat="44.82095" lon="6.8057">
        <ele>2509.18</ele>
        <time>2018-09-14T08:50:22Z</time>
      </trkpt>
      <trkpt lat="44.82089" lon="6.80561">
        <ele>2511.1</ele>
        <time>2018-09-14T08:50:37Z</time>
      </trkpt>
      <trkpt lat="44.82083" lon="6.80553">
        <ele>2514.47</ele>
        <time>2018-09-14T08:50:54Z</time>
      </trkpt>
      <trkpt lat="44.82076" lon="6.8054">
        <ele>2516.39</ele>
        <time>2018-09-14T08:51:13Z</time>
      </trkpt>
      <trkpt lat="44.82073" lon="6.80531">
        <ele>2517.83</ele>
        <time>2018-09-14T08:52:11Z</time>
      </trkpt>
      <trkpt lat="44.82072" lon="6.80521">
        <ele>2519.27</ele>
        <time>2018-09-14T08:52:23Z</time>
      </trkpt>
      <trkpt lat="44.82066" lon="6.8051">
        <ele>2520.71</ele>
        <time>2018-09-14T08:52:35Z</time>
      </trkpt>
      <trkpt lat="44.82061" lon="6.80499">
        <ele>2522.64</ele>
        <time>2018-09-14T08:52:46Z</time>
      </trkpt>
      <trkpt lat="44.82057" lon="6.80487">
        <ele>2524.08</ele>
        <time>2018-09-14T08:52:58Z</time>
      </trkpt>
      <trkpt lat="44.82049" lon="6.80478">
        <ele>2526</ele>
        <time>2018-09-14T08:53:13Z</time>
      </trkpt>
      <trkpt lat="44.8204" lon="6.80466">
        <ele>2526.96</ele>
        <time>2018-09-14T08:53:27Z</time>
      </trkpt>
      <trkpt lat="44.82036" lon="6.80452">
        <ele>2528.4</ele>
        <time>2018-09-14T08:53:40Z</time>
      </trkpt>
      <trkpt lat="44.82029" lon="6.80445">
        <ele>2530.33</ele>
        <time>2018-09-14T08:53:51Z</time>
      </trkpt>
      <trkpt lat="44.82023" lon="6.80437">
        <ele>2530.81</ele>
        <time>2018-09-14T08:54:01Z</time>
      </trkpt>
      <trkpt lat="44.82016" lon="6.80426">
        <ele>2531.77</ele>
        <time>2018-09-14T08:54:12Z</time>
      </trkpt>
      <trkpt lat="44.82008" lon="6.80417">
        <ele>2534.17</ele>
        <time>2018-09-14T08:54:25Z</time>
      </trkpt>
      <trkpt lat="44.82" lon="6.80414">
        <ele>2535.61</ele>
        <time>2018-09-14T08:54:38Z</time>
      </trkpt>
      <trkpt lat="44.81993" lon="6.8041">
        <ele>2537.54</ele>
        <time>2018-09-14T08:54:51Z</time>
      </trkpt>
      <trkpt lat="44.81984" lon="6.80405">
        <ele>2538.5</ele>
        <time>2018-09-14T08:55:03Z</time>
      </trkpt>
      <trkpt lat="44.81978" lon="6.80396">
        <ele>2539.94</ele>
        <time>2018-09-14T08:55:13Z</time>
      </trkpt>
      <trkpt lat="44.81972" lon="6.80388">
        <ele>2541.38</ele>
        <time>2018-09-14T08:55:25Z</time>
      </trkpt>
      <trkpt lat="44.81967" lon="6.8038">
        <ele>2542.82</ele>
        <time>2018-09-14T08:55:40Z</time>
      </trkpt>
      <trkpt lat="44.81959" lon="6.80373">
        <ele>2544.27</ele>
        <time>2018-09-14T08:55:57Z</time>
      </trkpt>
      <trkpt lat="44.81953" lon="6.80367">
        <ele>2545.71</ele>
        <time>2018-09-14T08:56:10Z</time>
      </trkpt>
      <trkpt lat="44.81944" lon="6.80366">
        <ele>2547.15</ele>
        <time>2018-09-14T08:56:23Z</time>
      </trkpt>
      <trkpt lat="44.81935" lon="6.80369">
        <ele>2548.11</ele>
        <time>2018-09-14T08:56:36Z</time>
      </trkpt>
      <trkpt lat="44.81924" lon="6.80364">
        <ele>2549.55</ele>
        <time>2018-09-14T08:56:51Z</time>
      </trkpt>
      <trkpt lat="44.81916" lon="6.80363">
        <ele>2551.96</ele>
        <time>2018-09-14T08:57:06Z</time>
      </trkpt>
      <trkpt lat="44.81907" lon="6.80368">
        <ele>2553.4</ele>
        <time>2018-09-14T08:57:20Z</time>
      </trkpt>
      <trkpt lat="44.81898" lon="6.80367">
        <ele>2554.84</ele>
        <time>2018-09-14T08:57:33Z</time>
      </trkpt>
      <trkpt lat="44.8189" lon="6.8036">
        <ele>2555.8</ele>
        <time>2018-09-14T08:57:45Z</time>
      </trkpt>
      <trkpt lat="44.81885" lon="6.80346">
        <ele>2557.73</ele>
        <time>2018-09-14T08:58:02Z</time>
      </trkpt>
      <trkpt lat="44.81879" lon="6.80339">
        <ele>2559.65</ele>
        <time>2018-09-14T08:58:16Z</time>
      </trkpt>
      <trkpt lat="44.81869" lon="6.80337">
        <ele>2560.13</ele>
        <time>2018-09-14T08:58:30Z</time>
      </trkpt>
      <trkpt lat="44.8186" lon="6.80341">
        <ele>2562.53</ele>
        <time>2018-09-14T08:58:45Z</time>
      </trkpt>
      <trkpt lat="44.81851" lon="6.80342">
        <ele>2563.49</ele>
        <time>2018-09-14T08:58:59Z</time>
      </trkpt>
      <trkpt lat="44.81842" lon="6.80344">
        <ele>2564.45</ele>
        <time>2018-09-14T08:59:12Z</time>
      </trkpt>
      <trkpt lat="44.81833" lon="6.80354">
        <ele>2565.9</ele>
        <time>2018-09-14T08:59:27Z</time>
      </trkpt>
      <trkpt lat="44.81826" lon="6.8036">
        <ele>2569.26</ele>
        <time>2018-09-14T08:59:47Z</time>
      </trkpt>
      <trkpt lat="44.81821" lon="6.80366">
        <ele>2571.66</ele>
        <time>2018-09-14T09:00:06Z</time>
      </trkpt>
      <trkpt lat="44.81819" lon="6.80379">
        <ele>2573.59</ele>
        <time>2018-09-14T09:00:28Z</time>
      </trkpt>
      <trkpt lat="44.81818" lon="6.80396">
        <ele>2575.51</ele>
        <time>2018-09-14T09:00:47Z</time>
      </trkpt>
      <trkpt lat="44.81813" lon="6.80408">
        <ele>2578.87</ele>
        <time>2018-09-14T09:01:08Z</time>
      </trkpt>
      <trkpt lat="44.81809" lon="6.80421">
        <ele>2581.76</ele>
        <time>2018-09-14T09:01:26Z</time>
      </trkpt>
      <trkpt lat="44.81802" lon="6.80431">
        <ele>2585.6</ele>
        <time>2018-09-14T09:01:54Z</time>
      </trkpt>
      <trkpt lat="44.81794" lon="6.80431">
        <ele>2588.01</ele>
        <time>2018-09-14T09:02:12Z</time>
      </trkpt>
      <trkpt lat="44.81788" lon="6.80438">
        <ele>2591.37</ele>
        <time>2018-09-14T09:02:36Z</time>
      </trkpt>
      <trkpt lat="44.81778" lon="6.80438">
        <ele>2593.77</ele>
        <time>2018-09-14T09:02:56Z</time>
      </trkpt>
      <trkpt lat="44.81768" lon="6.80434">
        <ele>2596.66</ele>
        <time>2018-09-14T09:03:10Z</time>
      </trkpt>
      <trkpt lat="44.81761" lon="6.80437">
        <ele>2597.62</ele>
        <time>2018-09-14T09:03:24Z</time>
      </trkpt>
      <trkpt lat="44.81751" lon="6.80439">
        <ele>2599.54</ele>
        <time>2018-09-14T09:03:39Z</time>
      </trkpt>
      <trkpt lat="44.81741" lon="6.80441">
        <ele>2601.95</ele>
        <time>2018-09-14T09:03:58Z</time>
      </trkpt>
      <trkpt lat="44.81731" lon="6.80436">
        <ele>2603.39</ele>
        <time>2018-09-14T09:04:12Z</time>
      </trkpt>
      <trkpt lat="44.81721" lon="6.80435">
        <ele>2603.87</ele>
        <time>2018-09-14T09:04:24Z</time>
      </trkpt>
      <trkpt lat="44.81713" lon="6.80439">
        <ele>2605.31</ele>
        <time>2018-09-14T09:04:36Z</time>
      </trkpt>
      <trkpt lat="44.81704" lon="6.80437">
        <ele>2605.79</ele>
        <time>2018-09-14T09:04:52Z</time>
      </trkpt>
      <trkpt lat="44.81695" lon="6.80441">
        <ele>2608.19</ele>
        <time>2018-09-14T09:05:36Z</time>
      </trkpt>
      <trkpt lat="44.81687" lon="6.80446">
        <ele>2609.64</ele>
        <time>2018-09-14T09:05:47Z</time>
      </trkpt>
      <trkpt lat="44.81677" lon="6.80441">
        <ele>2610.6</ele>
        <time>2018-09-14T09:05:58Z</time>
      </trkpt>
      <trkpt lat="44.81668" lon="6.8044">
        <ele>2611.08</ele>
        <time>2018-09-14T09:06:08Z</time>
      </trkpt>
      <trkpt lat="44.8166" lon="6.80438">
        <ele>2612.04</ele>
        <time>2018-09-14T09:06:18Z</time>
      </trkpt>
      <trkpt lat="44.81649" lon="6.8044">
        <ele>2613</ele>
        <time>2018-09-14T09:06:31Z</time>
      </trkpt>
      <trkpt lat="44.81641" lon="6.80432">
        <ele>2613.96</ele>
        <time>2018-09-14T09:06:42Z</time>
      </trkpt>
      <trkpt lat="44.81633" lon="6.80429">
        <ele>2615.4</ele>
        <time>2018-09-14T09:06:55Z</time>
      </trkpt>
      <trkpt lat="44.81626" lon="6.8042">
        <ele>2617.81</ele>
        <time>2018-09-14T09:07:10Z</time>
      </trkpt>
      <trkpt lat="44.81618" lon="6.80426">
        <ele>2620.21</ele>
        <time>2018-09-14T09:07:27Z</time>
      </trkpt>
      <trkpt lat="44.81608" lon="6.80426">
        <ele>2621.17</ele>
        <time>2018-09-14T09:07:41Z</time>
      </trkpt>
      <trkpt lat="44.81598" lon="6.80427">
        <ele>2622.61</ele>
        <time>2018-09-14T09:07:53Z</time>
      </trkpt>
      <trkpt lat="44.8159" lon="6.80428">
        <ele>2624.06</ele>
        <time>2018-09-14T09:08:04Z</time>
      </trkpt>
      <trkpt lat="44.81581" lon="6.80426">
        <ele>2624.54</ele>
        <time>2018-09-14T09:08:15Z</time>
      </trkpt>
      <trkpt lat="44.81571" lon="6.80425">
        <ele>2626.46</ele>
        <time>2018-09-14T09:08:30Z</time>
      </trkpt>
      <trkpt lat="44.81562" lon="6.80424">
        <ele>2627.9</ele>
        <time>2018-09-14T09:08:44Z</time>
      </trkpt>
      <trkpt lat="44.81553" lon="6.80422">
        <ele>2629.34</ele>
        <time>2018-09-14T09:08:57Z</time>
      </trkpt>
      <trkpt lat="44.81544" lon="6.8042">
        <ele>2630.79</ele>
        <time>2018-09-14T09:09:08Z</time>
      </trkpt>
      <trkpt lat="44.81536" lon="6.80419">
        <ele>2631.27</ele>
        <time>2018-09-14T09:09:19Z</time>
      </trkpt>
      <trkpt lat="44.81529" lon="6.80413">
        <ele>2631.75</ele>
        <time>2018-09-14T09:09:30Z</time>
      </trkpt>
      <trkpt lat="44.81521" lon="6.80407">
        <ele>2631.27</ele>
        <time>2018-09-14T09:09:42Z</time>
      </trkpt>
      <trkpt lat="44.81513" lon="6.80401">
        <ele>2630.79</ele>
        <time>2018-09-14T09:09:52Z</time>
      </trkpt>
      <trkpt lat="44.81506" lon="6.80392">
        <ele>2630.3</ele>
        <time>2018-09-14T09:10:09Z</time>
      </trkpt>
      <trkpt lat="44.81507" lon="6.80381">
        <ele>2631.27</ele>
        <time>2018-09-14T09:10:23Z</time>
      </trkpt>
      <trkpt lat="44.81503" lon="6.80372">
        <ele>2631.75</ele>
        <time>2018-09-14T09:10:36Z</time>
      </trkpt>
      <trkpt lat="44.81495" lon="6.80362">
        <ele>2631.75</ele>
        <time>2018-09-14T09:10:47Z</time>
      </trkpt>
      <trkpt lat="44.81495" lon="6.80363">
        <ele>2633.67</ele>
        <time>2018-09-14T09:33:51Z</time>
      </trkpt>
      <trkpt lat="44.81491" lon="6.80371">
        <ele>2631.75</ele>
        <time>2018-09-14T09:34:16Z</time>
      </trkpt>
      <trkpt lat="44.81485" lon="6.80379">
        <ele>2630.79</ele>
        <time>2018-09-14T09:35:24Z</time>
      </trkpt>
      <trkpt lat="44.81476" lon="6.80377">
        <ele>2630.3</ele>
        <time>2018-09-14T09:35:42Z</time>
      </trkpt>
      <trkpt lat="44.81467" lon="6.80371">
        <ele>2630.3</ele>
        <time>2018-09-14T09:35:53Z</time>
      </trkpt>
      <trkpt lat="44.81461" lon="6.80362">
        <ele>2629.34</ele>
        <time>2018-09-14T09:36:03Z</time>
      </trkpt>
      <trkpt lat="44.81453" lon="6.80352">
        <ele>2629.34</ele>
        <time>2018-09-14T09:36:15Z</time>
      </trkpt>
      <trkpt lat="44.81449" lon="6.8034">
        <ele>2629.34</ele>
        <time>2018-09-14T09:36:26Z</time>
      </trkpt>
      <trkpt lat="44.81444" lon="6.80329">
        <ele>2628.86</ele>
        <time>2018-09-14T09:36:37Z</time>
      </trkpt>
      <trkpt lat="44.81439" lon="6.80318">
        <ele>2627.42</ele>
        <time>2018-09-14T09:36:47Z</time>
      </trkpt>
      <trkpt lat="44.81434" lon="6.80306">
        <ele>2625.98</ele>
        <time>2018-09-14T09:36:57Z</time>
      </trkpt>
      <trkpt lat="44.81429" lon="6.80295">
        <ele>2626.46</ele>
        <time>2018-09-14T09:37:06Z</time>
      </trkpt>
      <trkpt lat="44.81424" lon="6.80284">
        <ele>2625.5</ele>
        <time>2018-09-14T09:37:16Z</time>
      </trkpt>
      <trkpt lat="44.81417" lon="6.80276">
        <ele>2625.98</ele>
        <time>2018-09-14T09:37:27Z</time>
      </trkpt>
      <trkpt lat="44.81409" lon="6.80273">
        <ele>2624.54</ele>
        <time>2018-09-14T09:37:37Z</time>
      </trkpt>
      <trkpt lat="44.81401" lon="6.80269">
        <ele>2622.61</ele>
        <time>2018-09-14T09:37:48Z</time>
      </trkpt>
      <trkpt lat="44.81394" lon="6.80266">
        <ele>2621.65</ele>
        <time>2018-09-14T09:38:48Z</time>
      </trkpt>
      <trkpt lat="44.81386" lon="6.80259">
        <ele>2619.25</ele>
        <time>2018-09-14T09:38:59Z</time>
      </trkpt>
      <trkpt lat="44.81379" lon="6.80251">
        <ele>2617.33</ele>
        <time>2018-09-14T09:39:10Z</time>
      </trkpt>
      <trkpt lat="44.8137" lon="6.80244">
        <ele>2615.4</ele>
        <time>2018-09-14T09:39:20Z</time>
      </trkpt>
      <trkpt lat="44.81361" lon="6.80235">
        <ele>2613</ele>
        <time>2018-09-14T09:39:30Z</time>
      </trkpt>
      <trkpt lat="44.81353" lon="6.80229">
        <ele>2611.56</ele>
        <time>2018-09-14T09:39:39Z</time>
      </trkpt>
      <trkpt lat="44.81345" lon="6.80221">
        <ele>2609.16</ele>
        <time>2018-09-14T09:39:49Z</time>
      </trkpt>
      <trkpt lat="44.81337" lon="6.80214">
        <ele>2607.71</ele>
        <time>2018-09-14T09:39:58Z</time>
      </trkpt>
      <trkpt lat="44.81329" lon="6.80204">
        <ele>2605.31</ele>
        <time>2018-09-14T09:40:07Z</time>
      </trkpt>
      <trkpt lat="44.81323" lon="6.80196">
        <ele>2604.35</ele>
        <time>2018-09-14T09:40:16Z</time>
      </trkpt>
      <trkpt lat="44.81314" lon="6.80189">
        <ele>2600.98</ele>
        <time>2018-09-14T09:40:25Z</time>
      </trkpt>
      <trkpt lat="44.81307" lon="6.80182">
        <ele>2599.06</ele>
        <time>2018-09-14T09:40:35Z</time>
      </trkpt>
      <trkpt lat="44.81285" lon="6.80162">
        <ele>2597.62</ele>
        <time>2018-09-14T09:40:44Z</time>
      </trkpt>
      <trkpt lat="44.81254" lon="6.80153">
        <ele>2595.7</ele>
        <time>2018-09-14T09:40:54Z</time>
      </trkpt>
      <trkpt lat="44.81144" lon="6.80161">
        <ele>2445.73</ele>
        <time>2018-09-14T09:56:00Z</time>
      </trkpt>
      <trkpt lat="44.80941" lon="6.80053">
        <ele>2452.46</ele>
        <time>2018-09-14T09:56:20Z</time>
      </trkpt>
      <trkpt lat="44.80764" lon="6.79934">
        <ele>2443.33</ele>
        <time>2018-09-14T09:57:25Z</time>
      </trkpt>
      <trkpt lat="44.80533" lon="6.79772">
        <ele>2449.58</ele>
        <time>2018-09-14T10:00:37Z</time>
      </trkpt>
      <trkpt lat="44.80524" lon="6.79771">
        <ele>2446.69</ele>
        <time>2018-09-14T10:00:46Z</time>
      </trkpt>
      <trkpt lat="44.80514" lon="6.79772">
        <ele>2445.73</ele>
        <time>2018-09-14T10:00:55Z</time>
      </trkpt>
      <trkpt lat="44.80505" lon="6.79774">
        <ele>2444.29</ele>
        <time>2018-09-14T10:01:04Z</time>
      </trkpt>
      <trkpt lat="44.80496" lon="6.79775">
        <ele>2442.37</ele>
        <time>2018-09-14T10:01:14Z</time>
      </trkpt>
      <trkpt lat="44.80487" lon="6.79775">
        <ele>2439.96</ele>
        <time>2018-09-14T10:01:25Z</time>
      </trkpt>
      <trkpt lat="44.80479" lon="6.7977">
        <ele>2438.52</ele>
        <time>2018-09-14T10:01:38Z</time>
      </trkpt>
      <trkpt lat="44.8047" lon="6.79768">
        <ele>2436.6</ele>
        <time>2018-09-14T10:01:48Z</time>
      </trkpt>
      <trkpt lat="44.80461" lon="6.7977">
        <ele>2434.68</ele>
        <time>2018-09-14T10:01:58Z</time>
      </trkpt>
      <trkpt lat="44.80452" lon="6.7977">
        <ele>2432.27</ele>
        <time>2018-09-14T10:02:08Z</time>
      </trkpt>
      <trkpt lat="44.80442" lon="6.7977">
        <ele>2429.87</ele>
        <time>2018-09-14T10:02:19Z</time>
      </trkpt>
      <trkpt lat="44.80432" lon="6.79772">
        <ele>2427.95</ele>
        <time>2018-09-14T10:02:30Z</time>
      </trkpt>
      <trkpt lat="44.80423" lon="6.79774">
        <ele>2425.54</ele>
        <time>2018-09-14T10:02:41Z</time>
      </trkpt>
      <trkpt lat="44.80413" lon="6.79774">
        <ele>2422.66</ele>
        <time>2018-09-14T10:02:53Z</time>
      </trkpt>
      <trkpt lat="44.80404" lon="6.79774">
        <ele>2420.74</ele>
        <time>2018-09-14T10:03:03Z</time>
      </trkpt>
      <trkpt lat="44.80395" lon="6.79772">
        <ele>2419.3</ele>
        <time>2018-09-14T10:03:28Z</time>
      </trkpt>
      <trkpt lat="44.80386" lon="6.79767">
        <ele>2417.37</ele>
        <time>2018-09-14T10:03:38Z</time>
      </trkpt>
      <trkpt lat="44.80377" lon="6.79762">
        <ele>2415.93</ele>
        <time>2018-09-14T10:03:49Z</time>
      </trkpt>
      <trkpt lat="44.80375" lon="6.79775">
        <ele>2413.53</ele>
        <time>2018-09-14T10:04:00Z</time>
      </trkpt>
      <trkpt lat="44.80366" lon="6.79771">
        <ele>2410.64</ele>
        <time>2018-09-14T10:04:10Z</time>
      </trkpt>
      <trkpt lat="44.80357" lon="6.79769">
        <ele>2409.68</ele>
        <time>2018-09-14T10:04:23Z</time>
      </trkpt>
      <trkpt lat="44.80347" lon="6.79766">
        <ele>2407.76</ele>
        <time>2018-09-14T10:04:33Z</time>
      </trkpt>
      <trkpt lat="44.80339" lon="6.79758">
        <ele>2406.32</ele>
        <time>2018-09-14T10:04:50Z</time>
      </trkpt>
      <trkpt lat="44.80331" lon="6.79752">
        <ele>2404.39</ele>
        <time>2018-09-14T10:05:00Z</time>
      </trkpt>
      <trkpt lat="44.80323" lon="6.7975">
        <ele>2401.99</ele>
        <time>2018-09-14T10:05:10Z</time>
      </trkpt>
      <trkpt lat="44.80313" lon="6.79751">
        <ele>2400.07</ele>
        <time>2018-09-14T10:05:20Z</time>
      </trkpt>
      <trkpt lat="44.80303" lon="6.79748">
        <ele>2397.18</ele>
        <time>2018-09-14T10:05:29Z</time>
      </trkpt>
      <trkpt lat="44.80298" lon="6.79735">
        <ele>2394.78</ele>
        <time>2018-09-14T10:05:39Z</time>
      </trkpt>
      <trkpt lat="44.80294" lon="6.79724">
        <ele>2393.34</ele>
        <time>2018-09-14T10:05:49Z</time>
      </trkpt>
      <trkpt lat="44.80286" lon="6.79722">
        <ele>2391.9</ele>
        <time>2018-09-14T10:05:58Z</time>
      </trkpt>
      <trkpt lat="44.80276" lon="6.79724">
        <ele>2390.46</ele>
        <time>2018-09-14T10:06:07Z</time>
      </trkpt>
      <trkpt lat="44.80267" lon="6.79727">
        <ele>2388.05</ele>
        <time>2018-09-14T10:06:15Z</time>
      </trkpt>
      <trkpt lat="44.80257" lon="6.79725">
        <ele>2385.65</ele>
        <time>2018-09-14T10:06:24Z</time>
      </trkpt>
      <trkpt lat="44.80249" lon="6.7972">
        <ele>2383.73</ele>
        <time>2018-09-14T10:06:34Z</time>
      </trkpt>
      <trkpt lat="44.8024" lon="6.7972">
        <ele>2381.8</ele>
        <time>2018-09-14T10:06:44Z</time>
      </trkpt>
      <trkpt lat="44.80234" lon="6.79708">
        <ele>2378.44</ele>
        <time>2018-09-14T10:06:53Z</time>
      </trkpt>
      <trkpt lat="44.80231" lon="6.79697">
        <ele>2377.96</ele>
        <time>2018-09-14T10:07:02Z</time>
      </trkpt>
      <trkpt lat="44.80231" lon="6.79683">
        <ele>2376.52</ele>
        <time>2018-09-14T10:07:11Z</time>
      </trkpt>
      <trkpt lat="44.80226" lon="6.79671">
        <ele>2375.07</ele>
        <time>2018-09-14T10:07:19Z</time>
      </trkpt>
      <trkpt lat="44.80224" lon="6.79659">
        <ele>2372.67</ele>
        <time>2018-09-14T10:07:27Z</time>
      </trkpt>
      <trkpt lat="44.80219" lon="6.79648">
        <ele>2369.31</ele>
        <time>2018-09-14T10:07:36Z</time>
      </trkpt>
      <trkpt lat="44.80216" lon="6.79636">
        <ele>2367.38</ele>
        <time>2018-09-14T10:07:44Z</time>
      </trkpt>
      <trkpt lat="44.80212" lon="6.79625">
        <ele>2365.94</ele>
        <time>2018-09-14T10:07:52Z</time>
      </trkpt>
      <trkpt lat="44.80207" lon="6.79614">
        <ele>2363.54</ele>
        <time>2018-09-14T10:08:01Z</time>
      </trkpt>
      <trkpt lat="44.80202" lon="6.79602">
        <ele>2360.65</ele>
        <time>2018-09-14T10:08:11Z</time>
      </trkpt>
      <trkpt lat="44.80196" lon="6.7959">
        <ele>2359.69</ele>
        <time>2018-09-14T10:08:20Z</time>
      </trkpt>
      <trkpt lat="44.80189" lon="6.79582">
        <ele>2357.77</ele>
        <time>2018-09-14T10:08:29Z</time>
      </trkpt>
      <trkpt lat="44.80181" lon="6.79575">
        <ele>2354.89</ele>
        <time>2018-09-14T10:08:37Z</time>
      </trkpt>
      <trkpt lat="44.80176" lon="6.79564">
        <ele>2352.48</ele>
        <time>2018-09-14T10:08:47Z</time>
      </trkpt>
      <trkpt lat="44.80173" lon="6.79552">
        <ele>2349.6</ele>
        <time>2018-09-14T10:08:57Z</time>
      </trkpt>
      <trkpt lat="44.80165" lon="6.79546">
        <ele>2345.27</ele>
        <time>2018-09-14T10:09:08Z</time>
      </trkpt>
      <trkpt lat="44.80156" lon="6.79545">
        <ele>2342.39</ele>
        <time>2018-09-14T10:09:19Z</time>
      </trkpt>
      <trkpt lat="44.80152" lon="6.79533">
        <ele>2339.51</ele>
        <time>2018-09-14T10:09:30Z</time>
      </trkpt>
      <trkpt lat="44.80149" lon="6.79519">
        <ele>2335.18</ele>
        <time>2018-09-14T10:09:42Z</time>
      </trkpt>
      <trkpt lat="44.80143" lon="6.79507">
        <ele>2331.33</ele>
        <time>2018-09-14T10:09:54Z</time>
      </trkpt>
      <trkpt lat="44.8014" lon="6.795">
        <ele>2330.37</ele>
        <time>2018-09-14T10:10:05Z</time>
      </trkpt>
      <trkpt lat="44.80141" lon="6.79485">
        <ele>2330.37</ele>
        <time>2018-09-14T10:10:41Z</time>
      </trkpt>
      <trkpt lat="44.80133" lon="6.79477">
        <ele>2331.33</ele>
        <time>2018-09-14T10:10:51Z</time>
      </trkpt>
      <trkpt lat="44.80125" lon="6.79471">
        <ele>2331.33</ele>
        <time>2018-09-14T10:11:01Z</time>
      </trkpt>
      <trkpt lat="44.80115" lon="6.79466">
        <ele>2331.33</ele>
        <time>2018-09-14T10:11:12Z</time>
      </trkpt>
      <trkpt lat="44.80107" lon="6.79459">
        <ele>2333.74</ele>
        <time>2018-09-14T10:11:23Z</time>
      </trkpt>
      <trkpt lat="44.80098" lon="6.79458">
        <ele>2334.7</ele>
        <time>2018-09-14T10:11:34Z</time>
      </trkpt>
      <trkpt lat="44.80091" lon="6.79452">
        <ele>2336.14</ele>
        <time>2018-09-14T10:11:45Z</time>
      </trkpt>
      <trkpt lat="44.80081" lon="6.79451">
        <ele>2337.1</ele>
        <time>2018-09-14T10:11:56Z</time>
      </trkpt>
      <trkpt lat="44.80071" lon="6.79453">
        <ele>2338.06</ele>
        <time>2018-09-14T10:12:06Z</time>
      </trkpt>
      <trkpt lat="44.80062" lon="6.7945">
        <ele>2338.06</ele>
        <time>2018-09-14T10:12:16Z</time>
      </trkpt>
      <trkpt lat="44.80053" lon="6.79446">
        <ele>2338.54</ele>
        <time>2018-09-14T10:12:25Z</time>
      </trkpt>
      <trkpt lat="44.80044" lon="6.79442">
        <ele>2338.54</ele>
        <time>2018-09-14T10:12:34Z</time>
      </trkpt>
      <trkpt lat="44.80034" lon="6.79439">
        <ele>2339.02</ele>
        <time>2018-09-14T10:12:43Z</time>
      </trkpt>
      <trkpt lat="44.80026" lon="6.79434">
        <ele>2337.58</ele>
        <time>2018-09-14T10:12:51Z</time>
      </trkpt>
      <trkpt lat="44.80021" lon="6.79422">
        <ele>2338.06</ele>
        <time>2018-09-14T10:13:00Z</time>
      </trkpt>
      <trkpt lat="44.80013" lon="6.79414">
        <ele>2337.1</ele>
        <time>2018-09-14T10:13:10Z</time>
      </trkpt>
      <trkpt lat="44.80004" lon="6.79421">
        <ele>2338.54</ele>
        <time>2018-09-14T10:13:21Z</time>
      </trkpt>
      <trkpt lat="44.79995" lon="6.79422">
        <ele>2340.95</ele>
        <time>2018-09-14T10:13:31Z</time>
      </trkpt>
      <trkpt lat="44.79986" lon="6.7942">
        <ele>2340.47</ele>
        <time>2018-09-14T10:13:41Z</time>
      </trkpt>
      <trkpt lat="44.79976" lon="6.79418">
        <ele>2340.47</ele>
        <time>2018-09-14T10:13:50Z</time>
      </trkpt>
      <trkpt lat="44.79967" lon="6.79413">
        <ele>2340.95</ele>
        <time>2018-09-14T10:14:00Z</time>
      </trkpt>
      <trkpt lat="44.79957" lon="6.79408">
        <ele>2342.39</ele>
        <time>2018-09-14T10:14:19Z</time>
      </trkpt>
      <trkpt lat="44.7995" lon="6.794">
        <ele>2343.35</ele>
        <time>2018-09-14T10:14:29Z</time>
      </trkpt>
      <trkpt lat="44.79942" lon="6.79397">
        <ele>2342.87</ele>
        <time>2018-09-14T10:14:37Z</time>
      </trkpt>
      <trkpt lat="44.79933" lon="6.79395">
        <ele>2344.31</ele>
        <time>2018-09-14T10:14:46Z</time>
      </trkpt>
      <trkpt lat="44.79923" lon="6.79391">
        <ele>2344.31</ele>
        <time>2018-09-14T10:14:55Z</time>
      </trkpt>
      <trkpt lat="44.79916" lon="6.79382">
        <ele>2344.79</ele>
        <time>2018-09-14T10:15:04Z</time>
      </trkpt>
      <trkpt lat="44.7991" lon="6.79371">
        <ele>2344.31</ele>
        <time>2018-09-14T10:15:12Z</time>
      </trkpt>
      <trkpt lat="44.79904" lon="6.79362">
        <ele>2343.35</ele>
        <time>2018-09-14T10:15:20Z</time>
      </trkpt>
      <trkpt lat="44.79897" lon="6.79353">
        <ele>2342.87</ele>
        <time>2018-09-14T10:15:28Z</time>
      </trkpt>
      <trkpt lat="44.7989" lon="6.79343">
        <ele>2342.39</ele>
        <time>2018-09-14T10:15:36Z</time>
      </trkpt>
      <trkpt lat="44.79881" lon="6.79338">
        <ele>2342.39</ele>
        <time>2018-09-14T10:15:45Z</time>
      </trkpt>
      <trkpt lat="44.79872" lon="6.7934">
        <ele>2342.87</ele>
        <time>2018-09-14T10:15:54Z</time>
      </trkpt>
      <trkpt lat="44.79864" lon="6.79333">
        <ele>2344.31</ele>
        <time>2018-09-14T10:16:04Z</time>
      </trkpt>
      <trkpt lat="44.79856" lon="6.79325">
        <ele>2345.75</ele>
        <time>2018-09-14T10:16:14Z</time>
      </trkpt>
      <trkpt lat="44.79846" lon="6.79321">
        <ele>2344.31</ele>
        <time>2018-09-14T10:16:23Z</time>
      </trkpt>
      <trkpt lat="44.79836" lon="6.7932">
        <ele>2343.83</ele>
        <time>2018-09-14T10:16:38Z</time>
      </trkpt>
      <trkpt lat="44.79827" lon="6.79317">
        <ele>2343.83</ele>
        <time>2018-09-14T10:16:47Z</time>
      </trkpt>
      <trkpt lat="44.79818" lon="6.79314">
        <ele>2343.83</ele>
        <time>2018-09-14T10:16:56Z</time>
      </trkpt>
      <trkpt lat="44.79812" lon="6.79303">
        <ele>2344.31</ele>
        <time>2018-09-14T10:17:05Z</time>
      </trkpt>
      <trkpt lat="44.79802" lon="6.793">
        <ele>2344.31</ele>
        <time>2018-09-14T10:17:20Z</time>
      </trkpt>
      <trkpt lat="44.79794" lon="6.79295">
        <ele>2345.27</ele>
        <time>2018-09-14T10:17:29Z</time>
      </trkpt>
      <trkpt lat="44.79786" lon="6.79288">
        <ele>2345.75</ele>
        <time>2018-09-14T10:17:38Z</time>
      </trkpt>
      <trkpt lat="44.79777" lon="6.79282">
        <ele>2346.23</ele>
        <time>2018-09-14T10:17:48Z</time>
      </trkpt>
      <trkpt lat="44.79768" lon="6.79287">
        <ele>2346.72</ele>
        <time>2018-09-14T10:17:57Z</time>
      </trkpt>
      <trkpt lat="44.79759" lon="6.79292">
        <ele>2345.75</ele>
        <time>2018-09-14T10:18:05Z</time>
      </trkpt>
      <trkpt lat="44.7975" lon="6.79298">
        <ele>2348.16</ele>
        <time>2018-09-14T10:18:15Z</time>
      </trkpt>
      <trkpt lat="44.79742" lon="6.79304">
        <ele>2348.64</ele>
        <time>2018-09-14T10:18:24Z</time>
      </trkpt>
      <trkpt lat="44.79733" lon="6.79309">
        <ele>2348.16</ele>
        <time>2018-09-14T10:18:33Z</time>
      </trkpt>
      <trkpt lat="44.79724" lon="6.79311">
        <ele>2349.12</ele>
        <time>2018-09-14T10:18:42Z</time>
      </trkpt>
      <trkpt lat="44.79716" lon="6.79309">
        <ele>2348.16</ele>
        <time>2018-09-14T10:19:10Z</time>
      </trkpt>
      <trkpt lat="44.79706" lon="6.7931">
        <ele>2350.08</ele>
        <time>2018-09-14T10:19:25Z</time>
      </trkpt>
      <trkpt lat="44.79696" lon="6.79308">
        <ele>2350.56</ele>
        <time>2018-09-14T10:19:37Z</time>
      </trkpt>
      <trkpt lat="44.79692" lon="6.79294">
        <ele>2350.08</ele>
        <time>2018-09-14T10:19:47Z</time>
      </trkpt>
      <trkpt lat="44.79688" lon="6.79283">
        <ele>2348.16</ele>
        <time>2018-09-14T10:19:57Z</time>
      </trkpt>
      <trkpt lat="44.79687" lon="6.79269">
        <ele>2347.2</ele>
        <time>2018-09-14T10:20:05Z</time>
      </trkpt>
      <trkpt lat="44.79684" lon="6.79258">
        <ele>2346.72</ele>
        <time>2018-09-14T10:20:13Z</time>
      </trkpt>
      <trkpt lat="44.79679" lon="6.79247">
        <ele>2345.27</ele>
        <time>2018-09-14T10:20:22Z</time>
      </trkpt>
      <trkpt lat="44.79676" lon="6.79234">
        <ele>2343.83</ele>
        <time>2018-09-14T10:20:31Z</time>
      </trkpt>
      <trkpt lat="44.79673" lon="6.79222">
        <ele>2342.39</ele>
        <time>2018-09-14T10:20:39Z</time>
      </trkpt>
      <trkpt lat="44.79666" lon="6.79212">
        <ele>2341.43</ele>
        <time>2018-09-14T10:20:48Z</time>
      </trkpt>
      <trkpt lat="44.79658" lon="6.79207">
        <ele>2341.43</ele>
        <time>2018-09-14T10:20:57Z</time>
      </trkpt>
      <trkpt lat="44.79653" lon="6.79194">
        <ele>2340.47</ele>
        <time>2018-09-14T10:21:05Z</time>
      </trkpt>
      <trkpt lat="44.79648" lon="6.79184">
        <ele>2339.02</ele>
        <time>2018-09-14T10:21:13Z</time>
      </trkpt>
      <trkpt lat="44.79642" lon="6.79174">
        <ele>2339.02</ele>
        <time>2018-09-14T10:21:22Z</time>
      </trkpt>
      <trkpt lat="44.79635" lon="6.79163">
        <ele>2339.99</ele>
        <time>2018-09-14T10:21:31Z</time>
      </trkpt>
      <trkpt lat="44.79628" lon="6.79153">
        <ele>2338.06</ele>
        <time>2018-09-14T10:21:40Z</time>
      </trkpt>
      <trkpt lat="44.79621" lon="6.79146">
        <ele>2339.99</ele>
        <time>2018-09-14T10:21:51Z</time>
      </trkpt>
      <trkpt lat="44.79613" lon="6.79142">
        <ele>2340.95</ele>
        <time>2018-09-14T10:22:01Z</time>
      </trkpt>
      <trkpt lat="44.79608" lon="6.7913">
        <ele>2340.95</ele>
        <time>2018-09-14T10:22:10Z</time>
      </trkpt>
      <trkpt lat="44.79602" lon="6.79122">
        <ele>2341.91</ele>
        <time>2018-09-14T10:22:19Z</time>
      </trkpt>
      <trkpt lat="44.79594" lon="6.79116">
        <ele>2342.39</ele>
        <time>2018-09-14T10:22:30Z</time>
      </trkpt>
      <trkpt lat="44.79586" lon="6.79112">
        <ele>2342.87</ele>
        <time>2018-09-14T10:22:40Z</time>
      </trkpt>
      <trkpt lat="44.79577" lon="6.79107">
        <ele>2343.83</ele>
        <time>2018-09-14T10:22:49Z</time>
      </trkpt>
      <trkpt lat="44.79568" lon="6.79103">
        <ele>2343.83</ele>
        <time>2018-09-14T10:22:59Z</time>
      </trkpt>
      <trkpt lat="44.7956" lon="6.79098">
        <ele>2345.27</ele>
        <time>2018-09-14T10:23:09Z</time>
      </trkpt>
      <trkpt lat="44.79551" lon="6.79094">
        <ele>2345.75</ele>
        <time>2018-09-14T10:23:20Z</time>
      </trkpt>
      <trkpt lat="44.79543" lon="6.7909">
        <ele>2347.68</ele>
        <time>2018-09-14T10:23:32Z</time>
      </trkpt>
      <trkpt lat="44.79534" lon="6.79083">
        <ele>2350.08</ele>
        <time>2018-09-14T10:23:46Z</time>
      </trkpt>
      <trkpt lat="44.79526" lon="6.79076">
        <ele>2351.04</ele>
        <time>2018-09-14T10:23:59Z</time>
      </trkpt>
      <trkpt lat="44.79517" lon="6.7907">
        <ele>2352.48</ele>
        <time>2018-09-14T10:24:10Z</time>
      </trkpt>
      <trkpt lat="44.79508" lon="6.79069">
        <ele>2352.96</ele>
        <time>2018-09-14T10:24:20Z</time>
      </trkpt>
      <trkpt lat="44.79498" lon="6.79068">
        <ele>2353.93</ele>
        <time>2018-09-14T10:24:31Z</time>
      </trkpt>
      <trkpt lat="44.79489" lon="6.79064">
        <ele>2354.41</ele>
        <time>2018-09-14T10:24:42Z</time>
      </trkpt>
      <trkpt lat="44.7948" lon="6.79056">
        <ele>2354.89</ele>
        <time>2018-09-14T10:24:52Z</time>
      </trkpt>
      <trkpt lat="44.79472" lon="6.79052">
        <ele>2354.89</ele>
        <time>2018-09-14T10:25:02Z</time>
      </trkpt>
      <trkpt lat="44.79464" lon="6.79043">
        <ele>2354.41</ele>
        <time>2018-09-14T10:25:18Z</time>
      </trkpt>
      <trkpt lat="44.79457" lon="6.79034">
        <ele>2353.93</ele>
        <time>2018-09-14T10:25:27Z</time>
      </trkpt>
      <trkpt lat="44.7945" lon="6.79028">
        <ele>2354.89</ele>
        <time>2018-09-14T10:25:36Z</time>
      </trkpt>
      <trkpt lat="44.79442" lon="6.79019">
        <ele>2355.37</ele>
        <time>2018-09-14T10:25:45Z</time>
      </trkpt>
      <trkpt lat="44.79434" lon="6.79009">
        <ele>2354.41</ele>
        <time>2018-09-14T10:25:54Z</time>
      </trkpt>
      <trkpt lat="44.79429" lon="6.78999">
        <ele>2355.37</ele>
        <time>2018-09-14T10:26:02Z</time>
      </trkpt>
      <trkpt lat="44.79421" lon="6.7899">
        <ele>2355.85</ele>
        <time>2018-09-14T10:26:11Z</time>
      </trkpt>
      <trkpt lat="44.79413" lon="6.78982">
        <ele>2355.37</ele>
        <time>2018-09-14T10:26:20Z</time>
      </trkpt>
      <trkpt lat="44.79407" lon="6.78971">
        <ele>2354.41</ele>
        <time>2018-09-14T10:26:29Z</time>
      </trkpt>
      <trkpt lat="44.79401" lon="6.78959">
        <ele>2353.44</ele>
        <time>2018-09-14T10:26:38Z</time>
      </trkpt>
      <trkpt lat="44.79394" lon="6.78952">
        <ele>2352.96</ele>
        <time>2018-09-14T10:26:47Z</time>
      </trkpt>
      <trkpt lat="44.79387" lon="6.78942">
        <ele>2352.48</ele>
        <time>2018-09-14T10:26:56Z</time>
      </trkpt>
      <trkpt lat="44.79382" lon="6.7893">
        <ele>2351.52</ele>
        <time>2018-09-14T10:27:04Z</time>
      </trkpt>
      <trkpt lat="44.79374" lon="6.78923">
        <ele>2351.04</ele>
        <time>2018-09-14T10:27:12Z</time>
      </trkpt>
      <trkpt lat="44.79368" lon="6.78914">
        <ele>2350.08</ele>
        <time>2018-09-14T10:27:20Z</time>
      </trkpt>
      <trkpt lat="44.79362" lon="6.78904">
        <ele>2349.12</ele>
        <time>2018-09-14T10:27:28Z</time>
      </trkpt>
      <trkpt lat="44.79356" lon="6.78894">
        <ele>2348.16</ele>
        <time>2018-09-14T10:27:36Z</time>
      </trkpt>
      <trkpt lat="44.79349" lon="6.78886">
        <ele>2346.23</ele>
        <time>2018-09-14T10:27:44Z</time>
      </trkpt>
      <trkpt lat="44.79341" lon="6.78878">
        <ele>2344.79</ele>
        <time>2018-09-14T10:27:53Z</time>
      </trkpt>
      <trkpt lat="44.79332" lon="6.78871">
        <ele>2343.83</ele>
        <time>2018-09-14T10:28:01Z</time>
      </trkpt>
      <trkpt lat="44.79324" lon="6.78864">
        <ele>2341.91</ele>
        <time>2018-09-14T10:28:09Z</time>
      </trkpt>
      <trkpt lat="44.79316" lon="6.78868">
        <ele>2341.91</ele>
        <time>2018-09-14T10:28:17Z</time>
      </trkpt>
      <trkpt lat="44.79306" lon="6.7887">
        <ele>2343.83</ele>
        <time>2018-09-14T10:28:28Z</time>
      </trkpt>
      <trkpt lat="44.79297" lon="6.7887">
        <ele>2344.31</ele>
        <time>2018-09-14T10:28:37Z</time>
      </trkpt>
      <trkpt lat="44.79287" lon="6.78872">
        <ele>2344.79</ele>
        <time>2018-09-14T10:28:46Z</time>
      </trkpt>
      <trkpt lat="44.79279" lon="6.78878">
        <ele>2344.31</ele>
        <time>2018-09-14T10:28:56Z</time>
      </trkpt>
      <trkpt lat="44.7927" lon="6.78884">
        <ele>2344.79</ele>
        <time>2018-09-14T10:29:05Z</time>
      </trkpt>
      <trkpt lat="44.79261" lon="6.78887">
        <ele>2343.83</ele>
        <time>2018-09-14T10:29:13Z</time>
      </trkpt>
      <trkpt lat="44.79252" lon="6.78889">
        <ele>2343.83</ele>
        <time>2018-09-14T10:29:22Z</time>
      </trkpt>
      <trkpt lat="44.79242" lon="6.78893">
        <ele>2343.83</ele>
        <time>2018-09-14T10:29:31Z</time>
      </trkpt>
      <trkpt lat="44.79234" lon="6.78897">
        <ele>2342.87</ele>
        <time>2018-09-14T10:29:40Z</time>
      </trkpt>
      <trkpt lat="44.79225" lon="6.78895">
        <ele>2341.91</ele>
        <time>2018-09-14T10:29:49Z</time>
      </trkpt>
      <trkpt lat="44.79216" lon="6.78892">
        <ele>2342.39</ele>
        <time>2018-09-14T10:29:59Z</time>
      </trkpt>
      <trkpt lat="44.79206" lon="6.78886">
        <ele>2341.91</ele>
        <time>2018-09-14T10:30:10Z</time>
      </trkpt>
      <trkpt lat="44.79199" lon="6.78876">
        <ele>2341.43</ele>
        <time>2018-09-14T10:30:20Z</time>
      </trkpt>
      <trkpt lat="44.79194" lon="6.78865">
        <ele>2339.99</ele>
        <time>2018-09-14T10:30:29Z</time>
      </trkpt>
      <trkpt lat="44.79188" lon="6.78857">
        <ele>2339.02</ele>
        <time>2018-09-14T10:30:37Z</time>
      </trkpt>
      <trkpt lat="44.79181" lon="6.78849">
        <ele>2338.54</ele>
        <time>2018-09-14T10:30:47Z</time>
      </trkpt>
      <trkpt lat="44.79173" lon="6.78842">
        <ele>2338.06</ele>
        <time>2018-09-14T10:30:56Z</time>
      </trkpt>
      <trkpt lat="44.79167" lon="6.78831">
        <ele>2337.58</ele>
        <time>2018-09-14T10:31:05Z</time>
      </trkpt>
      <trkpt lat="44.79161" lon="6.7882">
        <ele>2336.62</ele>
        <time>2018-09-14T10:31:14Z</time>
      </trkpt>
      <trkpt lat="44.79155" lon="6.78808">
        <ele>2335.66</ele>
        <time>2018-09-14T10:31:23Z</time>
      </trkpt>
      <trkpt lat="44.79146" lon="6.78803">
        <ele>2334.22</ele>
        <time>2018-09-14T10:31:31Z</time>
      </trkpt>
      <trkpt lat="44.79138" lon="6.78796">
        <ele>2333.26</ele>
        <time>2018-09-14T10:31:39Z</time>
      </trkpt>
      <trkpt lat="44.7913" lon="6.78789">
        <ele>2331.81</ele>
        <time>2018-09-14T10:31:48Z</time>
      </trkpt>
      <trkpt lat="44.79122" lon="6.78783">
        <ele>2331.81</ele>
        <time>2018-09-14T10:32:07Z</time>
      </trkpt>
      <trkpt lat="44.79114" lon="6.78779">
        <ele>2330.85</ele>
        <time>2018-09-14T10:32:18Z</time>
      </trkpt>
      <trkpt lat="44.79105" lon="6.78774">
        <ele>2327.97</ele>
        <time>2018-09-14T10:32:28Z</time>
      </trkpt>
      <trkpt lat="44.79101" lon="6.78764">
        <ele>2328.45</ele>
        <time>2018-09-14T10:32:40Z</time>
      </trkpt>
      <trkpt lat="44.79098" lon="6.78752">
        <ele>2326.05</ele>
        <time>2018-09-14T10:32:51Z</time>
      </trkpt>
      <trkpt lat="44.79095" lon="6.78739">
        <ele>2324.12</ele>
        <time>2018-09-14T10:33:02Z</time>
      </trkpt>
      <trkpt lat="44.79091" lon="6.78727">
        <ele>2321.72</ele>
        <time>2018-09-14T10:33:13Z</time>
      </trkpt>
      <trkpt lat="44.79088" lon="6.78715">
        <ele>2319.8</ele>
        <time>2018-09-14T10:33:24Z</time>
      </trkpt>
      <trkpt lat="44.79084" lon="6.78703">
        <ele>2318.36</ele>
        <time>2018-09-14T10:33:34Z</time>
      </trkpt>
      <trkpt lat="44.79078" lon="6.78693">
        <ele>2316.91</ele>
        <time>2018-09-14T10:33:47Z</time>
      </trkpt>
      <trkpt lat="44.79071" lon="6.78685">
        <ele>2316.43</ele>
        <time>2018-09-14T10:33:56Z</time>
      </trkpt>
      <trkpt lat="44.79064" lon="6.78676">
        <ele>2315.95</ele>
        <time>2018-09-14T10:34:05Z</time>
      </trkpt>
      <trkpt lat="44.79056" lon="6.78669">
        <ele>2314.51</ele>
        <time>2018-09-14T10:34:14Z</time>
      </trkpt>
      <trkpt lat="44.79047" lon="6.78664">
        <ele>2312.11</ele>
        <time>2018-09-14T10:34:23Z</time>
      </trkpt>
      <trkpt lat="44.79039" lon="6.78657">
        <ele>2310.19</ele>
        <time>2018-09-14T10:34:32Z</time>
      </trkpt>
      <trkpt lat="44.79031" lon="6.7865">
        <ele>2309.22</ele>
        <time>2018-09-14T10:34:43Z</time>
      </trkpt>
      <trkpt lat="44.79023" lon="6.78643">
        <ele>2307.78</ele>
        <time>2018-09-14T10:34:52Z</time>
      </trkpt>
      <trkpt lat="44.79015" lon="6.78637">
        <ele>2305.86</ele>
        <time>2018-09-14T10:35:01Z</time>
      </trkpt>
      <trkpt lat="44.79006" lon="6.78632">
        <ele>2305.38</ele>
        <time>2018-09-14T10:35:09Z</time>
      </trkpt>
      <trkpt lat="44.78996" lon="6.78626">
        <ele>2303.94</ele>
        <time>2018-09-14T10:35:18Z</time>
      </trkpt>
      <trkpt lat="44.78988" lon="6.78625">
        <ele>2302.98</ele>
        <time>2018-09-14T10:35:29Z</time>
      </trkpt>
      <trkpt lat="44.7898" lon="6.78625">
        <ele>2301.05</ele>
        <time>2018-09-14T10:35:40Z</time>
      </trkpt>
      <trkpt lat="44.7897" lon="6.78622">
        <ele>2299.13</ele>
        <time>2018-09-14T10:35:51Z</time>
      </trkpt>
      <trkpt lat="44.78962" lon="6.78626">
        <ele>2296.73</ele>
        <time>2018-09-14T10:36:01Z</time>
      </trkpt>
      <trkpt lat="44.78954" lon="6.78625">
        <ele>2294.8</ele>
        <time>2018-09-14T10:36:11Z</time>
      </trkpt>
      <trkpt lat="44.78946" lon="6.78619">
        <ele>2293.36</ele>
        <time>2018-09-14T10:36:21Z</time>
      </trkpt>
      <trkpt lat="44.78945" lon="6.78628">
        <ele>2290.96</ele>
        <time>2018-09-14T10:36:32Z</time>
      </trkpt>
      <trkpt lat="44.78946" lon="6.78639">
        <ele>2289.52</ele>
        <time>2018-09-14T10:36:42Z</time>
      </trkpt>
      <trkpt lat="44.78952" lon="6.7865">
        <ele>2286.15</ele>
        <time>2018-09-14T10:36:52Z</time>
      </trkpt>
      <trkpt lat="44.78957" lon="6.78661">
        <ele>2283.75</ele>
        <time>2018-09-14T10:37:03Z</time>
      </trkpt>
      <trkpt lat="44.78962" lon="6.78673">
        <ele>2281.83</ele>
        <time>2018-09-14T10:37:13Z</time>
      </trkpt>
      <trkpt lat="44.78962" lon="6.78681">
        <ele>2279.42</ele>
        <time>2018-09-14T10:37:33Z</time>
      </trkpt>
      <trkpt lat="44.78953" lon="6.78675">
        <ele>2277.98</ele>
        <time>2018-09-14T10:37:42Z</time>
      </trkpt>
      <trkpt lat="44.78943" lon="6.78669">
        <ele>2277.02</ele>
        <time>2018-09-14T10:37:51Z</time>
      </trkpt>
      <trkpt lat="44.78934" lon="6.78661">
        <ele>2277.02</ele>
        <time>2018-09-14T10:38:00Z</time>
      </trkpt>
      <trkpt lat="44.78926" lon="6.78654">
        <ele>2277.5</ele>
        <time>2018-09-14T10:38:09Z</time>
      </trkpt>
      <trkpt lat="44.78917" lon="6.78648">
        <ele>2277.02</ele>
        <time>2018-09-14T10:38:17Z</time>
      </trkpt>
      <trkpt lat="44.78911" lon="6.78639">
        <ele>2275.58</ele>
        <time>2018-09-14T10:38:28Z</time>
      </trkpt>
      <trkpt lat="44.78904" lon="6.78632">
        <ele>2276.06</ele>
        <time>2018-09-14T10:38:59Z</time>
      </trkpt>
      <trkpt lat="44.78897" lon="6.78621">
        <ele>2275.1</ele>
        <time>2018-09-14T10:39:08Z</time>
      </trkpt>
      <trkpt lat="44.78892" lon="6.7861">
        <ele>2274.62</ele>
        <time>2018-09-14T10:39:16Z</time>
      </trkpt>
      <trkpt lat="44.78887" lon="6.78599">
        <ele>2274.62</ele>
        <time>2018-09-14T10:39:24Z</time>
      </trkpt>
      <trkpt lat="44.78883" lon="6.78585">
        <ele>2272.69</ele>
        <time>2018-09-14T10:39:33Z</time>
      </trkpt>
      <trkpt lat="44.78878" lon="6.78573">
        <ele>2270.77</ele>
        <time>2018-09-14T10:39:42Z</time>
      </trkpt>
      <trkpt lat="44.78875" lon="6.78559">
        <ele>2270.77</ele>
        <time>2018-09-14T10:39:50Z</time>
      </trkpt>
      <trkpt lat="44.78874" lon="6.78545">
        <ele>2271.25</ele>
        <time>2018-09-14T10:39:59Z</time>
      </trkpt>
      <trkpt lat="44.78869" lon="6.78535">
        <ele>2270.77</ele>
        <time>2018-09-14T10:40:08Z</time>
      </trkpt>
      <trkpt lat="44.7886" lon="6.78528">
        <ele>2270.77</ele>
        <time>2018-09-14T10:40:17Z</time>
      </trkpt>
      <trkpt lat="44.78853" lon="6.78521">
        <ele>2270.77</ele>
        <time>2018-09-14T10:40:26Z</time>
      </trkpt>
      <trkpt lat="44.78846" lon="6.7851">
        <ele>2270.77</ele>
        <time>2018-09-14T10:40:35Z</time>
      </trkpt>
      <trkpt lat="44.78838" lon="6.78503">
        <ele>2270.29</ele>
        <time>2018-09-14T10:40:44Z</time>
      </trkpt>
      <trkpt lat="44.78831" lon="6.78494">
        <ele>2270.29</ele>
        <time>2018-09-14T10:40:52Z</time>
      </trkpt>
      <trkpt lat="44.78825" lon="6.78483">
        <ele>2270.29</ele>
        <time>2018-09-14T10:41:00Z</time>
      </trkpt>
      <trkpt lat="44.7882" lon="6.7847">
        <ele>2269.81</ele>
        <time>2018-09-14T10:41:09Z</time>
      </trkpt>
      <trkpt lat="44.78816" lon="6.78458">
        <ele>2269.33</ele>
        <time>2018-09-14T10:41:19Z</time>
      </trkpt>
      <trkpt lat="44.78812" lon="6.78444">
        <ele>2268.85</ele>
        <time>2018-09-14T10:41:28Z</time>
      </trkpt>
      <trkpt lat="44.7881" lon="6.78432">
        <ele>2266.93</ele>
        <time>2018-09-14T10:41:36Z</time>
      </trkpt>
      <trkpt lat="44.78808" lon="6.78419">
        <ele>2266.45</ele>
        <time>2018-09-14T10:41:44Z</time>
      </trkpt>
      <trkpt lat="44.78802" lon="6.78411">
        <ele>2266.45</ele>
        <time>2018-09-14T10:41:53Z</time>
      </trkpt>
      <trkpt lat="44.78795" lon="6.78401">
        <ele>2265.48</ele>
        <time>2018-09-14T10:42:02Z</time>
      </trkpt>
      <trkpt lat="44.78788" lon="6.78392">
        <ele>2264.04</ele>
        <time>2018-09-14T10:42:12Z</time>
      </trkpt>
      <trkpt lat="44.78783" lon="6.7838">
        <ele>2263.08</ele>
        <time>2018-09-14T10:42:21Z</time>
      </trkpt>
      <trkpt lat="44.78775" lon="6.78374">
        <ele>2263.08</ele>
        <time>2018-09-14T10:42:31Z</time>
      </trkpt>
      <trkpt lat="44.78767" lon="6.78371">
        <ele>2263.56</ele>
        <time>2018-09-14T10:42:43Z</time>
      </trkpt>
      <trkpt lat="44.78757" lon="6.78366">
        <ele>2262.6</ele>
        <time>2018-09-14T10:42:54Z</time>
      </trkpt>
      <trkpt lat="44.78748" lon="6.7836">
        <ele>2263.56</ele>
        <time>2018-09-14T10:43:04Z</time>
      </trkpt>
      <trkpt lat="44.7874" lon="6.78353">
        <ele>2263.08</ele>
        <time>2018-09-14T10:43:13Z</time>
      </trkpt>
      <trkpt lat="44.78732" lon="6.78344">
        <ele>2262.6</ele>
        <time>2018-09-14T10:43:22Z</time>
      </trkpt>
      <trkpt lat="44.78724" lon="6.78336">
        <ele>2262.12</ele>
        <time>2018-09-14T10:43:30Z</time>
      </trkpt>
      <trkpt lat="44.78715" lon="6.78331">
        <ele>2262.12</ele>
        <time>2018-09-14T10:43:39Z</time>
      </trkpt>
      <trkpt lat="44.78705" lon="6.7833">
        <ele>2262.6</ele>
        <time>2018-09-14T10:43:48Z</time>
      </trkpt>
      <trkpt lat="44.78695" lon="6.7833">
        <ele>2262.6</ele>
        <time>2018-09-14T10:43:56Z</time>
      </trkpt>
      <trkpt lat="44.78686" lon="6.78328">
        <ele>2263.08</ele>
        <time>2018-09-14T10:44:04Z</time>
      </trkpt>
      <trkpt lat="44.78676" lon="6.78325">
        <ele>2262.12</ele>
        <time>2018-09-14T10:44:13Z</time>
      </trkpt>
      <trkpt lat="44.78668" lon="6.78319">
        <ele>2261.16</ele>
        <time>2018-09-14T10:44:22Z</time>
      </trkpt>
      <trkpt lat="44.78662" lon="6.78311">
        <ele>2258.75</ele>
        <time>2018-09-14T10:44:30Z</time>
      </trkpt>
      <trkpt lat="44.78653" lon="6.78309">
        <ele>2257.31</ele>
        <time>2018-09-14T10:44:40Z</time>
      </trkpt>
      <trkpt lat="44.78644" lon="6.78303">
        <ele>2253.95</ele>
        <time>2018-09-14T10:44:52Z</time>
      </trkpt>
      <trkpt lat="44.78636" lon="6.78298">
        <ele>2251.54</ele>
        <time>2018-09-14T10:45:04Z</time>
      </trkpt>
      <trkpt lat="44.78629" lon="6.7829">
        <ele>2249.14</ele>
        <time>2018-09-14T10:45:14Z</time>
      </trkpt>
      <trkpt lat="44.78622" lon="6.78277">
        <ele>2250.1</ele>
        <time>2018-09-14T10:45:25Z</time>
      </trkpt>
      <trkpt lat="44.78614" lon="6.78268">
        <ele>2248.66</ele>
        <time>2018-09-14T10:45:35Z</time>
      </trkpt>
      <trkpt lat="44.78605" lon="6.78264">
        <ele>2246.74</ele>
        <time>2018-09-14T10:45:44Z</time>
      </trkpt>
      <trkpt lat="44.78595" lon="6.7826">
        <ele>2245.78</ele>
        <time>2018-09-14T10:45:58Z</time>
      </trkpt>
      <trkpt lat="44.78586" lon="6.78253">
        <ele>2245.3</ele>
        <time>2018-09-14T10:46:08Z</time>
      </trkpt>
      <trkpt lat="44.78577" lon="6.78247">
        <ele>2243.85</ele>
        <time>2018-09-14T10:46:19Z</time>
      </trkpt>
      <trkpt lat="44.7857" lon="6.78238">
        <ele>2241.93</ele>
        <time>2018-09-14T10:46:28Z</time>
      </trkpt>
      <trkpt lat="44.78561" lon="6.78233">
        <ele>2239.53</ele>
        <time>2018-09-14T10:46:38Z</time>
      </trkpt>
      <trkpt lat="44.78551" lon="6.78232">
        <ele>2238.09</ele>
        <time>2018-09-14T10:46:49Z</time>
      </trkpt>
      <trkpt lat="44.78543" lon="6.78225">
        <ele>2238.09</ele>
        <time>2018-09-14T10:47:00Z</time>
      </trkpt>
      <trkpt lat="44.78537" lon="6.78213">
        <ele>2236.16</ele>
        <time>2018-09-14T10:47:10Z</time>
      </trkpt>
      <trkpt lat="44.78531" lon="6.78203">
        <ele>2234.72</ele>
        <time>2018-09-14T10:47:20Z</time>
      </trkpt>
      <trkpt lat="44.78524" lon="6.78195">
        <ele>2233.76</ele>
        <time>2018-09-14T10:47:30Z</time>
      </trkpt>
      <trkpt lat="44.78516" lon="6.78187">
        <ele>2232.32</ele>
        <time>2018-09-14T10:47:41Z</time>
      </trkpt>
      <trkpt lat="44.78511" lon="6.78176">
        <ele>2230.88</ele>
        <time>2018-09-14T10:47:52Z</time>
      </trkpt>
      <trkpt lat="44.78503" lon="6.78167">
        <ele>2229.43</ele>
        <time>2018-09-14T10:48:03Z</time>
      </trkpt>
      <trkpt lat="44.78497" lon="6.78157">
        <ele>2227.51</ele>
        <time>2018-09-14T10:48:13Z</time>
      </trkpt>
      <trkpt lat="44.7849" lon="6.78148">
        <ele>2225.11</ele>
        <time>2018-09-14T10:48:25Z</time>
      </trkpt>
      <trkpt lat="44.78481" lon="6.78148">
        <ele>2223.19</ele>
        <time>2018-09-14T10:48:37Z</time>
      </trkpt>
      <trkpt lat="44.78471" lon="6.78145">
        <ele>2221.74</ele>
        <time>2018-09-14T10:48:48Z</time>
      </trkpt>
      <trkpt lat="44.78462" lon="6.78147">
        <ele>2218.86</ele>
        <time>2018-09-14T10:48:59Z</time>
      </trkpt>
      <trkpt lat="44.78453" lon="6.78147">
        <ele>2218.38</ele>
        <time>2018-09-14T10:49:08Z</time>
      </trkpt>
      <trkpt lat="44.78443" lon="6.78148">
        <ele>2217.9</ele>
        <time>2018-09-14T10:49:17Z</time>
      </trkpt>
      <trkpt lat="44.78434" lon="6.78148">
        <ele>2216.46</ele>
        <time>2018-09-14T10:49:26Z</time>
      </trkpt>
      <trkpt lat="44.78424" lon="6.78148">
        <ele>2215.5</ele>
        <time>2018-09-14T10:49:35Z</time>
      </trkpt>
      <trkpt lat="44.78414" lon="6.78146">
        <ele>2214.05</ele>
        <time>2018-09-14T10:49:44Z</time>
      </trkpt>
      <trkpt lat="44.78405" lon="6.78145">
        <ele>2213.57</ele>
        <time>2018-09-14T10:49:53Z</time>
      </trkpt>
      <trkpt lat="44.78395" lon="6.78144">
        <ele>2212.13</ele>
        <time>2018-09-14T10:50:04Z</time>
      </trkpt>
      <trkpt lat="44.78381" lon="6.78141">
        <ele>2212.13</ele>
        <time>2018-09-14T10:51:11Z</time>
      </trkpt>
      <trkpt lat="44.78374" lon="6.78138">
        <ele>2211.65</ele>
        <time>2018-09-14T10:51:22Z</time>
      </trkpt>
      <trkpt lat="44.78365" lon="6.78136">
        <ele>2210.21</ele>
        <time>2018-09-14T10:51:34Z</time>
      </trkpt>
      <trkpt lat="44.78356" lon="6.78133">
        <ele>2208.29</ele>
        <time>2018-09-14T10:51:43Z</time>
      </trkpt>
      <trkpt lat="44.78347" lon="6.78128">
        <ele>2207.81</ele>
        <time>2018-09-14T10:51:53Z</time>
      </trkpt>
      <trkpt lat="44.78337" lon="6.78122">
        <ele>2205.88</ele>
        <time>2018-09-14T10:52:05Z</time>
      </trkpt>
      <trkpt lat="44.78325" lon="6.78117">
        <ele>2204.92</ele>
        <time>2018-09-14T10:52:17Z</time>
      </trkpt>
      <trkpt lat="44.78315" lon="6.78112">
        <ele>2203</ele>
        <time>2018-09-14T10:52:30Z</time>
      </trkpt>
      <trkpt lat="44.78305" lon="6.78109">
        <ele>2201.56</ele>
        <time>2018-09-14T10:52:41Z</time>
      </trkpt>
      <trkpt lat="44.78295" lon="6.78104">
        <ele>2200.11</ele>
        <time>2018-09-14T10:53:12Z</time>
      </trkpt>
      <trkpt lat="44.78285" lon="6.78099">
        <ele>2197.71</ele>
        <time>2018-09-14T10:53:24Z</time>
      </trkpt>
      <trkpt lat="44.78274" lon="6.78092">
        <ele>2196.27</ele>
        <time>2018-09-14T10:53:35Z</time>
      </trkpt>
      <trkpt lat="44.78265" lon="6.78084">
        <ele>2195.31</ele>
        <time>2018-09-14T10:53:45Z</time>
      </trkpt>
      <trkpt lat="44.78256" lon="6.78076">
        <ele>2194.83</ele>
        <time>2018-09-14T10:53:55Z</time>
      </trkpt>
      <trkpt lat="44.78249" lon="6.78065">
        <ele>2194.83</ele>
        <time>2018-09-14T10:54:05Z</time>
      </trkpt>
      <trkpt lat="44.78243" lon="6.78052">
        <ele>2194.83</ele>
        <time>2018-09-14T10:54:30Z</time>
      </trkpt>
      <trkpt lat="44.78232" lon="6.78043">
        <ele>2193.39</ele>
        <time>2018-09-14T10:54:43Z</time>
      </trkpt>
      <trkpt lat="44.78223" lon="6.78031">
        <ele>2191.46</ele>
        <time>2018-09-14T10:54:55Z</time>
      </trkpt>
      <trkpt lat="44.78214" lon="6.78021">
        <ele>2190.02</ele>
        <time>2018-09-14T10:55:06Z</time>
      </trkpt>
      <trkpt lat="44.78205" lon="6.7801">
        <ele>2189.06</ele>
        <time>2018-09-14T10:55:17Z</time>
      </trkpt>
      <trkpt lat="44.78196" lon="6.78001">
        <ele>2186.66</ele>
        <time>2018-09-14T10:55:27Z</time>
      </trkpt>
      <trkpt lat="44.78186" lon="6.77993">
        <ele>2185.69</ele>
        <time>2018-09-14T10:55:36Z</time>
      </trkpt>
      <trkpt lat="44.78178" lon="6.77988">
        <ele>2183.29</ele>
        <time>2018-09-14T10:55:45Z</time>
      </trkpt>
      <trkpt lat="44.78169" lon="6.7798">
        <ele>2182.81</ele>
        <time>2018-09-14T10:55:57Z</time>
      </trkpt>
      <trkpt lat="44.78157" lon="6.77975">
        <ele>2181.85</ele>
        <time>2018-09-14T10:56:10Z</time>
      </trkpt>
      <trkpt lat="44.78143" lon="6.77964">
        <ele>2180.41</ele>
        <time>2018-09-14T10:56:25Z</time>
      </trkpt>
      <trkpt lat="44.78127" lon="6.77961">
        <ele>2178</ele>
        <time>2018-09-14T10:56:40Z</time>
      </trkpt>
      <trkpt lat="44.78116" lon="6.77955">
        <ele>2176.56</ele>
        <time>2018-09-14T10:56:53Z</time>
      </trkpt>
      <trkpt lat="44.78104" lon="6.77946">
        <ele>2176.56</ele>
        <time>2018-09-14T10:57:05Z</time>
      </trkpt>
      <trkpt lat="44.78092" lon="6.77943">
        <ele>2176.56</ele>
        <time>2018-09-14T10:57:15Z</time>
      </trkpt>
      <trkpt lat="44.78081" lon="6.77938">
        <ele>2175.6</ele>
        <time>2018-09-14T10:57:26Z</time>
      </trkpt>
      <trkpt lat="44.78068" lon="6.77935">
        <ele>2173.2</ele>
        <time>2018-09-14T10:57:37Z</time>
      </trkpt>
      <trkpt lat="44.78059" lon="6.7793">
        <ele>2173.2</ele>
        <time>2018-09-14T10:57:47Z</time>
      </trkpt>
      <trkpt lat="44.78048" lon="6.77925">
        <ele>2172.24</ele>
        <time>2018-09-14T10:57:57Z</time>
      </trkpt>
      <trkpt lat="44.78038" lon="6.7792">
        <ele>2170.79</ele>
        <time>2018-09-14T10:58:10Z</time>
      </trkpt>
      <trkpt lat="44.78028" lon="6.77915">
        <ele>2170.31</ele>
        <time>2018-09-14T10:58:20Z</time>
      </trkpt>
      <trkpt lat="44.78018" lon="6.77911">
        <ele>2168.87</ele>
        <time>2018-09-14T10:58:30Z</time>
      </trkpt>
      <trkpt lat="44.78008" lon="6.77905">
        <ele>2168.39</ele>
        <time>2018-09-14T10:58:41Z</time>
      </trkpt>
      <trkpt lat="44.77999" lon="6.77899">
        <ele>2167.43</ele>
        <time>2018-09-14T10:59:25Z</time>
      </trkpt>
      <trkpt lat="44.77986" lon="6.77899">
        <ele>2166.47</ele>
        <time>2018-09-14T10:59:37Z</time>
      </trkpt>
      <trkpt lat="44.77974" lon="6.77894">
        <ele>2165.03</ele>
        <time>2018-09-14T10:59:49Z</time>
      </trkpt>
      <trkpt lat="44.7796" lon="6.7789">
        <ele>2162.62</ele>
        <time>2018-09-14T11:00:02Z</time>
      </trkpt>
      <trkpt lat="44.77947" lon="6.77885">
        <ele>2160.7</ele>
        <time>2018-09-14T11:00:16Z</time>
      </trkpt>
      <trkpt lat="44.77937" lon="6.77882">
        <ele>2159.74</ele>
        <time>2018-09-14T11:00:28Z</time>
      </trkpt>
      <trkpt lat="44.77928" lon="6.77881">
        <ele>2158.3</ele>
        <time>2018-09-14T11:00:38Z</time>
      </trkpt>
      <trkpt lat="44.77919" lon="6.77876">
        <ele>2159.26</ele>
        <time>2018-09-14T11:00:59Z</time>
      </trkpt>
      <trkpt lat="44.77904" lon="6.77865">
        <ele>2159.26</ele>
        <time>2018-09-14T11:01:18Z</time>
      </trkpt>
      <trkpt lat="44.77886" lon="6.77856">
        <ele>2159.74</ele>
        <time>2018-09-14T11:01:36Z</time>
      </trkpt>
      <trkpt lat="44.77871" lon="6.77851">
        <ele>2159.26</ele>
        <time>2018-09-14T11:01:49Z</time>
      </trkpt>
      <trkpt lat="44.77856" lon="6.77848">
        <ele>2158.78</ele>
        <time>2018-09-14T11:02:05Z</time>
      </trkpt>
      <trkpt lat="44.77836" lon="6.77846">
        <ele>2157.34</ele>
        <time>2018-09-14T11:02:20Z</time>
      </trkpt>
      <trkpt lat="44.77824" lon="6.77844">
        <ele>2157.82</ele>
        <time>2018-09-14T11:02:38Z</time>
      </trkpt>
      <trkpt lat="44.77809" lon="6.77838">
        <ele>2155.89</ele>
        <time>2018-09-14T11:02:51Z</time>
      </trkpt>
      <trkpt lat="44.77798" lon="6.77834">
        <ele>2155.89</ele>
        <time>2018-09-14T11:03:02Z</time>
      </trkpt>
      <trkpt lat="44.77785" lon="6.77828">
        <ele>2154.93</ele>
        <time>2018-09-14T11:03:13Z</time>
      </trkpt>
      <trkpt lat="44.77774" lon="6.77822">
        <ele>2154.93</ele>
        <time>2018-09-14T11:03:23Z</time>
      </trkpt>
      <trkpt lat="44.77765" lon="6.77812">
        <ele>2153.97</ele>
        <time>2018-09-14T11:03:33Z</time>
      </trkpt>
      <trkpt lat="44.77759" lon="6.77799">
        <ele>2153.49</ele>
        <time>2018-09-14T11:03:42Z</time>
      </trkpt>
      <trkpt lat="44.77756" lon="6.77783">
        <ele>2152.53</ele>
        <time>2018-09-14T11:03:53Z</time>
      </trkpt>
      <trkpt lat="44.77752" lon="6.77767">
        <ele>2151.09</ele>
        <time>2018-09-14T11:04:05Z</time>
      </trkpt>
      <trkpt lat="44.77749" lon="6.7775">
        <ele>2149.16</ele>
        <time>2018-09-14T11:04:19Z</time>
      </trkpt>
      <trkpt lat="44.7774" lon="6.77728">
        <ele>2148.68</ele>
        <time>2018-09-14T11:04:42Z</time>
      </trkpt>
      <trkpt lat="44.77732" lon="6.77708">
        <ele>2147.24</ele>
        <time>2018-09-14T11:04:54Z</time>
      </trkpt>
      <trkpt lat="44.77727" lon="6.77694">
        <ele>2146.28</ele>
        <time>2018-09-14T11:05:04Z</time>
      </trkpt>
      <trkpt lat="44.77722" lon="6.77683">
        <ele>2144.84</ele>
        <time>2018-09-14T11:05:13Z</time>
      </trkpt>
      <trkpt lat="44.77717" lon="6.77669">
        <ele>2143.88</ele>
        <time>2018-09-14T11:05:30Z</time>
      </trkpt>
      <trkpt lat="44.77713" lon="6.77656">
        <ele>2142.44</ele>
        <time>2018-09-14T11:05:42Z</time>
      </trkpt>
      <trkpt lat="44.7771" lon="6.77643">
        <ele>2140.99</ele>
        <time>2018-09-14T11:05:53Z</time>
      </trkpt>
      <trkpt lat="44.77706" lon="6.77629">
        <ele>2140.03</ele>
        <time>2018-09-14T11:06:05Z</time>
      </trkpt>
      <trkpt lat="44.77704" lon="6.77619">
        <ele>2137.63</ele>
        <time>2018-09-14T11:06:58Z</time>
      </trkpt>
      <trkpt lat="44.77699" lon="6.77605">
        <ele>2135.23</ele>
        <time>2018-09-14T11:07:18Z</time>
      </trkpt>
      <trkpt lat="44.77696" lon="6.77588">
        <ele>2133.78</ele>
        <time>2018-09-14T11:07:32Z</time>
      </trkpt>
      <trkpt lat="44.77695" lon="6.77573">
        <ele>2130.42</ele>
        <time>2018-09-14T11:07:46Z</time>
      </trkpt>
      <trkpt lat="44.77695" lon="6.77558">
        <ele>2127.53</ele>
        <time>2018-09-14T11:07:59Z</time>
      </trkpt>
      <trkpt lat="44.77695" lon="6.77543">
        <ele>2124.17</ele>
        <time>2018-09-14T11:08:11Z</time>
      </trkpt>
      <trkpt lat="44.77695" lon="6.77526">
        <ele>2119.84</ele>
        <time>2018-09-14T11:08:28Z</time>
      </trkpt>
      <trkpt lat="44.77694" lon="6.77514">
        <ele>2116.48</ele>
        <time>2018-09-14T11:08:39Z</time>
      </trkpt>
      <trkpt lat="44.77694" lon="6.775">
        <ele>2112.63</ele>
        <time>2018-09-14T11:08:52Z</time>
      </trkpt>
      <trkpt lat="44.77702" lon="6.77493">
        <ele>2110.23</ele>
        <time>2018-09-14T11:09:03Z</time>
      </trkpt>
      <trkpt lat="44.77712" lon="6.77492">
        <ele>2109.27</ele>
        <time>2018-09-14T11:09:14Z</time>
      </trkpt>
      <trkpt lat="44.77722" lon="6.7748">
        <ele>2107.35</ele>
        <time>2018-09-14T11:09:24Z</time>
      </trkpt>
      <trkpt lat="44.7773" lon="6.77471">
        <ele>2105.91</ele>
        <time>2018-09-14T11:09:33Z</time>
      </trkpt>
      <trkpt lat="44.77738" lon="6.77457">
        <ele>2105.42</ele>
        <time>2018-09-14T11:09:44Z</time>
      </trkpt>
      <trkpt lat="44.77748" lon="6.7745">
        <ele>2103.5</ele>
        <time>2018-09-14T11:09:55Z</time>
      </trkpt>
      <trkpt lat="44.7776" lon="6.77444">
        <ele>2101.58</ele>
        <time>2018-09-14T11:10:07Z</time>
      </trkpt>
      <trkpt lat="44.77768" lon="6.77434">
        <ele>2099.66</ele>
        <time>2018-09-14T11:10:18Z</time>
      </trkpt>
      <trkpt lat="44.77776" lon="6.77423">
        <ele>2097.73</ele>
        <time>2018-09-14T11:10:29Z</time>
      </trkpt>
      <trkpt lat="44.77783" lon="6.7741">
        <ele>2095.33</ele>
        <time>2018-09-14T11:10:41Z</time>
      </trkpt>
      <trkpt lat="44.77777" lon="6.77412">
        <ele>2091.97</ele>
        <time>2018-09-14T11:10:57Z</time>
      </trkpt>
      <trkpt lat="44.7776" lon="6.77419">
        <ele>2087.16</ele>
        <time>2018-09-14T11:11:19Z</time>
      </trkpt>
      <trkpt lat="44.77746" lon="6.77423">
        <ele>2084.76</ele>
        <time>2018-09-14T11:11:34Z</time>
      </trkpt>
      <trkpt lat="44.77741" lon="6.77415">
        <ele>2081.87</ele>
        <time>2018-09-14T11:11:48Z</time>
      </trkpt>
      <trkpt lat="44.77752" lon="6.77408">
        <ele>2081.39</ele>
        <time>2018-09-14T11:11:59Z</time>
      </trkpt>
      <trkpt lat="44.77762" lon="6.77403">
        <ele>2080.43</ele>
        <time>2018-09-14T11:12:09Z</time>
      </trkpt>
      <trkpt lat="44.77771" lon="6.77392">
        <ele>2078.51</ele>
        <time>2018-09-14T11:12:21Z</time>
      </trkpt>
      <trkpt lat="44.7778" lon="6.77381">
        <ele>2076.59</ele>
        <time>2018-09-14T11:12:33Z</time>
      </trkpt>
      <trkpt lat="44.77788" lon="6.77369">
        <ele>2074.18</ele>
        <time>2018-09-14T11:12:45Z</time>
      </trkpt>
      <trkpt lat="44.77796" lon="6.77361">
        <ele>2073.22</ele>
        <time>2018-09-14T11:13:08Z</time>
      </trkpt>
      <trkpt lat="44.77805" lon="6.77347">
        <ele>2072.26</ele>
        <time>2018-09-14T11:13:21Z</time>
      </trkpt>
      <trkpt lat="44.77814" lon="6.77334">
        <ele>2068.89</ele>
        <time>2018-09-14T11:13:36Z</time>
      </trkpt>
      <trkpt lat="44.7782" lon="6.77321">
        <ele>2066.97</ele>
        <time>2018-09-14T11:13:47Z</time>
      </trkpt>
      <trkpt lat="44.77828" lon="6.77308">
        <ele>2063.61</ele>
        <time>2018-09-14T11:13:58Z</time>
      </trkpt>
      <trkpt lat="44.77836" lon="6.77294">
        <ele>2063.61</ele>
        <time>2018-09-14T11:14:09Z</time>
      </trkpt>
      <trkpt lat="44.77844" lon="6.77285">
        <ele>2062.17</ele>
        <time>2018-09-14T11:14:19Z</time>
      </trkpt>
      <trkpt lat="44.77851" lon="6.77277">
        <ele>2060.24</ele>
        <time>2018-09-14T11:14:32Z</time>
      </trkpt>
      <trkpt lat="44.77837" lon="6.77284">
        <ele>2055.92</ele>
        <time>2018-09-14T11:14:52Z</time>
      </trkpt>
      <trkpt lat="44.77823" lon="6.7729">
        <ele>2052.55</ele>
        <time>2018-09-14T11:15:10Z</time>
      </trkpt>
      <trkpt lat="44.77807" lon="6.77298">
        <ele>2049.67</ele>
        <time>2018-09-14T11:15:27Z</time>
      </trkpt>
      <trkpt lat="44.77791" lon="6.773">
        <ele>2045.34</ele>
        <time>2018-09-14T11:15:45Z</time>
      </trkpt>
      <trkpt lat="44.77773" lon="6.77305">
        <ele>2041.02</ele>
        <time>2018-09-14T11:16:05Z</time>
      </trkpt>
      <trkpt lat="44.77752" lon="6.7731">
        <ele>2038.13</ele>
        <time>2018-09-14T11:16:28Z</time>
      </trkpt>
      <trkpt lat="44.77755" lon="6.77293">
        <ele>2034.77</ele>
        <time>2018-09-14T11:16:42Z</time>
      </trkpt>
      <trkpt lat="44.77764" lon="6.77288">
        <ele>2034.29</ele>
        <time>2018-09-14T11:16:52Z</time>
      </trkpt>
      <trkpt lat="44.77772" lon="6.77275">
        <ele>2032.84</ele>
        <time>2018-09-14T11:17:11Z</time>
      </trkpt>
      <trkpt lat="44.77781" lon="6.77262">
        <ele>2030.92</ele>
        <time>2018-09-14T11:17:23Z</time>
      </trkpt>
      <trkpt lat="44.77792" lon="6.77253">
        <ele>2027.56</ele>
        <time>2018-09-14T11:17:35Z</time>
      </trkpt>
      <trkpt lat="44.778" lon="6.77236">
        <ele>2024.67</ele>
        <time>2018-09-14T11:18:26Z</time>
      </trkpt>
      <trkpt lat="44.77808" lon="6.77226">
        <ele>2024.67</ele>
        <time>2018-09-14T11:18:41Z</time>
      </trkpt>
      <trkpt lat="44.77813" lon="6.77217">
        <ele>2022.27</ele>
        <time>2018-09-14T11:19:08Z</time>
      </trkpt>
      <trkpt lat="44.77797" lon="6.77222">
        <ele>2017.46</ele>
        <time>2018-09-14T11:19:31Z</time>
      </trkpt>
      <trkpt lat="44.77779" lon="6.77226">
        <ele>2015.06</ele>
        <time>2018-09-14T11:20:10Z</time>
      </trkpt>
      <trkpt lat="44.77761" lon="6.77236">
        <ele>2010.25</ele>
        <time>2018-09-14T11:20:30Z</time>
      </trkpt>
      <trkpt lat="44.77735" lon="6.77236">
        <ele>2006.89</ele>
        <time>2018-09-14T11:20:54Z</time>
      </trkpt>
      <trkpt lat="44.77722" lon="6.77235">
        <ele>2003.04</ele>
        <time>2018-09-14T11:21:16Z</time>
      </trkpt>
      <trkpt lat="44.7773" lon="6.77224">
        <ele>2001.6</ele>
        <time>2018-09-14T11:21:27Z</time>
      </trkpt>
      <trkpt lat="44.77741" lon="6.77216">
        <ele>2000.16</ele>
        <time>2018-09-14T11:21:40Z</time>
      </trkpt>
      <trkpt lat="44.77753" lon="6.77206">
        <ele>1998.24</ele>
        <time>2018-09-14T11:21:52Z</time>
      </trkpt>
      <trkpt lat="44.77762" lon="6.77194">
        <ele>1997.28</ele>
        <time>2018-09-14T11:22:02Z</time>
      </trkpt>
      <trkpt lat="44.7777" lon="6.7719">
        <ele>1997.28</ele>
        <time>2018-09-14T11:22:12Z</time>
      </trkpt>
      <trkpt lat="44.77779" lon="6.77175">
        <ele>1994.39</ele>
        <time>2018-09-14T11:22:24Z</time>
      </trkpt>
      <trkpt lat="44.77785" lon="6.77161">
        <ele>1992.95</ele>
        <time>2018-09-14T11:22:33Z</time>
      </trkpt>
      <trkpt lat="44.77791" lon="6.77148">
        <ele>1992.47</ele>
        <time>2018-09-14T11:22:44Z</time>
      </trkpt>
      <trkpt lat="44.77785" lon="6.77152">
        <ele>1990.07</ele>
        <time>2018-09-14T11:22:58Z</time>
      </trkpt>
      <trkpt lat="44.77776" lon="6.7716">
        <ele>1987.18</ele>
        <time>2018-09-14T11:23:09Z</time>
      </trkpt>
      <trkpt lat="44.77765" lon="6.77168">
        <ele>1985.74</ele>
        <time>2018-09-14T11:23:22Z</time>
      </trkpt>
      <trkpt lat="44.77751" lon="6.77174">
        <ele>1982.86</ele>
        <time>2018-09-14T11:23:34Z</time>
      </trkpt>
      <trkpt lat="44.77737" lon="6.77167">
        <ele>1980.93</ele>
        <time>2018-09-14T11:23:50Z</time>
      </trkpt>
      <trkpt lat="44.77744" lon="6.77153">
        <ele>1977.57</ele>
        <time>2018-09-14T11:24:04Z</time>
      </trkpt>
      <trkpt lat="44.77754" lon="6.7714">
        <ele>1975.65</ele>
        <time>2018-09-14T11:24:16Z</time>
      </trkpt>
      <trkpt lat="44.7776" lon="6.77128">
        <ele>1973.24</ele>
        <time>2018-09-14T11:24:28Z</time>
      </trkpt>
      <trkpt lat="44.77752" lon="6.77129">
        <ele>1970.36</ele>
        <time>2018-09-14T11:24:41Z</time>
      </trkpt>
      <trkpt lat="44.7774" lon="6.77129">
        <ele>1967.48</ele>
        <time>2018-09-14T11:24:53Z</time>
      </trkpt>
      <trkpt lat="44.77726" lon="6.7713">
        <ele>1965.55</ele>
        <time>2018-09-14T11:25:09Z</time>
      </trkpt>
      <trkpt lat="44.77711" lon="6.77132">
        <ele>1962.67</ele>
        <time>2018-09-14T11:25:22Z</time>
      </trkpt>
      <trkpt lat="44.777" lon="6.77125">
        <ele>1959.3</ele>
        <time>2018-09-14T11:25:39Z</time>
      </trkpt>
      <trkpt lat="44.77712" lon="6.77117">
        <ele>1958.82</ele>
        <time>2018-09-14T11:25:51Z</time>
      </trkpt>
      <trkpt lat="44.77721" lon="6.77108">
        <ele>1957.38</ele>
        <time>2018-09-14T11:26:02Z</time>
      </trkpt>
      <trkpt lat="44.77731" lon="6.77099">
        <ele>1955.46</ele>
        <time>2018-09-14T11:26:12Z</time>
      </trkpt>
      <trkpt lat="44.77741" lon="6.7709">
        <ele>1955.46</ele>
        <time>2018-09-14T11:26:24Z</time>
      </trkpt>
      <trkpt lat="44.77752" lon="6.77073">
        <ele>1955.46</ele>
        <time>2018-09-14T11:26:37Z</time>
      </trkpt>
      <trkpt lat="44.77746" lon="6.77076">
        <ele>1951.61</ele>
        <time>2018-09-14T11:26:58Z</time>
      </trkpt>
      <trkpt lat="44.77732" lon="6.77085">
        <ele>1949.69</ele>
        <time>2018-09-14T11:27:13Z</time>
      </trkpt>
      <trkpt lat="44.77713" lon="6.77086">
        <ele>1947.29</ele>
        <time>2018-09-14T11:27:29Z</time>
      </trkpt>
      <trkpt lat="44.77697" lon="6.77086">
        <ele>1944.88</ele>
        <time>2018-09-14T11:27:44Z</time>
      </trkpt>
      <trkpt lat="44.77682" lon="6.77087">
        <ele>1941.52</ele>
        <time>2018-09-14T11:28:01Z</time>
      </trkpt>
      <trkpt lat="44.77665" lon="6.77094">
        <ele>1940.56</ele>
        <time>2018-09-14T11:28:16Z</time>
      </trkpt>
      <trkpt lat="44.77659" lon="6.77087">
        <ele>1936.23</ele>
        <time>2018-09-14T11:28:32Z</time>
      </trkpt>
      <trkpt lat="44.77665" lon="6.77073">
        <ele>1933.83</ele>
        <time>2018-09-14T11:28:44Z</time>
      </trkpt>
      <trkpt lat="44.77671" lon="6.7706">
        <ele>1932.39</ele>
        <time>2018-09-14T11:28:55Z</time>
      </trkpt>
      <trkpt lat="44.77676" lon="6.77047">
        <ele>1929.98</ele>
        <time>2018-09-14T11:29:05Z</time>
      </trkpt>
      <trkpt lat="44.77682" lon="6.77034">
        <ele>1929.02</ele>
        <time>2018-09-14T11:29:15Z</time>
      </trkpt>
      <trkpt lat="44.77692" lon="6.77029">
        <ele>1928.06</ele>
        <time>2018-09-14T11:29:25Z</time>
      </trkpt>
      <trkpt lat="44.77702" lon="6.77025">
        <ele>1927.1</ele>
        <time>2018-09-14T11:29:34Z</time>
      </trkpt>
      <trkpt lat="44.77712" lon="6.7702">
        <ele>1926.14</ele>
        <time>2018-09-14T11:29:43Z</time>
      </trkpt>
      <trkpt lat="44.77722" lon="6.77012">
        <ele>1924.22</ele>
        <time>2018-09-14T11:29:52Z</time>
      </trkpt>
      <trkpt lat="44.7773" lon="6.77003">
        <ele>1924.22</ele>
        <time>2018-09-14T11:30:00Z</time>
      </trkpt>
      <trkpt lat="44.77738" lon="6.76992">
        <ele>1923.25</ele>
        <time>2018-09-14T11:30:09Z</time>
      </trkpt>
      <trkpt lat="44.77747" lon="6.76982">
        <ele>1920.85</ele>
        <time>2018-09-14T11:30:20Z</time>
      </trkpt>
      <trkpt lat="44.77736" lon="6.76992">
        <ele>1917.97</ele>
        <time>2018-09-14T11:30:37Z</time>
      </trkpt>
      <trkpt lat="44.77723" lon="6.76987">
        <ele>1916.04</ele>
        <time>2018-09-14T11:30:48Z</time>
      </trkpt>
      <trkpt lat="44.77712" lon="6.76985">
        <ele>1912.68</ele>
        <time>2018-09-14T11:30:57Z</time>
      </trkpt>
      <trkpt lat="44.77702" lon="6.76981">
        <ele>1910.28</ele>
        <time>2018-09-14T11:31:06Z</time>
      </trkpt>
      <trkpt lat="44.77691" lon="6.76978">
        <ele>1908.35</ele>
        <time>2018-09-14T11:31:18Z</time>
      </trkpt>
      <trkpt lat="44.7768" lon="6.76974">
        <ele>1907.39</ele>
        <time>2018-09-14T11:31:30Z</time>
      </trkpt>
      <trkpt lat="44.77672" lon="6.7696">
        <ele>1904.99</ele>
        <time>2018-09-14T11:31:43Z</time>
      </trkpt>
      <trkpt lat="44.77662" lon="6.76961">
        <ele>1900.66</ele>
        <time>2018-09-14T11:31:56Z</time>
      </trkpt>
      <trkpt lat="44.77652" lon="6.76965">
        <ele>1899.22</ele>
        <time>2018-09-14T11:32:05Z</time>
      </trkpt>
      <trkpt lat="44.77641" lon="6.76969">
        <ele>1895.86</ele>
        <time>2018-09-14T11:32:15Z</time>
      </trkpt>
      <trkpt lat="44.77631" lon="6.76966">
        <ele>1892.97</ele>
        <time>2018-09-14T11:32:24Z</time>
      </trkpt>
      <trkpt lat="44.77624" lon="6.7696">
        <ele>1890.09</ele>
        <time>2018-09-14T11:32:32Z</time>
      </trkpt>
      <trkpt lat="44.77616" lon="6.76954">
        <ele>1887.21</ele>
        <time>2018-09-14T11:32:41Z</time>
      </trkpt>
      <trkpt lat="44.77609" lon="6.76947">
        <ele>1885.28</ele>
        <time>2018-09-14T11:32:51Z</time>
      </trkpt>
      <trkpt lat="44.77602" lon="6.76945">
        <ele>1884.32</ele>
        <time>2018-09-14T11:33:17Z</time>
      </trkpt>
      <trkpt lat="44.77602" lon="6.76943">
        <ele>1884.32</ele>
        <time>2018-09-14T11:33:31Z</time>
      </trkpt>
      <trkpt lat="44.77605" lon="6.76931">
        <ele>1881.92</ele>
        <time>2018-09-14T11:33:45Z</time>
      </trkpt>
      <trkpt lat="44.77609" lon="6.76918">
        <ele>1879.51</ele>
        <time>2018-09-14T11:33:58Z</time>
      </trkpt>
      <trkpt lat="44.77606" lon="6.7691">
        <ele>1875.67</ele>
        <time>2018-09-14T11:34:11Z</time>
      </trkpt>
      <trkpt lat="44.776" lon="6.76901">
        <ele>1873.27</ele>
        <time>2018-09-14T11:34:25Z</time>
      </trkpt>
      <trkpt lat="44.7759" lon="6.76893">
        <ele>1869.9</ele>
        <time>2018-09-14T11:34:39Z</time>
      </trkpt>
      <trkpt lat="44.77585" lon="6.76892">
        <ele>1869.42</ele>
        <time>2018-09-14T11:35:03Z</time>
      </trkpt>
      <trkpt lat="44.77577" lon="6.76901">
        <ele>1867.02</ele>
        <time>2018-09-14T11:35:13Z</time>
      </trkpt>
      <trkpt lat="44.77569" lon="6.76899">
        <ele>1866.06</ele>
        <time>2018-09-14T11:35:40Z</time>
      </trkpt>
      <trkpt lat="44.7756" lon="6.76914">
        <ele>1865.58</ele>
        <time>2018-09-14T11:36:00Z</time>
      </trkpt>
      <trkpt lat="44.77558" lon="6.76912">
        <ele>1864.13</ele>
        <time>2018-09-14T11:36:22Z</time>
      </trkpt>
      <trkpt lat="44.77549" lon="6.76915">
        <ele>1862.21</ele>
        <time>2018-09-14T11:36:39Z</time>
      </trkpt>
      <trkpt lat="44.77542" lon="6.76918">
        <ele>1858.37</ele>
        <time>2018-09-14T11:36:53Z</time>
      </trkpt>
      <trkpt lat="44.77526" lon="6.76938">
        <ele>1794.92</ele>
        <time>2018-09-15T06:02:25Z</time>
      </trkpt>
      <trkpt lat="44.77525" lon="6.76927">
        <ele>1800.69</ele>
        <time>2018-09-15T06:04:55Z</time>
      </trkpt>
      <trkpt lat="44.77529" lon="6.7693">
        <ele>1801.17</ele>
        <time>2018-09-15T06:05:15Z</time>
      </trkpt>
    </trkseg>
  </trk>
</gpx>